<?xml version='1.0' encoding='UTF-8'?><gpx version="1.1" creator="JPX - https://github.com/jenetics/jpx" xmlns="http://www.topografix.com/GPX/1/1"><trk><trkseg><trkpt lat="45.96810549967547" lon="9.08144926653158"><ele>781.0</ele><time>2026-03-24T16:26:39.995Z</time></trkpt><trkpt lat="45.96806803256829" lon="9.081543143847101"><ele>781.0</ele><time>2026-03-24T16:26:42.995Z</time></trkpt><trkpt lat="45.96803014636595" lon="9.081624867403022"><ele>781.0</ele><time>2026-03-24T16:26:45Z</time></trkpt><trkpt lat="45.9679858899172" lon="9.081712039196008"><ele>781.0</ele><time>2026-03-24T16:26:47Z</time></trkpt><trkpt lat="45.96794062764008" lon="9.081792589285486"><ele>781.0</ele><time>2026-03-24T16:26:49Z</time></trkpt><trkpt lat="45.96788907606502" lon="9.081881367840404"><ele>781.0</ele><time>2026-03-24T16:26:51Z</time></trkpt><trkpt lat="45.967829544460855" lon="9.08193827874819"><ele>781.0</ele><time>2026-03-24T16:26:53Z</time></trkpt><trkpt lat="45.96776384321911" lon="9.081892891126415"><ele>780.9999999999999</ele><time>2026-03-24T16:26:55Z</time></trkpt><trkpt lat="45.96772958870914" lon="9.08178949723553"><ele>781.0</ele><time>2026-03-24T16:26:57Z</time></trkpt><trkpt lat="45.967721121646576" lon="9.081690653861115"><ele>781.0</ele><time>2026-03-24T16:26:58Z</time></trkpt><trkpt lat="45.96772940249019" lon="9.081598527159658"><ele>781.0</ele><time>2026-03-24T16:26:59Z</time></trkpt><trkpt lat="45.96774417160493" lon="9.081484601685286"><ele>780.9999999999999</ele><time>2026-03-24T16:27:00Z</time></trkpt><trkpt lat="45.967774392122045" lon="9.081349139086669"><ele>781.0</ele><time>2026-03-24T16:27:01Z</time></trkpt><trkpt lat="45.9678126176519" lon="9.081240777318941"><ele>781.0</ele><time>2026-03-24T16:27:02Z</time></trkpt><trkpt lat="45.967876501313576" lon="9.08110782898211"><ele>781.0</ele><time>2026-03-24T16:27:03Z</time></trkpt><trkpt lat="45.968000942238504" lon="9.080976834463671"><ele>781.0</ele><time>2026-03-24T16:27:04Z</time></trkpt><trkpt lat="45.968034711015314" lon="9.080865743815378"><ele>781.0</ele><time>2026-03-24T16:27:05Z</time></trkpt><trkpt lat="45.96805938880437" lon="9.08074694027185"><ele>781.0</ele><time>2026-03-24T16:27:06Z</time></trkpt><trkpt lat="45.968099560712545" lon="9.080658365476156"><ele>780.4</ele><time>2026-03-24T16:27:07Z</time></trkpt><trkpt lat="45.968140367908795" lon="9.080561400507557"><ele>779.8</ele><time>2026-03-24T16:27:08Z</time></trkpt><trkpt lat="45.96822556416391" lon="9.080395310483567"><ele>779.1999999999999</ele><time>2026-03-24T16:27:10Z</time></trkpt><trkpt lat="45.968293767288124" lon="9.080300095434465"><ele>778.5999999999999</ele><time>2026-03-24T16:27:11Z</time></trkpt><trkpt lat="45.96833850833365" lon="9.080205522697698"><ele>778.0</ele><time>2026-03-24T16:27:12Z</time></trkpt><trkpt lat="45.96838496915216" lon="9.080109940214742"><ele>779.0</ele><time>2026-03-24T16:27:13Z</time></trkpt><trkpt lat="45.968436763479765" lon="9.079997270581242"><ele>780.0</ele><time>2026-03-24T16:27:14Z</time></trkpt><trkpt lat="45.968488105498324" lon="9.079904563504767"><ele>781.0</ele><time>2026-03-24T16:27:15Z</time></trkpt><trkpt lat="45.968547487437874" lon="9.079809354473436"><ele>782.0</ele><time>2026-03-24T16:27:16Z</time></trkpt><trkpt lat="45.968619433317464" lon="9.07971577363522"><ele>783.0</ele><time>2026-03-24T16:27:17Z</time></trkpt><trkpt lat="45.968698113954616" lon="9.07962196533005"><ele>783.0</ele><time>2026-03-24T16:27:18Z</time></trkpt><trkpt lat="45.96876734057686" lon="9.079547706800518"><ele>783.0</ele><time>2026-03-24T16:27:19Z</time></trkpt><trkpt lat="45.96884537377759" lon="9.079478551387526"><ele>783.0</ele><time>2026-03-24T16:27:20Z</time></trkpt><trkpt lat="45.96891529837145" lon="9.079405175173095"><ele>783.0</ele><time>2026-03-24T16:27:21Z</time></trkpt><trkpt lat="45.968994527081776" lon="9.079316656414079"><ele>783.0</ele><time>2026-03-24T16:27:22Z</time></trkpt><trkpt lat="45.96906307838345" lon="9.079251896465852"><ele>783.0</ele><time>2026-03-24T16:27:23Z</time></trkpt><trkpt lat="45.969137677553974" lon="9.079157457312599"><ele>784.1666666666666</ele><time>2026-03-24T16:27:24Z</time></trkpt><trkpt lat="45.96923951985321" lon="9.07911851196236"><ele>785.3333333333333</ele><time>2026-03-24T16:27:25Z</time></trkpt><trkpt lat="45.96931120359156" lon="9.07907379240629"><ele>786.5</ele><time>2026-03-24T16:27:26Z</time></trkpt><trkpt lat="45.96938785773051" lon="9.079029753825305"><ele>787.6666666666666</ele><time>2026-03-24T16:27:27Z</time></trkpt><trkpt lat="45.96945733274168" lon="9.07900206677184"><ele>788.8333333333333</ele><time>2026-03-24T16:27:28Z</time></trkpt><trkpt lat="45.96952714628199" lon="9.078978383422902"><ele>790.0</ele><time>2026-03-24T16:27:29Z</time></trkpt><trkpt lat="45.96958861463055" lon="9.078956344275438"><ele>790.0</ele><time>2026-03-24T16:27:30Z</time></trkpt><trkpt lat="45.96970892596974" lon="9.078888102427275"><ele>790.0</ele><time>2026-03-24T16:27:31.999Z</time></trkpt><trkpt lat="45.96976435490015" lon="9.078789700964006"><ele>790.0</ele><time>2026-03-24T16:27:32.999Z</time></trkpt><trkpt lat="45.96984117607754" lon="9.078683443590169"><ele>790.0</ele><time>2026-03-24T16:27:33.999Z</time></trkpt><trkpt lat="45.969906478629184" lon="9.078606087390105"><ele>790.0</ele><time>2026-03-24T16:27:34.999Z</time></trkpt><trkpt lat="45.96996832258775" lon="9.078525112236235"><ele>790.0</ele><time>2026-03-24T16:27:35.999Z</time></trkpt><trkpt lat="45.97001987064091" lon="9.078471428462521"><ele>790.0</ele><time>2026-03-24T16:27:36.999Z</time></trkpt><trkpt lat="45.970106416309434" lon="9.078431160948863"><ele>790.0</ele><time>2026-03-24T16:27:38.999Z</time></trkpt><trkpt lat="45.970172013762834" lon="9.078431285573389"><ele>790.0</ele><time>2026-03-24T16:27:39.999Z</time></trkpt><trkpt lat="45.970263365222635" lon="9.078422845466026"><ele>790.0</ele><time>2026-03-24T16:27:40.999Z</time></trkpt><trkpt lat="45.970377061252506" lon="9.07854327955718"><ele>790.8333333333333</ele><time>2026-03-24T16:27:41.999Z</time></trkpt><trkpt lat="45.97043417571817" lon="9.078504005465692"><ele>791.6666666666666</ele><time>2026-03-24T16:27:44.999Z</time></trkpt><trkpt lat="45.97049802296395" lon="9.078496159880661"><ele>792.5</ele><time>2026-03-24T16:27:45.999Z</time></trkpt><trkpt lat="45.97058785104625" lon="9.078450643738908"><ele>793.3333333333333</ele><time>2026-03-24T16:27:46.999Z</time></trkpt><trkpt lat="45.9706699387314" lon="9.078417859640279"><ele>794.1666666666666</ele><time>2026-03-24T16:27:47.999Z</time></trkpt><trkpt lat="45.970758443933434" lon="9.078381771281299"><ele>795.0</ele><time>2026-03-24T16:27:48.999Z</time></trkpt><trkpt lat="45.97085468692122" lon="9.078368750961076"><ele>796.25</ele><time>2026-03-24T16:27:49.999Z</time></trkpt><trkpt lat="45.97094693855829" lon="9.078296590890515"><ele>797.5</ele><time>2026-03-24T16:27:50.999Z</time></trkpt><trkpt lat="45.97102842969738" lon="9.078171786214934"><ele>798.75</ele><time>2026-03-24T16:27:51.999Z</time></trkpt><trkpt lat="45.97113306414873" lon="9.078019087226506"><ele>800.0</ele><time>2026-03-24T16:27:52.999Z</time></trkpt><trkpt lat="45.971234901400685" lon="9.07784703723813"><ele>800.0</ele><time>2026-03-24T16:27:53.999Z</time></trkpt><trkpt lat="45.97135026906493" lon="9.077724429991612"><ele>800.0</ele><time>2026-03-24T16:27:54.999Z</time></trkpt><trkpt lat="45.971427929999294" lon="9.07760014001612"><ele>800.0</ele><time>2026-03-24T16:27:55.999Z</time></trkpt><trkpt lat="45.971476445694144" lon="9.077522691757943"><ele>800.0</ele><time>2026-03-24T16:27:56.999Z</time></trkpt><trkpt lat="45.971624873294864" lon="9.077591186846433"><ele>800.0</ele><time>2026-03-24T16:27:59.999Z</time></trkpt><trkpt lat="45.97169652288473" lon="9.07770722649416"><ele>800.0</ele><time>2026-03-24T16:28:00.999Z</time></trkpt><trkpt lat="45.97173562420325" lon="9.077797954816743"><ele>800.0</ele><time>2026-03-24T16:28:01.999Z</time></trkpt><trkpt lat="45.97175784347544" lon="9.077899250377994"><ele>800.0</ele><time>2026-03-24T16:28:02.999Z</time></trkpt><trkpt lat="45.97169131557058" lon="9.078019206979727"><ele>800.0</ele><time>2026-03-24T16:28:03.999Z</time></trkpt><trkpt lat="45.97165258109721" lon="9.078187410545102"><ele>801.8</ele><time>2026-03-24T16:28:04.999Z</time></trkpt><trkpt lat="45.971652180651425" lon="9.078339285974199"><ele>803.6</ele><time>2026-03-24T16:28:05.999Z</time></trkpt><trkpt lat="45.97166675362636" lon="9.078482105203975"><ele>805.4000000000001</ele><time>2026-03-24T16:28:06.999Z</time></trkpt><trkpt lat="45.97170722543103" lon="9.078599848745469"><ele>807.2</ele><time>2026-03-24T16:28:07.999Z</time></trkpt><trkpt lat="45.97176981173834" lon="9.078704221644175"><ele>809.0</ele><time>2026-03-24T16:28:08.999Z</time></trkpt><trkpt lat="45.971839704551364" lon="9.078835740987596"><ele>812.2</ele><time>2026-03-24T16:28:10.999Z</time></trkpt><trkpt lat="45.97181388714048" lon="9.078944448891436"><ele>815.4000000000001</ele><time>2026-03-24T16:28:11.999Z</time></trkpt><trkpt lat="45.97180670265304" lon="9.079079085880023"><ele>818.6</ele><time>2026-03-24T16:28:12.999Z</time></trkpt><trkpt lat="45.97179674502042" lon="9.079262415812517"><ele>821.8</ele><time>2026-03-24T16:28:13.999Z</time></trkpt><trkpt lat="45.97179133624321" lon="9.079417813230357"><ele>825.0</ele><time>2026-03-24T16:28:14.999Z</time></trkpt><trkpt lat="45.97177681805556" lon="9.07953366233868"><ele>824.5</ele><time>2026-03-24T16:28:15.999Z</time></trkpt><trkpt lat="45.97171893130787" lon="9.079643622429568"><ele>824.0</ele><time>2026-03-24T16:28:16.999Z</time></trkpt><trkpt lat="45.97166897004585" lon="9.079765005033048"><ele>823.5</ele><time>2026-03-24T16:28:17.999Z</time></trkpt><trkpt lat="45.97169856136933" lon="9.079935294685999"><ele>823.0</ele><time>2026-03-24T16:28:18.999Z</time></trkpt><trkpt lat="45.971731019141316" lon="9.080124403581419"><ele>828.8</ele><time>2026-03-24T16:28:19.999Z</time></trkpt><trkpt lat="45.971743096638896" lon="9.08032505706101"><ele>834.5999999999999</ele><time>2026-03-24T16:28:20.999Z</time></trkpt><trkpt lat="45.971781794938536" lon="9.080472130961075"><ele>840.4000000000001</ele><time>2026-03-24T16:28:21.999Z</time></trkpt><trkpt lat="45.97185492145443" lon="9.080555097889"><ele>846.2</ele><time>2026-03-24T16:28:23.999Z</time></trkpt><trkpt lat="45.97195542900076" lon="9.080504972189646"><ele>852.0</ele><time>2026-03-24T16:28:24.999Z</time></trkpt><trkpt lat="45.97206102090948" lon="9.080452539060273"><ele>852.0</ele><time>2026-03-24T16:28:25.999Z</time></trkpt><trkpt lat="45.97217401804646" lon="9.08042385121791"><ele>852.0</ele><time>2026-03-24T16:28:26.999Z</time></trkpt><trkpt lat="45.972291241157436" lon="9.0803930017849"><ele>852.0</ele><time>2026-03-24T16:28:27.999Z</time></trkpt><trkpt lat="45.97241574647374" lon="9.08036849071977"><ele>852.0</ele><time>2026-03-24T16:28:28.999Z</time></trkpt><trkpt lat="45.972524412360755" lon="9.08037232646964"><ele>856.25</ele><time>2026-03-24T16:28:29.999Z</time></trkpt><trkpt lat="45.97266339392898" lon="9.080396426605109"><ele>860.5</ele><time>2026-03-24T16:28:30.999Z</time></trkpt><trkpt lat="45.97279947549402" lon="9.080395161929632"><ele>864.75</ele><time>2026-03-24T16:28:31.999Z</time></trkpt><trkpt lat="45.972938526883006" lon="9.080425276845654"><ele>869.0</ele><time>2026-03-24T16:28:32.999Z</time></trkpt><trkpt lat="45.973066374017044" lon="9.080438013077183"><ele>869.0</ele><time>2026-03-24T16:28:33.999Z</time></trkpt><trkpt lat="45.973186064033065" lon="9.08042950212677"><ele>869.0</ele><time>2026-03-24T16:28:34.999Z</time></trkpt><trkpt lat="45.97331721726487" lon="9.0804276970684"><ele>869.0</ele><time>2026-03-24T16:28:35.999Z</time></trkpt><trkpt lat="45.97344487564684" lon="9.080414367485503"><ele>869.0</ele><time>2026-03-24T16:28:36.999Z</time></trkpt><trkpt lat="45.9735970935669" lon="9.08044226033264"><ele>875.0</ele><time>2026-03-24T16:28:37.999Z</time></trkpt><trkpt lat="45.97373356568974" lon="9.080431515523717"><ele>881.0</ele><time>2026-03-24T16:28:38.999Z</time></trkpt><trkpt lat="45.973872258628354" lon="9.080467555810975"><ele>887.0</ele><time>2026-03-24T16:28:39.999Z</time></trkpt><trkpt lat="45.973975723992716" lon="9.080503325956842"><ele>893.0</ele><time>2026-03-24T16:28:40.999Z</time></trkpt><trkpt lat="45.974085014540606" lon="9.080505488886386"><ele>893.0</ele><time>2026-03-24T16:28:41.999Z</time></trkpt><trkpt lat="45.97418721565935" lon="9.080504636495784"><ele>893.0</ele><time>2026-03-24T16:28:42.999Z</time></trkpt><trkpt lat="45.974291211011916" lon="9.080483903652947"><ele>893.0</ele><time>2026-03-24T16:28:43.999Z</time></trkpt><trkpt lat="45.974384705948694" lon="9.080461567322267"><ele>893.0</ele><time>2026-03-24T16:28:44.999Z</time></trkpt><trkpt lat="45.974481295958604" lon="9.080433407962586"><ele>893.0</ele><time>2026-03-24T16:28:45.998Z</time></trkpt><trkpt lat="45.974549729836355" lon="9.080392967413047"><ele>898.0</ele><time>2026-03-24T16:28:46.998Z</time></trkpt><trkpt lat="45.97465968944585" lon="9.080343786497451"><ele>903.0</ele><time>2026-03-24T16:28:47.998Z</time></trkpt><trkpt lat="45.97475682415358" lon="9.080292462418795"><ele>908.0</ele><time>2026-03-24T16:28:48.998Z</time></trkpt><trkpt lat="45.97486379878564" lon="9.080230924507806"><ele>913.0</ele><time>2026-03-24T16:28:50Z</time></trkpt><trkpt lat="45.974970524978595" lon="9.080165403869868"><ele>911.2</ele><time>2026-03-24T16:28:51Z</time></trkpt><trkpt lat="45.97508500520238" lon="9.080088732861888"><ele>909.4</ele><time>2026-03-24T16:28:52Z</time></trkpt><trkpt lat="45.97519044903262" lon="9.08003141769062"><ele>907.6000000000001</ele><time>2026-03-24T16:28:53Z</time></trkpt><trkpt lat="45.975288920088296" lon="9.079979970755733"><ele>905.8000000000001</ele><time>2026-03-24T16:28:54Z</time></trkpt><trkpt lat="45.975378178915975" lon="9.079913646155106"><ele>904.0</ele><time>2026-03-24T16:28:55Z</time></trkpt><trkpt lat="45.975455452985486" lon="9.079840822293908"><ele>904.0</ele><time>2026-03-24T16:28:56Z</time></trkpt><trkpt lat="45.97553448907248" lon="9.079782667201755"><ele>904.0000000000001</ele><time>2026-03-24T16:28:57Z</time></trkpt><trkpt lat="45.97561611352969" lon="9.079740377991824"><ele>904.0000000000001</ele><time>2026-03-24T16:28:58Z</time></trkpt><trkpt lat="45.97569871518022" lon="9.079820928267925"><ele>904.0</ele><time>2026-03-24T16:28:59Z</time></trkpt><trkpt lat="45.975782953151054" lon="9.079822230841199"><ele>904.0</ele><time>2026-03-24T16:29:00Z</time></trkpt><trkpt lat="45.97589888259198" lon="9.079810446430505"><ele>899.25</ele><time>2026-03-24T16:29:01Z</time></trkpt><trkpt lat="45.97602127579091" lon="9.079842508751733"><ele>894.5</ele><time>2026-03-24T16:29:02Z</time></trkpt><trkpt lat="45.97614621986852" lon="9.07989186214838"><ele>889.75</ele><time>2026-03-24T16:29:03Z</time></trkpt><trkpt lat="45.97629028097948" lon="9.079930838964117"><ele>885.0</ele><time>2026-03-24T16:29:04Z</time></trkpt><trkpt lat="45.976365453815355" lon="9.079974252703636"><ele>889.0</ele><time>2026-03-24T16:29:05Z</time></trkpt><trkpt lat="45.976463308071125" lon="9.080030711775278"><ele>893.0</ele><time>2026-03-24T16:29:06Z</time></trkpt><trkpt lat="45.97656142155719" lon="9.080108267725688"><ele>897.0</ele><time>2026-03-24T16:29:07Z</time></trkpt><trkpt lat="45.976651000896794" lon="9.080161618409647"><ele>901.0</ele><time>2026-03-24T16:29:08Z</time></trkpt><trkpt lat="45.97672903577076" lon="9.080253017981063"><ele>905.0</ele><time>2026-03-24T16:29:09Z</time></trkpt><trkpt lat="45.97680545134237" lon="9.080370239821669"><ele>905.0</ele><time>2026-03-24T16:29:10Z</time></trkpt><trkpt lat="45.97689705623731" lon="9.080546247734313"><ele>905.0</ele><time>2026-03-24T16:29:11Z</time></trkpt><trkpt lat="45.976968951994316" lon="9.080639996090852"><ele>905.0</ele><time>2026-03-24T16:29:12Z</time></trkpt><trkpt lat="45.97703068909221" lon="9.080749988590577"><ele>905.0</ele><time>2026-03-24T16:29:13Z</time></trkpt><trkpt lat="45.97708300213176" lon="9.080842163973935"><ele>905.0</ele><time>2026-03-24T16:29:14Z</time></trkpt><trkpt lat="45.97708135440686" lon="9.080967696570848"><ele>908.6666666666667</ele><time>2026-03-24T16:29:15Z</time></trkpt><trkpt lat="45.977127700938965" lon="9.081069866501002"><ele>912.3333333333334</ele><time>2026-03-24T16:29:16Z</time></trkpt><trkpt lat="45.97717983351992" lon="9.08117322161856"><ele>916.0</ele><time>2026-03-24T16:29:17Z</time></trkpt><trkpt lat="45.977209475370195" lon="9.081309606234854"><ele>919.6666666666667</ele><time>2026-03-24T16:29:18Z</time></trkpt><trkpt lat="45.97721199839204" lon="9.081426105540704"><ele>923.3333333333334</ele><time>2026-03-24T16:29:19Z</time></trkpt><trkpt lat="45.977234586729665" lon="9.081532285850315"><ele>927.0</ele><time>2026-03-24T16:29:20Z</time></trkpt><trkpt lat="45.97727657001626" lon="9.081683603990902"><ele>930.1666666666666</ele><time>2026-03-24T16:29:21Z</time></trkpt><trkpt lat="45.977281067364544" lon="9.081846553230879"><ele>933.3333333333333</ele><time>2026-03-24T16:29:22Z</time></trkpt><trkpt lat="45.97729377302769" lon="9.081990557044804"><ele>936.5</ele><time>2026-03-24T16:29:23Z</time></trkpt><trkpt lat="45.97729113881986" lon="9.082095328944273"><ele>939.6666666666666</ele><time>2026-03-24T16:29:24Z</time></trkpt><trkpt lat="45.9773325749216" lon="9.082167849220783"><ele>942.8333333333333</ele><time>2026-03-24T16:29:25Z</time></trkpt><trkpt lat="45.97735174833168" lon="9.082255167406657"><ele>946.0</ele><time>2026-03-24T16:29:26Z</time></trkpt><trkpt lat="45.97738567130048" lon="9.082337322294345"><ele>946.0</ele><time>2026-03-24T16:29:27Z</time></trkpt><trkpt lat="45.977424706061086" lon="9.082411981667773"><ele>945.9999999999999</ele><time>2026-03-24T16:29:28Z</time></trkpt><trkpt lat="45.97747758182314" lon="9.082542519597224"><ele>945.9999999999999</ele><time>2026-03-24T16:29:29Z</time></trkpt><trkpt lat="45.97751624549405" lon="9.082649910891655"><ele>946.0</ele><time>2026-03-24T16:29:30Z</time></trkpt><trkpt lat="45.97757903327788" lon="9.082778595335991"><ele>946.0</ele><time>2026-03-24T16:29:31Z</time></trkpt><trkpt lat="45.977585946326215" lon="9.082931486055365"><ele>945.8</ele><time>2026-03-24T16:29:33Z</time></trkpt><trkpt lat="45.9775801490992" lon="9.08303230254621"><ele>945.5999999999999</ele><time>2026-03-24T16:29:34Z</time></trkpt><trkpt lat="45.977547091236495" lon="9.083218139209741"><ele>945.4</ele><time>2026-03-24T16:29:36Z</time></trkpt><trkpt lat="45.97745419881206" lon="9.083311654020997"><ele>945.2</ele><time>2026-03-24T16:29:38Z</time></trkpt><trkpt lat="45.97738651038606" lon="9.08334696286851"><ele>945.0</ele><time>2026-03-24T16:29:39Z</time></trkpt><trkpt lat="45.977291110364426" lon="9.083374117363208"><ele>952.5</ele><time>2026-03-24T16:29:40Z</time></trkpt><trkpt lat="45.97721949832666" lon="9.08336180321113"><ele>960.0</ele><time>2026-03-24T16:29:41Z</time></trkpt><trkpt lat="45.97712949173407" lon="9.083346289640085"><ele>967.5</ele><time>2026-03-24T16:29:42Z</time></trkpt><trkpt lat="45.97704411230341" lon="9.083349151533902"><ele>975.0</ele><time>2026-03-24T16:29:43Z</time></trkpt><trkpt lat="45.97695944403209" lon="9.083354075325"><ele>982.5</ele><time>2026-03-24T16:29:44Z</time></trkpt><trkpt lat="45.97687284290705" lon="9.083383531159747"><ele>990.0</ele><time>2026-03-24T16:29:44.999Z</time></trkpt><trkpt lat="45.97680337666713" lon="9.083437581679442"><ele>990.0</ele><time>2026-03-24T16:29:45.999Z</time></trkpt><trkpt lat="45.97669292301177" lon="9.083462007537825"><ele>990.0</ele><time>2026-03-24T16:29:46.999Z</time></trkpt><trkpt lat="45.97658569524016" lon="9.083482912452487"><ele>990.0</ele><time>2026-03-24T16:29:47.999Z</time></trkpt><trkpt lat="45.9765025444522" lon="9.08348655534704"><ele>990.0</ele><time>2026-03-24T16:29:48.999Z</time></trkpt><trkpt lat="45.97638489215824" lon="9.08349177215678"><ele>990.0</ele><time>2026-03-24T16:29:49.999Z</time></trkpt><trkpt lat="45.97629658793376" lon="9.083503626696238"><ele>994.2</ele><time>2026-03-24T16:29:50.999Z</time></trkpt><trkpt lat="45.9762033994519" lon="9.083508589830748"><ele>998.4</ele><time>2026-03-24T16:29:51.999Z</time></trkpt><trkpt lat="45.97611018961464" lon="9.083509336785342"><ele>1002.5999999999999</ele><time>2026-03-24T16:29:52.999Z</time></trkpt><trkpt lat="45.976006896111336" lon="9.08352489919345"><ele>1006.8</ele><time>2026-03-24T16:29:53.999Z</time></trkpt><trkpt lat="45.975915982143135" lon="9.083531860630563"><ele>1011.0</ele><time>2026-03-24T16:29:54.999Z</time></trkpt><trkpt lat="45.97584429500048" lon="9.083550693108482"><ele>1012.5999999999999</ele><time>2026-03-24T16:29:55.999Z</time></trkpt><trkpt lat="45.97576310568355" lon="9.083548506189478"><ele>1014.1999999999999</ele><time>2026-03-24T16:29:56.999Z</time></trkpt><trkpt lat="45.975696049371585" lon="9.08354542718402"><ele>1015.8000000000001</ele><time>2026-03-24T16:29:57.999Z</time></trkpt><trkpt lat="45.975602582682065" lon="9.083652349243087"><ele>1017.4000000000001</ele><time>2026-03-24T16:29:59.999Z</time></trkpt><trkpt lat="45.975550625400345" lon="9.083759756249222"><ele>1019.0</ele><time>2026-03-24T16:30:00.999Z</time></trkpt><trkpt lat="45.975481570242216" lon="9.083875281900617"><ele>1019.0</ele><time>2026-03-24T16:30:01.999Z</time></trkpt><trkpt lat="45.97539597768834" lon="9.083986346378223"><ele>1019.0000000000001</ele><time>2026-03-24T16:30:02.999Z</time></trkpt><trkpt lat="45.97532582318052" lon="9.084071854011096"><ele>1019.0000000000001</ele><time>2026-03-24T16:30:03.999Z</time></trkpt><trkpt lat="45.97526415909009" lon="9.084145392021732"><ele>1019.0</ele><time>2026-03-24T16:30:04.999Z</time></trkpt><trkpt lat="45.97520031759013" lon="9.084194482762015"><ele>1019.0</ele><time>2026-03-24T16:30:05.999Z</time></trkpt><trkpt lat="45.975116217607955" lon="9.084253647926413"><ele>1023.1666666666667</ele><time>2026-03-24T16:30:06.999Z</time></trkpt><trkpt lat="45.975011991028026" lon="9.084325975250508"><ele>1027.3333333333335</ele><time>2026-03-24T16:30:07.999Z</time></trkpt><trkpt lat="45.97492270953767" lon="9.084388082145463"><ele>1031.5</ele><time>2026-03-24T16:30:08.999Z</time></trkpt><trkpt lat="45.97486058669784" lon="9.084431138394057"><ele>1035.6666666666667</ele><time>2026-03-24T16:30:09.999Z</time></trkpt><trkpt lat="45.97479756620247" lon="9.084440785685496"><ele>1039.8333333333333</ele><time>2026-03-24T16:30:10.999Z</time></trkpt><trkpt lat="45.974719194052156" lon="9.084513830318338"><ele>1044.0</ele><time>2026-03-24T16:30:11.999Z</time></trkpt><trkpt lat="45.97464952826536" lon="9.08459154819876"><ele>1044.0</ele><time>2026-03-24T16:30:12.999Z</time></trkpt><trkpt lat="45.97457734751907" lon="9.08465962816005"><ele>1044.0</ele><time>2026-03-24T16:30:13.999Z</time></trkpt><trkpt lat="45.974459702995034" lon="9.0847142964982"><ele>1044.0</ele><time>2026-03-24T16:30:15.999Z</time></trkpt><trkpt lat="45.97441758939626" lon="9.084815710198438"><ele>1044.0</ele><time>2026-03-24T16:30:16.999Z</time></trkpt><trkpt lat="45.97435823160883" lon="9.08488505639905"><ele>1044.0</ele><time>2026-03-24T16:30:17.999Z</time></trkpt><trkpt lat="45.97431264753671" lon="9.084966545673543"><ele>1044.0</ele><time>2026-03-24T16:30:18.999Z</time></trkpt><trkpt lat="45.974294651251235" lon="9.085060890869594"><ele>1048.6666666666667</ele><time>2026-03-24T16:30:19.999Z</time></trkpt><trkpt lat="45.97425868690191" lon="9.085224279917673"><ele>1053.3333333333333</ele><time>2026-03-24T16:30:21.999Z</time></trkpt><trkpt lat="45.97425561930263" lon="9.08533572004597"><ele>1058.0</ele><time>2026-03-24T16:30:22.999Z</time></trkpt><trkpt lat="45.97426017804142" lon="9.085454942698671"><ele>1062.6666666666665</ele><time>2026-03-24T16:30:23.999Z</time></trkpt><trkpt lat="45.97425376889044" lon="9.08556206801801"><ele>1067.3333333333333</ele><time>2026-03-24T16:30:24.999Z</time></trkpt><trkpt lat="45.97425307285067" lon="9.0856931780865"><ele>1072.0</ele><time>2026-03-24T16:30:25.999Z</time></trkpt><trkpt lat="45.97425780405265" lon="9.085788630375482"><ele>1069.25</ele><time>2026-03-24T16:30:26.999Z</time></trkpt><trkpt lat="45.97421722291545" lon="9.08601940910361"><ele>1066.5</ele><time>2026-03-24T16:30:28.999Z</time></trkpt><trkpt lat="45.974219420505996" lon="9.086200699418457"><ele>1063.75</ele><time>2026-03-24T16:30:29.999Z</time></trkpt><trkpt lat="45.97421878797047" lon="9.086318525246694"><ele>1061.0</ele><time>2026-03-24T16:30:30.999Z</time></trkpt><trkpt lat="45.97418636918841" lon="9.086470822584474"><ele>1063.2</ele><time>2026-03-24T16:30:31.999Z</time></trkpt><trkpt lat="45.974161083540665" lon="9.086668253901587"><ele>1065.3999999999999</ele><time>2026-03-24T16:30:32.999Z</time></trkpt><trkpt lat="45.97411642179461" lon="9.086859090817494"><ele>1067.6</ele><time>2026-03-24T16:30:33.999Z</time></trkpt><trkpt lat="45.97410353762622" lon="9.086966189015289"><ele>1069.8</ele><time>2026-03-24T16:30:34.999Z</time></trkpt><trkpt lat="45.9740887992751" lon="9.087069267180311"><ele>1072.0</ele><time>2026-03-24T16:30:35.999Z</time></trkpt><trkpt lat="45.97401744059746" lon="9.087168231633076"><ele>1072.0</ele><time>2026-03-24T16:30:36.999Z</time></trkpt><trkpt lat="45.97393960286724" lon="9.087281693100412"><ele>1072.0</ele><time>2026-03-24T16:30:37.999Z</time></trkpt><trkpt lat="45.973880835222026" lon="9.087353074233699"><ele>1072.0</ele><time>2026-03-24T16:30:38.999Z</time></trkpt><trkpt lat="45.97394511483307" lon="9.087434108352834"><ele>1072.0</ele><time>2026-03-24T16:30:43.999Z</time></trkpt><trkpt lat="45.97401356631234" lon="9.087363852963616"><ele>1072.0</ele><time>2026-03-24T16:30:45.999Z</time></trkpt><trkpt lat="45.974101643805675" lon="9.087397126590421"><ele>1072.0</ele><time>2026-03-24T16:30:48.999Z</time></trkpt><trkpt lat="45.97420390007903" lon="9.087372165120234"><ele>1080.4</ele><time>2026-03-24T16:30:50.999Z</time></trkpt><trkpt lat="45.974318035405105" lon="9.08726405027696"><ele>1088.8000000000002</ele><time>2026-03-24T16:30:52.999Z</time></trkpt><trkpt lat="45.97437483671783" lon="9.087196266359443"><ele>1097.2</ele><time>2026-03-24T16:30:53.999Z</time></trkpt><trkpt lat="45.97445011881771" lon="9.087048510038066"><ele>1105.6000000000001</ele><time>2026-03-24T16:30:56Z</time></trkpt><trkpt lat="45.974508911364055" lon="9.08698924239332"><ele>1114.0</ele><time>2026-03-24T16:30:57Z</time></trkpt><trkpt lat="45.97454904747608" lon="9.086910747392672"><ele>1114.0</ele><time>2026-03-24T16:30:58Z</time></trkpt><trkpt lat="45.9745569849392" lon="9.08680256237575"><ele>1114.0</ele><time>2026-03-24T16:31:00Z</time></trkpt><trkpt lat="45.97461997617853" lon="9.0867729826773"><ele>1114.0</ele><time>2026-03-24T16:31:04Z</time></trkpt><trkpt lat="45.974664532137574" lon="9.086677917997154"><ele>1114.0</ele><time>2026-03-24T16:31:08Z</time></trkpt><trkpt lat="45.97476614624423" lon="9.086548046100425"><ele>1114.0</ele><time>2026-03-24T16:31:10Z</time></trkpt><trkpt lat="45.974816446866996" lon="9.086459609179075"><ele>1114.0</ele><time>2026-03-24T16:31:12Z</time></trkpt><trkpt lat="45.97487861171951" lon="9.086407948373466"><ele>1112.0</ele><time>2026-03-24T16:31:13Z</time></trkpt><trkpt lat="45.97493660039952" lon="9.086351862097336"><ele>1110.0</ele><time>2026-03-24T16:31:14Z</time></trkpt><trkpt lat="45.97500889111203" lon="9.086285048166042"><ele>1108.0</ele><time>2026-03-24T16:31:15Z</time></trkpt><trkpt lat="45.97507662340117" lon="9.086238259783176"><ele>1106.0</ele><time>2026-03-24T16:31:17Z</time></trkpt><trkpt lat="45.97517796934825" lon="9.086273739246671"><ele>1104.0</ele><time>2026-03-24T16:31:19Z</time></trkpt><trkpt lat="45.975250777384474" lon="9.086324837583563"><ele>1102.0</ele><time>2026-03-24T16:31:20Z</time></trkpt><trkpt lat="45.975293260787325" lon="9.086398551946797"><ele>1102.0</ele><time>2026-03-24T16:31:21Z</time></trkpt><trkpt lat="45.9753225790819" lon="9.086526462932481"><ele>1102.0</ele><time>2026-03-24T16:31:22Z</time></trkpt><trkpt lat="45.97531780007927" lon="9.086626540310746"><ele>1102.0</ele><time>2026-03-24T16:31:23Z</time></trkpt><trkpt lat="45.97534276254541" lon="9.086726404691722"><ele>1102.0</ele><time>2026-03-24T16:31:24Z</time></trkpt><trkpt lat="45.97533341162344" lon="9.086817072873478"><ele>1102.0</ele><time>2026-03-24T16:31:25Z</time></trkpt><trkpt lat="45.975342454870955" lon="9.086925727965408"><ele>1102.0</ele><time>2026-03-24T16:31:26Z</time></trkpt><trkpt lat="45.975334640952106" lon="9.087060489705372"><ele>1105.8333333333333</ele><time>2026-03-24T16:31:27Z</time></trkpt><trkpt lat="45.97530286337887" lon="9.087159804006951"><ele>1109.6666666666665</ele><time>2026-03-24T16:31:29Z</time></trkpt><trkpt lat="45.97530769119883" lon="9.087258457632162"><ele>1113.5</ele><time>2026-03-24T16:31:33Z</time></trkpt><trkpt lat="45.975343542314526" lon="9.087334055071903"><ele>1117.3333333333333</ele><time>2026-03-24T16:31:38Z</time></trkpt><trkpt lat="45.97536829015307" lon="9.087494181842125"><ele>1121.1666666666667</ele><time>2026-03-24T16:31:40Z</time></trkpt><trkpt lat="45.97536506193434" lon="9.087624717803399"><ele>1125.0</ele><time>2026-03-24T16:31:43Z</time></trkpt><trkpt lat="45.97535868247163" lon="9.087718103233236"><ele>1124.6666666666667</ele><time>2026-03-24T16:31:46Z</time></trkpt><trkpt lat="45.97532220167587" lon="9.087835384642403"><ele>1124.3333333333333</ele><time>2026-03-24T16:31:50Z</time></trkpt><trkpt lat="45.97525703802956" lon="9.087874402782637"><ele>1124.0</ele><time>2026-03-24T16:31:52.999Z</time></trkpt><trkpt lat="45.975226723740334" lon="9.087972927627245"><ele>1123.6666666666665</ele><time>2026-03-24T16:31:55.999Z</time></trkpt><trkpt lat="45.975173091981354" lon="9.088049165597642"><ele>1123.3333333333333</ele><time>2026-03-24T16:31:58.999Z</time></trkpt><trkpt lat="45.97513850558797" lon="9.088189292624836"><ele>1123.0</ele><time>2026-03-24T16:31:59.999Z</time></trkpt><trkpt lat="45.9750889992226" lon="9.088288653501456"><ele>1123.0</ele><time>2026-03-24T16:32:00.999Z</time></trkpt><trkpt lat="45.97503930066254" lon="9.088368378934009"><ele>1123.0</ele><time>2026-03-24T16:32:01.999Z</time></trkpt><trkpt lat="45.97492967565102" lon="9.088472842287901"><ele>1123.0</ele><time>2026-03-24T16:32:03.999Z</time></trkpt><trkpt lat="45.97484185679198" lon="9.088594463825125"><ele>1123.0</ele><time>2026-03-24T16:32:05.999Z</time></trkpt><trkpt lat="45.9747992546997" lon="9.088675061850525"><ele>1123.0</ele><time>2026-03-24T16:32:06.999Z</time></trkpt><trkpt lat="45.974757218551815" lon="9.088743798891624"><ele>1122.8333333333333</ele><time>2026-03-24T16:32:07.999Z</time></trkpt><trkpt lat="45.97466922133345" lon="9.088846751036908"><ele>1122.6666666666665</ele><time>2026-03-24T16:32:09.999Z</time></trkpt><trkpt lat="45.97461975179013" lon="9.088903200410543"><ele>1122.5</ele><time>2026-03-24T16:32:10.999Z</time></trkpt><trkpt lat="45.97457175526027" lon="9.088964732918944"><ele>1122.3333333333333</ele><time>2026-03-24T16:32:11.999Z</time></trkpt><trkpt lat="45.974475931810055" lon="9.089054577965983"><ele>1122.1666666666667</ele><time>2026-03-24T16:32:13.999Z</time></trkpt><trkpt lat="45.9744007303102" lon="9.089105483011988"><ele>1122.0</ele><time>2026-03-24T16:32:14.999Z</time></trkpt><trkpt lat="45.97434983976726" lon="9.089176355167421"><ele>1122.0</ele><time>2026-03-24T16:32:15.999Z</time></trkpt><trkpt lat="45.9742754360678" lon="9.08929310749818"><ele>1122.0</ele><time>2026-03-24T16:32:17.999Z</time></trkpt><trkpt lat="45.97419146559317" lon="9.089332715282236"><ele>1122.0</ele><time>2026-03-24T16:32:19.999Z</time></trkpt><trkpt lat="45.974095365272575" lon="9.089432526113745"><ele>1122.0</ele><time>2026-03-24T16:32:21.999Z</time></trkpt><trkpt lat="45.97405618318368" lon="9.089506273456832"><ele>1122.0</ele><time>2026-03-24T16:32:22.999Z</time></trkpt><trkpt lat="45.9739470280305" lon="9.089591867293505"><ele>1124.2</ele><time>2026-03-24T16:32:24.999Z</time></trkpt><trkpt lat="45.973882863482665" lon="9.089640422058697"><ele>1126.4</ele><time>2026-03-24T16:32:26.999Z</time></trkpt><trkpt lat="45.973842689268956" lon="9.089735016121491"><ele>1128.6</ele><time>2026-03-24T16:32:27.999Z</time></trkpt><trkpt lat="45.97375323942656" lon="9.089847340632673"><ele>1130.8</ele><time>2026-03-24T16:32:29.999Z</time></trkpt><trkpt lat="45.97368911856894" lon="9.089931010719775"><ele>1133.0</ele><time>2026-03-24T16:32:31.999Z</time></trkpt><trkpt lat="45.973590738223216" lon="9.09004224852112"><ele>1134.0</ele><time>2026-03-24T16:32:33.999Z</time></trkpt><trkpt lat="45.973537743199905" lon="9.09009501885332"><ele>1135.0</ele><time>2026-03-24T16:32:34.999Z</time></trkpt><trkpt lat="45.973483613037565" lon="9.090160977282432"><ele>1136.0</ele><time>2026-03-24T16:32:35.999Z</time></trkpt><trkpt lat="45.97342038245675" lon="9.090243992860017"><ele>1137.0</ele><time>2026-03-24T16:32:36.999Z</time></trkpt><trkpt lat="45.97331265031441" lon="9.090330987550496"><ele>1138.0</ele><time>2026-03-24T16:32:38.999Z</time></trkpt><trkpt lat="45.9732545621729" lon="9.090376073800678"><ele>1139.0</ele><time>2026-03-24T16:32:39.999Z</time></trkpt><trkpt lat="45.973197369373146" lon="9.0904395678644"><ele>1143.3333333333335</ele><time>2026-03-24T16:32:40.999Z</time></trkpt><trkpt lat="45.97313880862612" lon="9.090482186054363"><ele>1147.6666666666667</ele><time>2026-03-24T16:32:41.999Z</time></trkpt><trkpt lat="45.97307385260342" lon="9.090532535781117"><ele>1152.0</ele><time>2026-03-24T16:32:42.999Z</time></trkpt><trkpt lat="45.972962478364636" lon="9.09055292046441"><ele>1156.3333333333333</ele><time>2026-03-24T16:32:44.999Z</time></trkpt><trkpt lat="45.972892070920146" lon="9.090655959037417"><ele>1160.6666666666665</ele><time>2026-03-24T16:32:46.999Z</time></trkpt><trkpt lat="45.972805828055755" lon="9.090688075895752"><ele>1165.0</ele><time>2026-03-24T16:32:48.999Z</time></trkpt><trkpt lat="45.97275297265221" lon="9.090748280365393"><ele>1167.2</ele><time>2026-03-24T16:32:49.999Z</time></trkpt><trkpt lat="45.972687714987195" lon="9.090855114525185"><ele>1169.4</ele><time>2026-03-24T16:32:51.999Z</time></trkpt><trkpt lat="45.97260711777338" lon="9.090997693070824"><ele>1171.6</ele><time>2026-03-24T16:32:53.999Z</time></trkpt><trkpt lat="45.972550948731694" lon="9.091097172749858"><ele>1173.8</ele><time>2026-03-24T16:32:55.999Z</time></trkpt><trkpt lat="45.97251242989638" lon="9.091235977521709"><ele>1176.0</ele><time>2026-03-24T16:32:57.999Z</time></trkpt><trkpt lat="45.97245849903374" lon="9.091381595643345"><ele>1181.5</ele><time>2026-03-24T16:32:59.999Z</time></trkpt><trkpt lat="45.972421656046556" lon="9.09130723064525"><ele>1187.0</ele><time>2026-03-24T16:33:12Z</time></trkpt><trkpt lat="45.972327441812126" lon="9.09136293600116"><ele>1192.5</ele><time>2026-03-24T16:33:19Z</time></trkpt><trkpt lat="45.97229360307714" lon="9.091455243465832"><ele>1198.0</ele><time>2026-03-24T16:33:22Z</time></trkpt><trkpt lat="45.97223808816089" lon="9.09154557663299"><ele>1203.5</ele><time>2026-03-24T16:33:24Z</time></trkpt><trkpt lat="45.97216388237915" lon="9.091588041847348"><ele>1209.0</ele><time>2026-03-24T16:33:26Z</time></trkpt><trkpt lat="45.97208605382431" lon="9.091586301463703"><ele>1212.6666666666667</ele><time>2026-03-24T16:33:28Z</time></trkpt><trkpt lat="45.97206056786277" lon="9.091681549897716"><ele>1216.3333333333333</ele><time>2026-03-24T16:33:30Z</time></trkpt><trkpt lat="45.97202584552499" lon="9.091783263483698"><ele>1220.0</ele><time>2026-03-24T16:33:32Z</time></trkpt><trkpt lat="45.971995238243885" lon="9.091875893189021"><ele>1223.6666666666665</ele><time>2026-03-24T16:33:35Z</time></trkpt><trkpt lat="45.97202129334201" lon="9.091968017671778"><ele>1227.3333333333333</ele><time>2026-03-24T16:33:38Z</time></trkpt><trkpt lat="45.97201904490705" lon="9.09208628636866"><ele>1231.0</ele><time>2026-03-24T16:33:41Z</time></trkpt><trkpt lat="45.97204156948063" lon="9.09221577937552"><ele>1231.0</ele><time>2026-03-24T16:33:44Z</time></trkpt><trkpt lat="45.97208618143935" lon="9.092280269406345"><ele>1231.0</ele><time>2026-03-24T16:33:48Z</time></trkpt><trkpt lat="45.97207716755151" lon="9.0923994152562"><ele>1231.0</ele><time>2026-03-24T16:33:50Z</time></trkpt><trkpt lat="45.97205582070166" lon="9.09254345651304"><ele>1231.0</ele><time>2026-03-24T16:33:52.999Z</time></trkpt><trkpt lat="45.97204731338369" lon="9.09263437056386"><ele>1231.0</ele><time>2026-03-24T16:33:54.999Z</time></trkpt><trkpt lat="45.97204685280473" lon="9.092736827098518"><ele>1231.0</ele><time>2026-03-24T16:33:56.999Z</time></trkpt><trkpt lat="45.9720372660431" lon="9.09286600446672"><ele>1231.8333333333333</ele><time>2026-03-24T16:33:59.999Z</time></trkpt><trkpt lat="45.972011519664754" lon="9.09296810617267"><ele>1232.6666666666665</ele><time>2026-03-24T16:34:02.999Z</time></trkpt><trkpt lat="45.972000219825965" lon="9.093083176794325"><ele>1233.5</ele><time>2026-03-24T16:34:04.999Z</time></trkpt><trkpt lat="45.971942907038574" lon="9.093210884953027"><ele>1234.3333333333333</ele><time>2026-03-24T16:34:06.999Z</time></trkpt><trkpt lat="45.97192714442233" lon="9.093305007829931"><ele>1235.1666666666667</ele><time>2026-03-24T16:34:10.999Z</time></trkpt><trkpt lat="45.97194122696455" lon="9.093422691675636"><ele>1236.0</ele><time>2026-03-24T16:34:12.999Z</time></trkpt><trkpt lat="45.971973030586206" lon="9.093541779301935"><ele>1238.3999999999999</ele><time>2026-03-24T16:34:15.999Z</time></trkpt><trkpt lat="45.972009082429416" lon="9.093658185929534"><ele>1240.8</ele><time>2026-03-24T16:34:17.999Z</time></trkpt><trkpt lat="45.97203534285279" lon="9.093768528780947"><ele>1243.1999999999998</ele><time>2026-03-24T16:34:22.999Z</time></trkpt><trkpt lat="45.972070115180415" lon="9.093916605832478"><ele>1245.6</ele><time>2026-03-24T16:34:25.999Z</time></trkpt><trkpt lat="45.97213752897338" lon="9.094000166633206"><ele>1248.0</ele><time>2026-03-24T16:34:28.999Z</time></trkpt><trkpt lat="45.972179602161084" lon="9.094103684131742"><ele>1250.8</ele><time>2026-03-24T16:34:30.999Z</time></trkpt><trkpt lat="45.97221822181291" lon="9.094219653250049"><ele>1253.6</ele><time>2026-03-24T16:34:32.999Z</time></trkpt><trkpt lat="45.9722716197025" lon="9.09436883639765"><ele>1256.4</ele><time>2026-03-24T16:34:36.999Z</time></trkpt><trkpt lat="45.972309069391386" lon="9.094478900912508"><ele>1259.2</ele><time>2026-03-24T16:34:38.999Z</time></trkpt><trkpt lat="45.972362913338024" lon="9.094595086787457"><ele>1262.0</ele><time>2026-03-24T16:34:40.999Z</time></trkpt><trkpt lat="45.972380166841" lon="9.094716236354126"><ele>1262.0</ele><time>2026-03-24T16:34:42.999Z</time></trkpt><trkpt lat="45.97242038277479" lon="9.094796785762709"><ele>1262.0</ele><time>2026-03-24T16:34:44.999Z</time></trkpt><trkpt lat="45.972485717293885" lon="9.09485265198484"><ele>1262.0</ele><time>2026-03-24T16:34:47.999Z</time></trkpt><trkpt lat="45.97254382160547" lon="9.094959557907973"><ele>1262.0</ele><time>2026-03-24T16:34:50.999Z</time></trkpt><trkpt lat="45.972612588637965" lon="9.095059179905991"><ele>1262.0</ele><time>2026-03-24T16:34:53.999Z</time></trkpt><trkpt lat="45.97263667485322" lon="9.095144859972965"><ele>1262.0</ele><time>2026-03-24T16:34:56.999Z</time></trkpt><trkpt lat="45.972683031228605" lon="9.095209112793508"><ele>1261.0</ele><time>2026-03-24T16:34:59.998Z</time></trkpt><trkpt lat="45.97271739364979" lon="9.095287970129295"><ele>1260.0</ele><time>2026-03-24T16:35:04.998Z</time></trkpt><trkpt lat="45.97269460859227" lon="9.095388246615354"><ele>1259.0</ele><time>2026-03-24T16:35:09Z</time></trkpt><trkpt lat="45.972686353357695" lon="9.0955629229484"><ele>1258.0</ele><time>2026-03-24T16:35:14Z</time></trkpt><trkpt lat="45.97268564372604" lon="9.095658916702398"><ele>1257.0</ele><time>2026-03-24T16:35:16Z</time></trkpt><trkpt lat="45.97265871029951" lon="9.095821694186952"><ele>1256.0</ele><time>2026-03-24T16:35:19Z</time></trkpt><trkpt lat="45.972668016283954" lon="9.095926089004871"><ele>1256.0</ele><time>2026-03-24T16:35:21Z</time></trkpt><trkpt lat="45.97266402916946" lon="9.096030646272501"><ele>1256.0</ele><time>2026-03-24T16:35:24Z</time></trkpt><trkpt lat="45.97262843703686" lon="9.0961069363513"><ele>1256.0</ele><time>2026-03-24T16:35:31Z</time></trkpt><trkpt lat="45.97260319506542" lon="9.096241992293352"><ele>1256.0</ele><time>2026-03-24T16:35:33Z</time></trkpt><trkpt lat="45.97259959390635" lon="9.096345197603934"><ele>1256.0</ele><time>2026-03-24T16:35:36Z</time></trkpt><trkpt lat="45.972579641941856" lon="9.096454275293956"><ele>1256.0</ele><time>2026-03-24T16:35:38Z</time></trkpt><trkpt lat="45.97256465675809" lon="9.096553082442385"><ele>1252.0</ele><time>2026-03-24T16:35:40Z</time></trkpt><trkpt lat="45.972625814328225" lon="9.096633480892995"><ele>1248.0</ele><time>2026-03-24T16:35:43Z</time></trkpt><trkpt lat="45.97266201295325" lon="9.096708430058584"><ele>1244.0</ele><time>2026-03-24T16:35:46Z</time></trkpt><trkpt lat="45.972649738956804" lon="9.096799508290424"><ele>1240.0</ele><time>2026-03-24T16:35:50Z</time></trkpt><trkpt lat="45.972699309890004" lon="9.09691750993385"><ele>1236.0</ele><time>2026-03-24T16:35:54Z</time></trkpt><trkpt lat="45.97273142592909" lon="9.097014698031117"><ele>1232.0</ele><time>2026-03-24T16:35:58.999Z</time></trkpt><trkpt lat="45.97268583096573" lon="9.097165401680677"><ele>1232.0</ele><time>2026-03-24T16:36:04.999Z</time></trkpt><trkpt lat="45.97262927622435" lon="9.0972735762856"><ele>1232.0</ele><time>2026-03-24T16:36:06.999Z</time></trkpt><trkpt lat="45.97261734866236" lon="9.097376120278808"><ele>1232.0</ele><time>2026-03-24T16:36:09.999Z</time></trkpt><trkpt lat="45.972648614523685" lon="9.09746603135849"><ele>1232.0</ele><time>2026-03-24T16:36:11.999Z</time></trkpt><trkpt lat="45.97267757067539" lon="9.097549854930046"><ele>1232.0</ele><time>2026-03-24T16:36:17.999Z</time></trkpt><trkpt lat="45.972679718278016" lon="9.097663266702552"><ele>1232.0</ele><time>2026-03-24T16:36:20.999Z</time></trkpt><trkpt lat="45.97267999157301" lon="9.097773930204568"><ele>1228.5</ele><time>2026-03-24T16:36:22.999Z</time></trkpt><trkpt lat="45.97270277162722" lon="9.09788963319603"><ele>1225.0</ele><time>2026-03-24T16:36:24.999Z</time></trkpt><trkpt lat="45.97269757916732" lon="9.098000803756253"><ele>1221.5</ele><time>2026-03-24T16:36:26.999Z</time></trkpt><trkpt lat="45.972773382141334" lon="9.097990761419846"><ele>1218.0</ele><time>2026-03-24T16:36:34.999Z</time></trkpt><trkpt lat="45.97282463492469" lon="9.098057497932253"><ele>1214.5</ele><time>2026-03-24T16:36:39.999Z</time></trkpt><trkpt lat="45.97287322317589" lon="9.098146831220236"><ele>1211.0</ele><time>2026-03-24T16:36:41.999Z</time></trkpt><trkpt lat="45.9728924198703" lon="9.098250569203877"><ele>1209.3333333333335</ele><time>2026-03-24T16:36:44.999Z</time></trkpt><trkpt lat="45.97289988216403" lon="9.098377667191654"><ele>1207.6666666666667</ele><time>2026-03-24T16:36:47.999Z</time></trkpt><trkpt lat="45.97291303656441" lon="9.098487641899276"><ele>1206.0</ele><time>2026-03-24T16:36:52.999Z</time></trkpt><trkpt lat="45.97294788485446" lon="9.098571476680444"><ele>1204.3333333333333</ele><time>2026-03-24T16:36:55.999Z</time></trkpt><trkpt lat="45.972971372191914" lon="9.098695340790558"><ele>1202.6666666666665</ele><time>2026-03-24T16:36:59.999Z</time></trkpt><trkpt lat="45.97296007362151" lon="9.098811652267024"><ele>1201.0</ele><time>2026-03-24T16:37:02.999Z</time></trkpt><trkpt lat="45.97297306928345" lon="9.098907421415111"><ele>1201.0000000000002</ele><time>2026-03-24T16:37:05.998Z</time></trkpt><trkpt lat="45.9729630891945" lon="9.099011162134648"><ele>1201.0</ele><time>2026-03-24T16:37:08.998Z</time></trkpt><trkpt lat="45.97292228292488" lon="9.099098089502592"><ele>1201.0</ele><time>2026-03-24T16:37:14Z</time></trkpt><trkpt lat="45.97285385782855" lon="9.09907487399575"><ele>1201.0</ele><time>2026-03-24T16:37:17Z</time></trkpt><trkpt lat="45.972850237938864" lon="9.099179216574107"><ele>1201.0</ele><time>2026-03-24T16:37:19Z</time></trkpt><trkpt lat="45.97283969027977" lon="9.099284414830505"><ele>1201.0000000000002</ele><time>2026-03-24T16:37:23Z</time></trkpt><trkpt lat="45.972847202817036" lon="9.099378212435054"><ele>1201.0</ele><time>2026-03-24T16:37:28Z</time></trkpt><trkpt lat="45.97281780582984" lon="9.099463069730051"><ele>1200.3999999999999</ele><time>2026-03-24T16:37:31Z</time></trkpt><trkpt lat="45.97285936837935" lon="9.099540061269446"><ele>1199.8</ele><time>2026-03-24T16:37:39Z</time></trkpt><trkpt lat="45.97286883349936" lon="9.099658452646198"><ele>1199.1999999999998</ele><time>2026-03-24T16:37:47Z</time></trkpt><trkpt lat="45.97280156352401" lon="9.099740753950838"><ele>1198.6</ele><time>2026-03-24T16:37:50Z</time></trkpt><trkpt lat="45.972743363880724" lon="9.099940024385115"><ele>1198.0</ele><time>2026-03-24T16:37:55Z</time></trkpt><trkpt lat="45.97271879882535" lon="9.100031652948092"><ele>1195.5</ele><time>2026-03-24T16:37:56Z</time></trkpt><trkpt lat="45.972661953515185" lon="9.100177814494586"><ele>1193.0</ele><time>2026-03-24T16:37:58Z</time></trkpt><trkpt lat="45.97260649491454" lon="9.100268679805685"><ele>1190.5</ele><time>2026-03-24T16:38:01Z</time></trkpt><trkpt lat="45.97258745811332" lon="9.100388579668753"><ele>1188.0</ele><time>2026-03-24T16:38:03Z</time></trkpt><trkpt lat="45.97262183332694" lon="9.100483273640895"><ele>1185.5</ele><time>2026-03-24T16:38:10.999Z</time></trkpt><trkpt lat="45.97260782460223" lon="9.100581899075477"><ele>1183.0</ele><time>2026-03-24T16:38:12.999Z</time></trkpt><trkpt lat="45.9725967238874" lon="9.100678388651783"><ele>1183.0</ele><time>2026-03-24T16:38:13.999Z</time></trkpt><trkpt lat="45.97268942879013" lon="9.100702386184055"><ele>1183.0</ele><time>2026-03-24T16:38:17.999Z</time></trkpt><trkpt lat="45.972669270876516" lon="9.100864043355072"><ele>1183.0</ele><time>2026-03-24T16:38:20.999Z</time></trkpt><trkpt lat="45.97265962415076" lon="9.10097211662959"><ele>1183.0</ele><time>2026-03-24T16:38:21.999Z</time></trkpt><trkpt lat="45.97270084221282" lon="9.101073460150488"><ele>1183.0</ele><time>2026-03-24T16:38:26.999Z</time></trkpt><trkpt lat="45.97271994173986" lon="9.10118918394659"><ele>1183.0</ele><time>2026-03-24T16:38:27.999Z</time></trkpt><trkpt lat="45.97274709576319" lon="9.101323013424162"><ele>1179.0</ele><time>2026-03-24T16:38:28.999Z</time></trkpt><trkpt lat="45.97275778526721" lon="9.101455652398915"><ele>1175.0</ele><time>2026-03-24T16:38:30.999Z</time></trkpt><trkpt lat="45.97280042966754" lon="9.101568412956857"><ele>1171.0</ele><time>2026-03-24T16:38:34.999Z</time></trkpt><trkpt lat="45.972847835997584" lon="9.101642063114616"><ele>1167.0</ele><time>2026-03-24T16:38:35.999Z</time></trkpt><trkpt lat="45.97286321477367" lon="9.101735515633974"><ele>1163.0</ele><time>2026-03-24T16:38:36.999Z</time></trkpt><trkpt lat="45.97286490999512" lon="9.101917871279959"><ele>1159.0</ele><time>2026-03-24T16:38:37.999Z</time></trkpt><trkpt lat="45.97286637027195" lon="9.10207978302725"><ele>1158.8</ele><time>2026-03-24T16:38:38.999Z</time></trkpt><trkpt lat="45.97289327746898" lon="9.102207202772838"><ele>1158.6000000000001</ele><time>2026-03-24T16:38:39.999Z</time></trkpt><trkpt lat="45.97291683092535" lon="9.102311825035619"><ele>1158.4</ele><time>2026-03-24T16:38:40.999Z</time></trkpt><trkpt lat="45.97298891383328" lon="9.102426880427462"><ele>1158.2</ele><time>2026-03-24T16:38:41.999Z</time></trkpt><trkpt lat="45.97302488456133" lon="9.102552912737249"><ele>1158.0</ele><time>2026-03-24T16:38:42.999Z</time></trkpt><trkpt lat="45.973090976608894" lon="9.102663209626842"><ele>1158.6</ele><time>2026-03-24T16:38:43.999Z</time></trkpt><trkpt lat="45.97310231772563" lon="9.102864642401737"><ele>1159.1999999999998</ele><time>2026-03-24T16:38:45.999Z</time></trkpt><trkpt lat="45.97311374110634" lon="9.10297184696006"><ele>1159.8</ele><time>2026-03-24T16:38:46.999Z</time></trkpt><trkpt lat="45.97314130441116" lon="9.103116936612377"><ele>1160.3999999999999</ele><time>2026-03-24T16:38:48.999Z</time></trkpt><trkpt lat="45.97312911033762" lon="9.103250136900048"><ele>1161.0</ele><time>2026-03-24T16:38:49.999Z</time></trkpt><trkpt lat="45.973136038266" lon="9.103355050373867"><ele>1161.8333333333333</ele><time>2026-03-24T16:38:50.999Z</time></trkpt><trkpt lat="45.97311532249113" lon="9.103497791242175"><ele>1162.6666666666667</ele><time>2026-03-24T16:38:51.999Z</time></trkpt><trkpt lat="45.973135439661654" lon="9.103598240445852"><ele>1163.5</ele><time>2026-03-24T16:38:52.999Z</time></trkpt><trkpt lat="45.973117836430305" lon="9.103702670250899"><ele>1164.3333333333335</ele><time>2026-03-24T16:38:53.999Z</time></trkpt><trkpt lat="45.97308875397469" lon="9.103829164306546"><ele>1165.1666666666667</ele><time>2026-03-24T16:38:55.999Z</time></trkpt><trkpt lat="45.97305679555127" lon="9.103928279602952"><ele>1166.0</ele><time>2026-03-24T16:38:56.999Z</time></trkpt><trkpt lat="45.97305379348747" lon="9.104021090739165"><ele>1167.5</ele><time>2026-03-24T16:38:57.999Z</time></trkpt><trkpt lat="45.9730933867291" lon="9.10415332223817"><ele>1169.0</ele><time>2026-03-24T16:38:58.999Z</time></trkpt><trkpt lat="45.97313117484945" lon="9.104378219515281"><ele>1170.5</ele><time>2026-03-24T16:38:59.999Z</time></trkpt><trkpt lat="45.973155901410856" lon="9.104619973325365"><ele>1172.0</ele><time>2026-03-24T16:39:00.999Z</time></trkpt><trkpt lat="45.973186658965865" lon="9.104782018555666"><ele>1175.2</ele><time>2026-03-24T16:39:01.999Z</time></trkpt><trkpt lat="45.973231171988424" lon="9.104927691919807"><ele>1178.4</ele><time>2026-03-24T16:39:02.999Z</time></trkpt><trkpt lat="45.97326678936033" lon="9.105070186021567"><ele>1181.6</ele><time>2026-03-24T16:39:03.999Z</time></trkpt><trkpt lat="45.97330737149907" lon="9.105208580759315"><ele>1184.8</ele><time>2026-03-24T16:39:04.999Z</time></trkpt><trkpt lat="45.97334077961016" lon="9.105387789159842"><ele>1188.0</ele><time>2026-03-24T16:39:05.999Z</time></trkpt><trkpt lat="45.97339503590126" lon="9.105454262152072"><ele>1186.6</ele><time>2026-03-24T16:39:06.998Z</time></trkpt><trkpt lat="45.973449084883704" lon="9.105576144856803"><ele>1185.1999999999998</ele><time>2026-03-24T16:39:07.998Z</time></trkpt><trkpt lat="45.97350102852016" lon="9.10572398691852"><ele>1183.8</ele><time>2026-03-24T16:39:08.998Z</time></trkpt><trkpt lat="45.973577659426" lon="9.105872861369512"><ele>1182.3999999999999</ele><time>2026-03-24T16:39:09.998Z</time></trkpt><trkpt lat="45.973628001134735" lon="9.105998843553374"><ele>1181.0</ele><time>2026-03-24T16:39:10.998Z</time></trkpt><trkpt lat="45.97372565453777" lon="9.106042559548932"><ele>1181.0</ele><time>2026-03-24T16:39:11.998Z</time></trkpt><trkpt lat="45.97380820486499" lon="9.1061319087716"><ele>1181.0</ele><time>2026-03-24T16:39:14.998Z</time></trkpt><trkpt lat="45.97383985696046" lon="9.106260600228998"><ele>1181.0</ele><time>2026-03-24T16:39:16.998Z</time></trkpt><trkpt lat="45.97384387934826" lon="9.106374504930052"><ele>1181.0</ele><time>2026-03-24T16:39:18.998Z</time></trkpt><trkpt lat="45.97374434022647" lon="9.106478735727643"><ele>1181.0</ele><time>2026-03-24T16:39:20Z</time></trkpt><trkpt lat="45.97377027123194" lon="9.10639265460274"><ele>1181.0</ele><time>2026-03-24T16:39:21Z</time></trkpt><trkpt lat="45.973787561734845" lon="9.106539790594004"><ele>1181.0</ele><time>2026-03-24T16:39:25Z</time></trkpt><trkpt lat="45.973736694568075" lon="9.106608239714436"><ele>1181.0</ele><time>2026-03-24T16:39:29Z</time></trkpt><trkpt lat="45.97370853756952" lon="9.106698400466797"><ele>1181.0</ele><time>2026-03-24T16:39:33Z</time></trkpt><trkpt lat="45.973706539463066" lon="9.10679352160602"><ele>1181.0</ele><time>2026-03-24T16:39:45Z</time></trkpt><trkpt lat="45.97370217806321" lon="9.106912166148051"><ele>1181.0</ele><time>2026-03-24T16:39:53Z</time></trkpt><trkpt lat="45.97366462814387" lon="9.106795106612534"><ele>1182.857142857143</ele><time>2026-03-24T16:40:07Z</time></trkpt><trkpt lat="45.973705926971896" lon="9.106871576970926"><ele>1184.7142857142858</ele><time>2026-03-24T16:40:09.999Z</time></trkpt><trkpt lat="45.973673111452456" lon="9.10697252714734"><ele>1186.5714285714287</ele><time>2026-03-24T16:40:19.999Z</time></trkpt><trkpt lat="45.97366007905732" lon="9.107062184973854"><ele>1188.4285714285716</ele><time>2026-03-24T16:40:22.999Z</time></trkpt><trkpt lat="45.97370845215073" lon="9.107132910303331"><ele>1190.2857142857142</ele><time>2026-03-24T16:40:27.999Z</time></trkpt><trkpt lat="45.9737210500876" lon="9.1072334919467"><ele>1192.1428571428573</ele><time>2026-03-24T16:40:30.999Z</time></trkpt><trkpt lat="45.97375149733802" lon="9.107315502630602"><ele>1194.0</ele><time>2026-03-24T16:40:33.999Z</time></trkpt><trkpt lat="45.97376222067292" lon="9.107414064075437"><ele>1197.8333333333333</ele><time>2026-03-24T16:40:37.999Z</time></trkpt><trkpt lat="45.9737379052754" lon="9.107513795523646"><ele>1201.6666666666667</ele><time>2026-03-24T16:40:43.999Z</time></trkpt><trkpt lat="45.973769592410044" lon="9.107608489527184"><ele>1205.5</ele><time>2026-03-24T16:40:46.999Z</time></trkpt><trkpt lat="45.97377372940396" lon="9.107713263120997"><ele>1209.3333333333335</ele><time>2026-03-24T16:40:51.999Z</time></trkpt><trkpt lat="45.97382522181692" lon="9.107792187907297"><ele>1213.1666666666667</ele><time>2026-03-24T16:41:05.999Z</time></trkpt><trkpt lat="45.97388682590879" lon="9.107842465653563"><ele>1217.0</ele><time>2026-03-24T16:41:08.999Z</time></trkpt><trkpt lat="45.97396021986693" lon="9.107905226955147"><ele>1217.0</ele><time>2026-03-24T16:41:11.998Z</time></trkpt><trkpt lat="45.97377817755049" lon="9.107925196913467"><ele>1217.0</ele><time>2026-03-24T16:41:12.998Z</time></trkpt><trkpt lat="45.973792178824354" lon="9.107770730074442"><ele>1217.0</ele><time>2026-03-24T16:41:20.998Z</time></trkpt><trkpt lat="45.97386714178932" lon="9.107909177157863"><ele>1217.0</ele><time>2026-03-24T16:41:36Z</time></trkpt><trkpt lat="45.97394638276146" lon="9.108032393567598"><ele>1217.0</ele><time>2026-03-24T16:41:38Z</time></trkpt><trkpt lat="45.97400173805296" lon="9.108107970675754"><ele>1217.0</ele><time>2026-03-24T16:41:39Z</time></trkpt><trkpt lat="45.974070301313255" lon="9.108166671473366"><ele>1217.0</ele><time>2026-03-24T16:41:42Z</time></trkpt><trkpt lat="45.974127520379206" lon="9.108205762705666"><ele>1217.0</ele><time>2026-03-24T16:41:46Z</time></trkpt><trkpt lat="45.974203168447225" lon="9.108247227221547"><ele>1217.0</ele><time>2026-03-24T16:41:48Z</time></trkpt><trkpt lat="45.97427496863929" lon="9.108284089004693"><ele>1217.0</ele><time>2026-03-24T16:41:49Z</time></trkpt><trkpt lat="45.974370241964245" lon="9.108326158847156"><ele>1221.5</ele><time>2026-03-24T16:41:51Z</time></trkpt><trkpt lat="45.97448954050662" lon="9.108369122655594"><ele>1226.0</ele><time>2026-03-24T16:41:52Z</time></trkpt><trkpt lat="45.97454937611282" lon="9.10841065641579"><ele>1230.5</ele><time>2026-03-24T16:41:53Z</time></trkpt><trkpt lat="45.97468070980439" lon="9.108533682387"><ele>1235.0</ele><time>2026-03-24T16:41:55Z</time></trkpt><trkpt lat="45.97479539714799" lon="9.108628349409843"><ele>1235.0</ele><time>2026-03-24T16:41:57Z</time></trkpt><trkpt lat="45.97488001195049" lon="9.108724186107262"><ele>1235.0</ele><time>2026-03-24T16:41:59Z</time></trkpt><trkpt lat="45.97493344430872" lon="9.108812881358013"><ele>1235.0</ele><time>2026-03-24T16:42:00Z</time></trkpt><trkpt lat="45.97498006020258" lon="9.108921623330097"><ele>1235.0</ele><time>2026-03-24T16:42:02Z</time></trkpt><trkpt lat="45.97500656926766" lon="9.109018519758727"><ele>1235.0</ele><time>2026-03-24T16:42:04Z</time></trkpt><trkpt lat="45.97503310676371" lon="9.109103519736133"><ele>1235.0</ele><time>2026-03-24T16:42:09Z</time></trkpt><trkpt lat="45.974999917689935" lon="9.109210774854805"><ele>1239.6666666666667</ele><time>2026-03-24T16:42:19.999Z</time></trkpt><trkpt lat="45.97497639198855" lon="9.109325150416488"><ele>1244.3333333333335</ele><time>2026-03-24T16:42:21.999Z</time></trkpt><trkpt lat="45.97494303112965" lon="9.109404769027638"><ele>1249.0</ele><time>2026-03-24T16:42:23.999Z</time></trkpt><trkpt lat="45.97489974044115" lon="9.109474324695556"><ele>1253.6666666666667</ele><time>2026-03-24T16:42:25.999Z</time></trkpt><trkpt lat="45.97482208549587" lon="9.1096006526368"><ele>1258.3333333333333</ele><time>2026-03-24T16:42:27.999Z</time></trkpt><trkpt lat="45.974753814348674" lon="9.109714808259328"><ele>1263.0</ele><time>2026-03-24T16:42:29.999Z</time></trkpt><trkpt lat="45.974706087056006" lon="9.109789739537137"><ele>1263.0</ele><time>2026-03-24T16:42:31.999Z</time></trkpt><trkpt lat="45.97462045023466" lon="9.10990692528385"><ele>1263.0</ele><time>2026-03-24T16:42:34.999Z</time></trkpt><trkpt lat="45.97454723669669" lon="9.109978177456869"><ele>1263.0</ele><time>2026-03-24T16:42:36.999Z</time></trkpt><trkpt lat="45.974477371183376" lon="9.110046183646986"><ele>1263.0</ele><time>2026-03-24T16:42:38.999Z</time></trkpt><trkpt lat="45.974420743773344" lon="9.11011384941351"><ele>1263.0</ele><time>2026-03-24T16:42:40.999Z</time></trkpt><trkpt lat="45.974364069280846" lon="9.110160538981424"><ele>1263.0</ele><time>2026-03-24T16:42:41.999Z</time></trkpt><trkpt lat="45.97427420668085" lon="9.11025732233934"><ele>1261.0</ele><time>2026-03-24T16:42:43.999Z</time></trkpt><trkpt lat="45.97419952164925" lon="9.110357563193467"><ele>1259.0</ele><time>2026-03-24T16:42:45.999Z</time></trkpt><trkpt lat="45.974141264148734" lon="9.110411429283351"><ele>1257.0</ele><time>2026-03-24T16:43:32Z</time></trkpt><trkpt lat="45.97420478513678" lon="9.110383417743204"><ele>1255.0</ele><time>2026-03-24T16:43:52Z</time></trkpt><trkpt lat="45.97412608203184" lon="9.110375937719262"><ele>1253.0</ele><time>2026-03-24T16:44:45.999Z</time></trkpt><trkpt lat="45.974050476477444" lon="9.110334778668099"><ele>1251.0</ele><time>2026-03-24T16:45:23.998Z</time></trkpt><trkpt lat="45.97398581336051" lon="9.110430253311467"><ele>1254.0</ele><time>2026-03-24T16:45:26.998Z</time></trkpt><trkpt lat="45.97393908394081" lon="9.110508374642313"><ele>1257.0</ele><time>2026-03-24T16:45:29.998Z</time></trkpt><trkpt lat="45.97392637721726" lon="9.110609413269252"><ele>1260.0</ele><time>2026-03-24T16:45:31.998Z</time></trkpt><trkpt lat="45.97388270214427" lon="9.110752209000566"><ele>1263.0</ele><time>2026-03-24T16:45:34.998Z</time></trkpt><trkpt lat="45.97383807260396" lon="9.110913290682966"><ele>1266.0</ele><time>2026-03-24T16:45:36.998Z</time></trkpt><trkpt lat="45.97382804987193" lon="9.111011435729813"><ele>1269.0</ele><time>2026-03-24T16:45:38Z</time></trkpt><trkpt lat="45.97384599960444" lon="9.111124254502608"><ele>1269.0</ele><time>2026-03-24T16:45:41Z</time></trkpt><trkpt lat="45.97385668892443" lon="9.11124396894443"><ele>1269.0</ele><time>2026-03-24T16:45:44Z</time></trkpt><trkpt lat="45.97381509658679" lon="9.111352221929423"><ele>1269.0</ele><time>2026-03-24T16:45:45Z</time></trkpt><trkpt lat="45.97379544320277" lon="9.111445528875757"><ele>1269.0</ele><time>2026-03-24T16:45:46Z</time></trkpt><trkpt lat="45.97374614950603" lon="9.111581596634363"><ele>1269.0</ele><time>2026-03-24T16:45:49Z</time></trkpt><trkpt lat="45.973704149698285" lon="9.111682032917646"><ele>1269.0</ele><time>2026-03-24T16:45:52Z</time></trkpt><trkpt lat="45.97372216745544" lon="9.111773335546813"><ele>1265.4</ele><time>2026-03-24T16:45:53Z</time></trkpt><trkpt lat="45.97369876863096" lon="9.111892826182737"><ele>1261.8000000000002</ele><time>2026-03-24T16:45:54Z</time></trkpt><trkpt lat="45.97366589777508" lon="9.11205405747953"><ele>1258.1999999999998</ele><time>2026-03-24T16:45:56Z</time></trkpt><trkpt lat="45.97363318564053" lon="9.112222595580194"><ele>1254.6</ele><time>2026-03-24T16:45:58Z</time></trkpt><trkpt lat="45.97361738853442" lon="9.112320465946045"><ele>1251.0</ele><time>2026-03-24T16:46:01Z</time></trkpt><trkpt lat="45.97360438640317" lon="9.11241571163982"><ele>1250.1666666666667</ele><time>2026-03-24T16:46:03Z</time></trkpt><trkpt lat="45.973607648243956" lon="9.112515769224473"><ele>1249.3333333333333</ele><time>2026-03-24T16:46:06Z</time></trkpt><trkpt lat="45.97361769981684" lon="9.112621970690066"><ele>1248.5</ele><time>2026-03-24T16:46:09Z</time></trkpt><trkpt lat="45.973654966648944" lon="9.112738210305114"><ele>1247.6666666666665</ele><time>2026-03-24T16:46:12Z</time></trkpt><trkpt lat="45.973615304745636" lon="9.112828240177691"><ele>1246.8333333333333</ele><time>2026-03-24T16:46:14Z</time></trkpt><trkpt lat="45.97363995533626" lon="9.112943496677062"><ele>1246.0</ele><time>2026-03-24T16:46:18Z</time></trkpt><trkpt lat="45.97363447735379" lon="9.113034962698485"><ele>1246.8</ele><time>2026-03-24T16:46:20Z</time></trkpt><trkpt lat="45.97352559216778" lon="9.11329373339713"><ele>1247.6</ele><time>2026-03-24T16:46:25.999Z</time></trkpt><trkpt lat="45.9735111925104" lon="9.113394288289706"><ele>1248.4</ele><time>2026-03-24T16:46:27.999Z</time></trkpt><trkpt lat="45.97348361924105" lon="9.11348230990481"><ele>1249.2</ele><time>2026-03-24T16:46:30.999Z</time></trkpt><trkpt lat="45.9734648576124" lon="9.113599816592124"><ele>1250.0</ele><time>2026-03-24T16:46:42.999Z</time></trkpt><trkpt lat="45.97415502269536" lon="9.114444719177092"><ele>1254.4285714285716</ele><time>2026-03-24T16:53:29.993Z</time></trkpt><trkpt lat="45.97408622372585" lon="9.114406621968156"><ele>1258.857142857143</ele><time>2026-03-24T16:53:40Z</time></trkpt><trkpt lat="45.97403081173574" lon="9.114464366252854"><ele>1263.2857142857142</ele><time>2026-03-24T16:53:52Z</time></trkpt><trkpt lat="45.97395532453727" lon="9.114489499322806"><ele>1267.7142857142858</ele><time>2026-03-24T16:53:55Z</time></trkpt><trkpt lat="45.97393913174698" lon="9.114397187779053"><ele>1272.142857142857</ele><time>2026-03-24T16:53:59Z</time></trkpt><trkpt lat="45.974021202865" lon="9.114357836037303"><ele>1276.5714285714287</ele><time>2026-03-24T16:54:04Z</time></trkpt><trkpt lat="45.97408788351871" lon="9.114406877012387"><ele>1281.0</ele><time>2026-03-24T16:54:08Z</time></trkpt><trkpt lat="45.974147206030956" lon="9.114373356876817"><ele>1281.0</ele><time>2026-03-24T16:54:32.999Z</time></trkpt><trkpt lat="45.97405034777004" lon="9.114438537827178"><ele>1281.0</ele><time>2026-03-24T16:54:41.999Z</time></trkpt><trkpt lat="45.97399418329134" lon="9.114504592892164"><ele>1281.0</ele><time>2026-03-24T16:54:43.999Z</time></trkpt><trkpt lat="45.97398844159008" lon="9.114402724563451"><ele>1281.0</ele><time>2026-03-24T16:54:50.999Z</time></trkpt><trkpt lat="45.974055665909" lon="9.114386532188384"><ele>1281.0</ele><time>2026-03-24T16:54:53.999Z</time></trkpt><trkpt lat="45.974139144466115" lon="9.114472811290915"><ele>1281.0</ele><time>2026-03-24T16:54:56.999Z</time></trkpt><trkpt lat="45.97418690419196" lon="9.114398700704156"><ele>1277.5</ele><time>2026-03-24T16:54:59.999Z</time></trkpt><trkpt lat="45.97429903589679" lon="9.114395623251097"><ele>1274.0</ele><time>2026-03-24T16:55:02.999Z</time></trkpt><trkpt lat="45.97441303367956" lon="9.114440867576926"><ele>1270.5</ele><time>2026-03-24T16:55:03.999Z</time></trkpt><trkpt lat="45.97454887362481" lon="9.114455319197459"><ele>1267.0</ele><time>2026-03-24T16:55:04.999Z</time></trkpt><trkpt lat="45.97464041744064" lon="9.114481426818589"><ele>1267.0</ele><time>2026-03-24T16:55:05.999Z</time></trkpt><trkpt lat="45.97471878861319" lon="9.114501560532982"><ele>1267.0</ele><time>2026-03-24T16:55:07.999Z</time></trkpt><trkpt lat="45.97480182743833" lon="9.114548034568964"><ele>1267.0</ele><time>2026-03-24T16:55:10.999Z</time></trkpt><trkpt lat="45.97491319768272" lon="9.114626517538236"><ele>1267.0</ele><time>2026-03-24T16:55:12.999Z</time></trkpt><trkpt lat="45.974983195148404" lon="9.114684774741471"><ele>1267.0</ele><time>2026-03-24T16:55:13.999Z</time></trkpt><trkpt lat="45.975069796759854" lon="9.11475861990633"><ele>1264.0</ele><time>2026-03-24T16:55:14.999Z</time></trkpt><trkpt lat="45.975176401403466" lon="9.114849107757799"><ele>1261.0</ele><time>2026-03-24T16:55:16.999Z</time></trkpt><trkpt lat="45.97530268881104" lon="9.114968409512958"><ele>1258.0</ele><time>2026-03-24T16:55:18.999Z</time></trkpt><trkpt lat="45.975372187399536" lon="9.115044222487636"><ele>1255.0</ele><time>2026-03-24T16:55:19.999Z</time></trkpt><trkpt lat="45.97543787312854" lon="9.11510848375543"><ele>1252.0</ele><time>2026-03-24T16:55:21.998Z</time></trkpt><trkpt lat="45.97551333616952" lon="9.115200960415473"><ele>1258.4</ele><time>2026-03-24T16:55:23.998Z</time></trkpt><trkpt lat="45.97558636904014" lon="9.115341356572285"><ele>1264.8000000000002</ele><time>2026-03-24T16:55:25.998Z</time></trkpt><trkpt lat="45.975635614438666" lon="9.115449875835113"><ele>1271.2</ele><time>2026-03-24T16:55:27.998Z</time></trkpt><trkpt lat="45.97569190482854" lon="9.115577760544232"><ele>1277.6000000000001</ele><time>2026-03-24T16:55:29.998Z</time></trkpt><trkpt lat="45.9757433050899" lon="9.115685543353337"><ele>1284.0</ele><time>2026-03-24T16:55:32.998Z</time></trkpt><trkpt lat="45.97578988304185" lon="9.115822195001478"><ele>1280.8333333333333</ele><time>2026-03-24T16:55:34.998Z</time></trkpt><trkpt lat="45.97581791281825" lon="9.115945324020869"><ele>1277.6666666666667</ele><time>2026-03-24T16:55:35.998Z</time></trkpt><trkpt lat="45.97584959057598" lon="9.116096777951247"><ele>1274.5</ele><time>2026-03-24T16:55:38Z</time></trkpt><trkpt lat="45.97585533813042" lon="9.116188934412298"><ele>1271.3333333333335</ele><time>2026-03-24T16:55:45Z</time></trkpt><trkpt lat="45.97588212547692" lon="9.11628877443574"><ele>1268.1666666666667</ele><time>2026-03-24T16:55:50Z</time></trkpt><trkpt lat="45.975911592684554" lon="9.116378523034928"><ele>1265.0</ele><time>2026-03-24T16:55:53Z</time></trkpt><trkpt lat="45.97596481320399" lon="9.11652049697714"><ele>1268.857142857143</ele><time>2026-03-24T16:55:55Z</time></trkpt><trkpt lat="45.975992695846124" lon="9.116601964142957"><ele>1272.7142857142858</ele><time>2026-03-24T16:55:56Z</time></trkpt><trkpt lat="45.976022244272734" lon="9.116714533938062"><ele>1276.5714285714287</ele><time>2026-03-24T16:55:59Z</time></trkpt><trkpt lat="45.97604461675564" lon="9.11681129136744"><ele>1280.4285714285716</ele><time>2026-03-24T16:56:02Z</time></trkpt><trkpt lat="45.97607128084439" lon="9.116903700708194"><ele>1284.2857142857142</ele><time>2026-03-24T16:56:05Z</time></trkpt><trkpt lat="45.97610931465851" lon="9.11699539451901"><ele>1288.1428571428573</ele><time>2026-03-24T16:56:08Z</time></trkpt><trkpt lat="45.97615603713853" lon="9.117083290590227"><ele>1292.0</ele><time>2026-03-24T16:56:12Z</time></trkpt><trkpt lat="45.97620094053194" lon="9.117151734185114"><ele>1292.0000000000002</ele><time>2026-03-24T16:56:14Z</time></trkpt><trkpt lat="45.97626256679855" lon="9.117231497296375"><ele>1292.0</ele><time>2026-03-24T16:56:17Z</time></trkpt><trkpt lat="45.97630763548131" lon="9.11730684974139"><ele>1292.0</ele><time>2026-03-24T16:56:21Z</time></trkpt><trkpt lat="45.97634953420485" lon="9.117391909460776"><ele>1292.0</ele><time>2026-03-24T16:56:38.999Z</time></trkpt><trkpt lat="45.9763858163151" lon="9.117469157064544"><ele>1292.0</ele><time>2026-03-24T16:56:44.999Z</time></trkpt><trkpt lat="45.97634371899161" lon="9.11753801549726"><ele>1292.0000000000002</ele><time>2026-03-24T16:57:58Z</time></trkpt><trkpt lat="45.97639215835372" lon="9.11746439510514"><ele>1292.0</ele><time>2026-03-24T16:58:15Z</time></trkpt><trkpt lat="45.97639674016464" lon="9.117573253812065"><ele>1296.8333333333335</ele><time>2026-03-24T16:58:29.999Z</time></trkpt><trkpt lat="45.976452296411296" lon="9.117660110824147"><ele>1301.6666666666667</ele><time>2026-03-24T16:58:31.999Z</time></trkpt><trkpt lat="45.976514205933775" lon="9.11774596432683"><ele>1306.5</ele><time>2026-03-24T16:58:33.999Z</time></trkpt><trkpt lat="45.97653319191229" lon="9.117857234765237"><ele>1311.3333333333333</ele><time>2026-03-24T16:58:36.999Z</time></trkpt><trkpt lat="45.97652565686393" lon="9.117959027450858"><ele>1316.1666666666665</ele><time>2026-03-24T16:58:42.999Z</time></trkpt><trkpt lat="45.976585573657744" lon="9.118021284484666"><ele>1321.0</ele><time>2026-03-24T16:58:44.999Z</time></trkpt><trkpt lat="45.97662221226575" lon="9.118100447820813"><ele>1321.0</ele><time>2026-03-24T16:58:45.999Z</time></trkpt><trkpt lat="45.97666106136161" lon="9.118192811141453"><ele>1321.0</ele><time>2026-03-24T16:58:48.999Z</time></trkpt><trkpt lat="45.97673322882959" lon="9.11831753356499"><ele>1321.0</ele><time>2026-03-24T16:58:50.999Z</time></trkpt><trkpt lat="45.97683219993569" lon="9.118450927492606"><ele>1321.0</ele><time>2026-03-24T16:58:52.999Z</time></trkpt><trkpt lat="45.9768677237721" lon="9.118535428401254"><ele>1321.0</ele><time>2026-03-24T16:58:53.999Z</time></trkpt><trkpt lat="45.97693784058212" lon="9.118632200912009"><ele>1320.8333333333333</ele><time>2026-03-24T16:58:55.999Z</time></trkpt><trkpt lat="45.976985438564874" lon="9.11869274925542"><ele>1320.6666666666665</ele><time>2026-03-24T16:58:57.999Z</time></trkpt><trkpt lat="45.97706120768566" lon="9.118735729964817"><ele>1320.5</ele><time>2026-03-24T16:58:59.999Z</time></trkpt><trkpt lat="45.97713537708128" lon="9.11881658539319"><ele>1320.3333333333333</ele><time>2026-03-24T16:59:02.999Z</time></trkpt><trkpt lat="45.97720325465443" lon="9.118871487092216"><ele>1320.1666666666667</ele><time>2026-03-24T16:59:04.999Z</time></trkpt><trkpt lat="45.97722006282855" lon="9.11896376234308"><ele>1320.0</ele><time>2026-03-24T16:59:17.999Z</time></trkpt><trkpt lat="45.97728869165304" lon="9.11900285959855"><ele>1320.0</ele><time>2026-03-24T16:59:20.999Z</time></trkpt><trkpt lat="45.97734514426026" lon="9.119059042257001"><ele>1320.0</ele><time>2026-03-24T16:59:23.999Z</time></trkpt><trkpt lat="45.97741826045028" lon="9.119142257377954"><ele>1320.0</ele><time>2026-03-24T16:59:26.999Z</time></trkpt><trkpt lat="45.97748503219667" lon="9.11920780063984"><ele>1320.0</ele><time>2026-03-24T16:59:28.999Z</time></trkpt><trkpt lat="45.97754544144625" lon="9.119286336214087"><ele>1320.0</ele><time>2026-03-24T16:59:30.999Z</time></trkpt><trkpt lat="45.97759267150133" lon="9.119349134354193"><ele>1320.0</ele><time>2026-03-24T16:59:32.999Z</time></trkpt><trkpt lat="45.977671625418246" lon="9.119390628226583"><ele>1327.0</ele><time>2026-03-24T16:59:34.998Z</time></trkpt><trkpt lat="45.97775490970704" lon="9.1194191808726"><ele>1334.0</ele><time>2026-03-24T16:59:35.998Z</time></trkpt><trkpt lat="45.97786467965774" lon="9.119406686829915"><ele>1341.0</ele><time>2026-03-24T16:59:36.998Z</time></trkpt><trkpt lat="45.97794532196726" lon="9.119356865591806"><ele>1348.0</ele><time>2026-03-24T16:59:37.998Z</time></trkpt><trkpt lat="45.97800825961121" lon="9.119293912355493"><ele>1355.0</ele><time>2026-03-24T16:59:38.998Z</time></trkpt><trkpt lat="45.97808927030592" lon="9.119267031230077"><ele>1362.0</ele><time>2026-03-24T16:59:39.998Z</time></trkpt><trkpt lat="45.97817926240589" lon="9.11924080303613"><ele>1362.0</ele><time>2026-03-24T16:59:40.998Z</time></trkpt><trkpt lat="45.97825766738465" lon="9.119181874518345"><ele>1362.0</ele><time>2026-03-24T16:59:41.998Z</time></trkpt><trkpt lat="45.97832075914862" lon="9.119116342299417"><ele>1362.0</ele><time>2026-03-24T16:59:42.998Z</time></trkpt><trkpt lat="45.978396357615374" lon="9.119068737809917"><ele>1362.0</ele><time>2026-03-24T16:59:43.998Z</time></trkpt><trkpt lat="45.97847283330304" lon="9.119019099923136"><ele>1362.0</ele><time>2026-03-24T16:59:44.998Z</time></trkpt><trkpt lat="45.97858638770698" lon="9.119028698088655"><ele>1362.0</ele><time>2026-03-24T16:59:46.998Z</time></trkpt><trkpt lat="45.97865225048892" lon="9.119064926712577"><ele>1360.8333333333333</ele><time>2026-03-24T16:59:47.998Z</time></trkpt><trkpt lat="45.978730995291166" lon="9.119097937142623"><ele>1359.6666666666667</ele><time>2026-03-24T16:59:48.998Z</time></trkpt><trkpt lat="45.978824047361314" lon="9.11913110812491"><ele>1358.5</ele><time>2026-03-24T16:59:51Z</time></trkpt><trkpt lat="45.97886847018223" lon="9.119205671690041"><ele>1357.3333333333335</ele><time>2026-03-24T16:59:56Z</time></trkpt><trkpt lat="45.97888954493476" lon="9.119312116520543"><ele>1356.1666666666667</ele><time>2026-03-24T16:59:59Z</time></trkpt><trkpt lat="45.97888330681262" lon="9.119421532880196"><ele>1355.0</ele><time>2026-03-24T17:00:03Z</time></trkpt><trkpt lat="45.97881939738761" lon="9.119506693186336"><ele>1355.0</ele><time>2026-03-24T17:00:08Z</time></trkpt><trkpt lat="45.978774181979226" lon="9.119617790083094"><ele>1355.0</ele><time>2026-03-24T17:00:09Z</time></trkpt><trkpt lat="45.978706796320104" lon="9.119662753369132"><ele>1355.0</ele><time>2026-03-24T17:00:11Z</time></trkpt><trkpt lat="45.978634617752675" lon="9.119712406815784"><ele>1355.0</ele><time>2026-03-24T17:00:13Z</time></trkpt><trkpt lat="45.97855170780727" lon="9.119815269304178"><ele>1355.0</ele><time>2026-03-24T17:00:15Z</time></trkpt><trkpt lat="45.978481424376625" lon="9.119921281374973"><ele>1356.0000000000002</ele><time>2026-03-24T17:00:17Z</time></trkpt><trkpt lat="45.97844726944609" lon="9.120002503049369"><ele>1357.0</ele><time>2026-03-24T17:00:21Z</time></trkpt><trkpt lat="45.97842407248552" lon="9.120091711728163"><ele>1358.0</ele><time>2026-03-24T17:00:23Z</time></trkpt><trkpt lat="45.97838318450872" lon="9.120179828778031"><ele>1359.0</ele><time>2026-03-24T17:00:25Z</time></trkpt><trkpt lat="45.97836159006398" lon="9.12026949890502"><ele>1360.0</ele><time>2026-03-24T17:00:26Z</time></trkpt><trkpt lat="45.97832424892279" lon="9.120378109962372"><ele>1361.0000000000002</ele><time>2026-03-24T17:00:28Z</time></trkpt><trkpt lat="45.978273214505215" lon="9.120485373304403"><ele>1362.0</ele><time>2026-03-24T17:00:30Z</time></trkpt><trkpt lat="45.97821435740367" lon="9.120620219891178"><ele>1365.8333333333333</ele><time>2026-03-24T17:00:31Z</time></trkpt><trkpt lat="45.97817628853542" lon="9.120714340316589"><ele>1369.6666666666667</ele><time>2026-03-24T17:00:32Z</time></trkpt><trkpt lat="45.97813949279395" lon="9.120806815521009"><ele>1373.5</ele><time>2026-03-24T17:00:33Z</time></trkpt><trkpt lat="45.978081913210325" lon="9.120917912960048"><ele>1377.3333333333335</ele><time>2026-03-24T17:00:34.999Z</time></trkpt><trkpt lat="45.97810300084589" lon="9.121013738783551"><ele>1381.1666666666667</ele><time>2026-03-24T17:00:38.999Z</time></trkpt><trkpt lat="45.97808632929952" lon="9.120917933112965"><ele>1385.0</ele><time>2026-03-24T17:02:36Z</time></trkpt><trkpt lat="45.978136610986724" lon="9.120824348219175"><ele>1385.0</ele><time>2026-03-24T17:02:39.999Z</time></trkpt><trkpt lat="45.978175976755644" lon="9.120743007491033"><ele>1385.0</ele><time>2026-03-24T17:02:42.999Z</time></trkpt><trkpt lat="45.978230025474026" lon="9.120638049253508"><ele>1385.0</ele><time>2026-03-24T17:02:45.999Z</time></trkpt><trkpt lat="45.97826865273145" lon="9.120556119696003"><ele>1385.0</ele><time>2026-03-24T17:02:47.999Z</time></trkpt><trkpt lat="45.97830392661022" lon="9.120475603917743"><ele>1385.0</ele><time>2026-03-24T17:02:49.999Z</time></trkpt><trkpt lat="45.97834632044603" lon="9.120348560391212"><ele>1385.0</ele><time>2026-03-24T17:02:54.999Z</time></trkpt><trkpt lat="45.97837190464143" lon="9.120259032016074"><ele>1381.1666666666667</ele><time>2026-03-24T17:02:57.999Z</time></trkpt><trkpt lat="45.978412002441445" lon="9.120171701354828"><ele>1377.3333333333335</ele><time>2026-03-24T17:03:00.999Z</time></trkpt><trkpt lat="45.97844050757655" lon="9.120082028466935"><ele>1373.5</ele><time>2026-03-24T17:03:03.999Z</time></trkpt><trkpt lat="45.97848447254458" lon="9.119935052503747"><ele>1369.6666666666667</ele><time>2026-03-24T17:03:06.999Z</time></trkpt><trkpt lat="45.97853146842329" lon="9.119862663008174"><ele>1365.8333333333333</ele><time>2026-03-24T17:03:08.999Z</time></trkpt><trkpt lat="45.978575322782454" lon="9.119752072837455"><ele>1362.0</ele><time>2026-03-24T17:03:11.999Z</time></trkpt><trkpt lat="45.978537394040046" lon="9.119869271548014"><ele>1362.0</ele><time>2026-03-24T17:03:36.999Z</time></trkpt><trkpt lat="45.97850009741847" lon="9.119946955573848"><ele>1362.0</ele><time>2026-03-24T17:03:37.999Z</time></trkpt><trkpt lat="45.97845105372392" lon="9.120055929776555"><ele>1362.0</ele><time>2026-03-24T17:03:39.999Z</time></trkpt><trkpt lat="45.978377135022384" lon="9.120223145215048"><ele>1362.0</ele><time>2026-03-24T17:03:41.999Z</time></trkpt><trkpt lat="45.97833909378005" lon="9.120328468441672"><ele>1362.0</ele><time>2026-03-24T17:03:42.999Z</time></trkpt><trkpt lat="45.978305054335024" lon="9.120435237503314"><ele>1365.8333333333333</ele><time>2026-03-24T17:03:43.999Z</time></trkpt><trkpt lat="45.978269821846155" lon="9.120539006144135"><ele>1369.6666666666667</ele><time>2026-03-24T17:03:44.999Z</time></trkpt><trkpt lat="45.978211158705705" lon="9.120650847408626"><ele>1373.5</ele><time>2026-03-24T17:03:45.998Z</time></trkpt><trkpt lat="45.97813616026857" lon="9.12079474618074"><ele>1377.3333333333335</ele><time>2026-03-24T17:03:47.998Z</time></trkpt><trkpt lat="45.978099458110854" lon="9.120876789105465"><ele>1381.1666666666667</ele><time>2026-03-24T17:03:48.998Z</time></trkpt><trkpt lat="45.97806212176148" lon="9.120969786926906"><ele>1385.0</ele><time>2026-03-24T17:03:49.998Z</time></trkpt><trkpt lat="45.97798865442825" lon="9.121106687964025"><ele>1387.857142857143</ele><time>2026-03-24T17:03:51.998Z</time></trkpt><trkpt lat="45.97794444079205" lon="9.121188662348345"><ele>1390.7142857142858</ele><time>2026-03-24T17:03:57.998Z</time></trkpt><trkpt lat="45.97791376779349" lon="9.121129921685869"><ele>1393.5714285714284</ele><time>2026-03-24T17:06:54.999Z</time></trkpt><trkpt lat="45.97796056405815" lon="9.121054240685893"><ele>1396.4285714285716</ele><time>2026-03-24T17:07:05.999Z</time></trkpt><trkpt lat="45.97802290302875" lon="9.12099639670148"><ele>1399.2857142857144</ele><time>2026-03-24T17:07:13.999Z</time></trkpt><trkpt lat="45.97808054581063" lon="9.120952553928067"><ele>1402.142857142857</ele><time>2026-03-24T17:07:18.999Z</time></trkpt><trkpt lat="45.97813928009411" lon="9.120856986460904"><ele>1405.0</ele><time>2026-03-24T17:07:22.999Z</time></trkpt><trkpt lat="45.9781793534068" lon="9.12077061592224"><ele>1401.6666666666665</ele><time>2026-03-24T17:07:25.999Z</time></trkpt><trkpt lat="45.97823644200126" lon="9.120662261883485"><ele>1398.3333333333333</ele><time>2026-03-24T17:07:28.999Z</time></trkpt><trkpt lat="45.97827644592641" lon="9.120581334040475"><ele>1395.0</ele><time>2026-03-24T17:07:30.999Z</time></trkpt><trkpt lat="45.9783226438762" lon="9.120472888297398"><ele>1391.6666666666667</ele><time>2026-03-24T17:07:33.999Z</time></trkpt><trkpt lat="45.978350114953926" lon="9.120367466770391"><ele>1388.3333333333335</ele><time>2026-03-24T17:07:36.999Z</time></trkpt><trkpt lat="45.97838162849868" lon="9.120266962278494"><ele>1385.0</ele><time>2026-03-24T17:07:39.999Z</time></trkpt><trkpt lat="45.97841480827433" lon="9.12017573320875"><ele>1381.1666666666667</ele><time>2026-03-24T17:07:42.999Z</time></trkpt><trkpt lat="45.978440998541814" lon="9.120072145658831"><ele>1377.3333333333335</ele><time>2026-03-24T17:07:46.999Z</time></trkpt><trkpt lat="45.97847676330399" lon="9.119973973619077"><ele>1373.5</ele><time>2026-03-24T17:07:49.999Z</time></trkpt><trkpt lat="45.97853157307492" lon="9.119881547783777"><ele>1369.6666666666667</ele><time>2026-03-24T17:07:52.999Z</time></trkpt><trkpt lat="45.97855848001177" lon="9.11977969265333"><ele>1365.8333333333333</ele><time>2026-03-24T17:07:56.998Z</time></trkpt><trkpt lat="45.97852080596585" lon="9.119687368432277"><ele>1362.0</ele><time>2026-03-24T17:08:00.998Z</time></trkpt><trkpt lat="45.97848608861819" lon="9.119595844614489"><ele>1360.8333333333333</ele><time>2026-03-24T17:08:04.998Z</time></trkpt><trkpt lat="45.97847123603282" lon="9.119507311863597"><ele>1359.6666666666667</ele><time>2026-03-24T17:08:09.998Z</time></trkpt><trkpt lat="45.97845658067573" lon="9.11941505105368"><ele>1358.5</ele><time>2026-03-24T17:08:14Z</time></trkpt><trkpt lat="45.97844193687039" lon="9.119315429632568"><ele>1357.3333333333335</ele><time>2026-03-24T17:08:16Z</time></trkpt><trkpt lat="45.978444798624544" lon="9.119195823571964"><ele>1356.1666666666667</ele><time>2026-03-24T17:08:21Z</time></trkpt><trkpt lat="45.97852464347391" lon="9.1191032585789"><ele>1355.0</ele><time>2026-03-24T17:08:26Z</time></trkpt><trkpt lat="45.97862007619619" lon="9.119082177343817"><ele>1355.0</ele><time>2026-03-24T17:08:28Z</time></trkpt><trkpt lat="45.97869747206745" lon="9.119086113602705"><ele>1355.0</ele><time>2026-03-24T17:08:30Z</time></trkpt><trkpt lat="45.97877216902646" lon="9.119120986955535"><ele>1355.0</ele><time>2026-03-24T17:08:32Z</time></trkpt><trkpt lat="45.97885682084723" lon="9.119155362951702"><ele>1355.0</ele><time>2026-03-24T17:08:34Z</time></trkpt><trkpt lat="45.97892042424694" lon="9.11918811394339"><ele>1355.0</ele><time>2026-03-24T17:08:36Z</time></trkpt><trkpt lat="45.97898730985632" lon="9.11908338513797"><ele>1355.0</ele><time>2026-03-24T17:08:39Z</time></trkpt><trkpt lat="45.97900876714341" lon="9.11898283116773"><ele>1352.3333333333335</ele><time>2026-03-24T17:08:41Z</time></trkpt><trkpt lat="45.97904476082325" lon="9.118906783832951"><ele>1349.6666666666667</ele><time>2026-03-24T17:08:43Z</time></trkpt><trkpt lat="45.979096910837036" lon="9.118808065050729"><ele>1347.0</ele><time>2026-03-24T17:08:45Z</time></trkpt><trkpt lat="45.97914152992093" lon="9.118699520093184"><ele>1344.3333333333333</ele><time>2026-03-24T17:08:47Z</time></trkpt><trkpt lat="45.97917986144824" lon="9.118601336584137"><ele>1341.6666666666665</ele><time>2026-03-24T17:08:49Z</time></trkpt><trkpt lat="45.979239724679374" lon="9.11853088961526"><ele>1339.0</ele><time>2026-03-24T17:08:52Z</time></trkpt><trkpt lat="45.979268840095955" lon="9.118436230869351"><ele>1335.2</ele><time>2026-03-24T17:08:54Z</time></trkpt><trkpt lat="45.97932998018591" lon="9.11832345453003"><ele>1331.4</ele><time>2026-03-24T17:08:56Z</time></trkpt><trkpt lat="45.97937730194548" lon="9.118198559623933"><ele>1327.6</ele><time>2026-03-24T17:08:58Z</time></trkpt><trkpt lat="45.979415888804034" lon="9.118092442170534"><ele>1323.8</ele><time>2026-03-24T17:08:59.999Z</time></trkpt><trkpt lat="45.97947764350127" lon="9.11798299976479"><ele>1320.0</ele><time>2026-03-24T17:09:02.999Z</time></trkpt><trkpt lat="45.97951779967205" lon="9.11788455586151"><ele>1319.857142857143</ele><time>2026-03-24T17:09:04.999Z</time></trkpt><trkpt lat="45.97952692531163" lon="9.1177813204844"><ele>1319.7142857142858</ele><time>2026-03-24T17:09:06.999Z</time></trkpt><trkpt lat="45.979552885076146" lon="9.117681388731844"><ele>1319.5714285714284</ele><time>2026-03-24T17:09:08.999Z</time></trkpt><trkpt lat="45.97955205270526" lon="9.117566532710873"><ele>1319.4285714285716</ele><time>2026-03-24T17:09:11.999Z</time></trkpt><trkpt lat="45.979593931397275" lon="9.11749276675149"><ele>1319.2857142857142</ele><time>2026-03-24T17:09:14.999Z</time></trkpt><trkpt lat="45.97967849049631" lon="9.117487847590828"><ele>1319.142857142857</ele><time>2026-03-24T17:09:18.999Z</time></trkpt><trkpt lat="45.97973157941529" lon="9.117436418775222"><ele>1319.0</ele><time>2026-03-24T17:09:20.999Z</time></trkpt><trkpt lat="45.979813106858245" lon="9.1174524357268"><ele>1319.0</ele><time>2026-03-24T17:09:24.999Z</time></trkpt><trkpt lat="45.97991107454186" lon="9.117422000676394"><ele>1319.0</ele><time>2026-03-24T17:09:27.999Z</time></trkpt><trkpt lat="45.979973673103096" lon="9.117464971628145"><ele>1319.0</ele><time>2026-03-24T17:09:30.999Z</time></trkpt><trkpt lat="45.98004126335921" lon="9.117462055221548"><ele>1319.0</ele><time>2026-03-24T17:09:31.999Z</time></trkpt><trkpt lat="45.98011948547899" lon="9.117386949139627"><ele>1319.0</ele><time>2026-03-24T17:09:35.999Z</time></trkpt><trkpt lat="45.9802346268077" lon="9.117205648560212"><ele>1315.6666666666667</ele><time>2026-03-24T17:09:39.999Z</time></trkpt><trkpt lat="45.980309061636305" lon="9.117120542432112"><ele>1312.3333333333335</ele><time>2026-03-24T17:09:41.999Z</time></trkpt><trkpt lat="45.98037648171155" lon="9.117052301915182"><ele>1309.0</ele><time>2026-03-24T17:09:42.999Z</time></trkpt><trkpt lat="45.98040920076165" lon="9.116945132409864"><ele>1305.6666666666667</ele><time>2026-03-24T17:09:46.999Z</time></trkpt><trkpt lat="45.98044084322723" lon="9.116866656290133"><ele>1302.3333333333333</ele><time>2026-03-24T17:09:49.999Z</time></trkpt><trkpt lat="45.98045876074848" lon="9.116759576897215"><ele>1299.0</ele><time>2026-03-24T17:09:53.999Z</time></trkpt><trkpt lat="45.98046258090085" lon="9.116652309989902"><ele>1295.7142857142858</ele><time>2026-03-24T17:09:56.999Z</time></trkpt><trkpt lat="45.980446467339675" lon="9.116527322434738"><ele>1292.4285714285716</ele><time>2026-03-24T17:09:59.999Z</time></trkpt><trkpt lat="45.9804554715563" lon="9.116409609015184"><ele>1289.1428571428573</ele><time>2026-03-24T17:10:03.999Z</time></trkpt><trkpt lat="45.98043679834554" lon="9.116317698922739"><ele>1285.857142857143</ele><time>2026-03-24T17:10:05.999Z</time></trkpt><trkpt lat="45.98044909179835" lon="9.116209389459545"><ele>1282.5714285714284</ele><time>2026-03-24T17:10:09.998Z</time></trkpt><trkpt lat="45.98044720269777" lon="9.116112785615742"><ele>1279.2857142857144</ele><time>2026-03-24T17:10:12.998Z</time></trkpt><trkpt lat="45.98042789468174" lon="9.116019676983933"><ele>1276.0</ele><time>2026-03-24T17:10:16.998Z</time></trkpt><trkpt lat="45.980446249170946" lon="9.115930142482416"><ele>1276.0</ele><time>2026-03-24T17:10:20Z</time></trkpt><trkpt lat="45.980431326790686" lon="9.115806878918258"><ele>1276.0</ele><time>2026-03-24T17:10:23Z</time></trkpt><trkpt lat="45.98043116222815" lon="9.115715697219365"><ele>1276.0</ele><time>2026-03-24T17:10:26Z</time></trkpt><trkpt lat="45.9804440276929" lon="9.115610480378741"><ele>1276.0</ele><time>2026-03-24T17:10:28Z</time></trkpt><trkpt lat="45.98047340511117" lon="9.115512533423026"><ele>1276.0</ele><time>2026-03-24T17:10:30Z</time></trkpt><trkpt lat="45.980458953220165" lon="9.11539526488256"><ele>1276.0</ele><time>2026-03-24T17:10:32Z</time></trkpt><trkpt lat="45.980491110916645" lon="9.115297157095426"><ele>1271.1666666666665</ele><time>2026-03-24T17:10:36Z</time></trkpt><trkpt lat="45.980502521961284" lon="9.11518710161856"><ele>1266.3333333333333</ele><time>2026-03-24T17:10:42Z</time></trkpt><trkpt lat="45.980448144716476" lon="9.115139378074167"><ele>1261.5</ele><time>2026-03-24T17:10:45Z</time></trkpt><trkpt lat="45.98047007230983" lon="9.115044162155861"><ele>1256.6666666666667</ele><time>2026-03-24T17:10:49Z</time></trkpt><trkpt lat="45.980394892962146" lon="9.115018109285622"><ele>1251.8333333333335</ele><time>2026-03-24T17:11:08Z</time></trkpt><trkpt lat="45.980308624051034" lon="9.115036356168927"><ele>1247.0</ele><time>2026-03-24T17:11:10.999Z</time></trkpt><trkpt lat="45.9802329810263" lon="9.115085531501512"><ele>1247.0</ele><time>2026-03-24T17:11:12.999Z</time></trkpt><trkpt lat="45.980150769210944" lon="9.11512303756696"><ele>1247.0</ele><time>2026-03-24T17:11:14.999Z</time></trkpt><trkpt lat="45.98006745420476" lon="9.115180414198164"><ele>1247.0</ele><time>2026-03-24T17:11:20.999Z</time></trkpt><trkpt lat="45.98000861550788" lon="9.115243239152113"><ele>1247.0</ele><time>2026-03-24T17:11:21.999Z</time></trkpt><trkpt lat="45.97996188393712" lon="9.11531745033683"><ele>1247.0</ele><time>2026-03-24T17:11:22.999Z</time></trkpt><trkpt lat="45.979912038312" lon="9.115391775993194"><ele>1247.0</ele><time>2026-03-24T17:11:23.999Z</time></trkpt><trkpt lat="45.97987765848371" lon="9.115472678281453"><ele>1246.0</ele><time>2026-03-24T17:11:24.999Z</time></trkpt><trkpt lat="45.9797890376853" lon="9.11551876478983"><ele>1245.0</ele><time>2026-03-24T17:11:26.999Z</time></trkpt><trkpt lat="45.979665994770784" lon="9.115462047273061"><ele>1244.0</ele><time>2026-03-24T17:11:28.999Z</time></trkpt><trkpt lat="45.97960147439045" lon="9.115445053734161"><ele>1243.0</ele><time>2026-03-24T17:11:29.999Z</time></trkpt><trkpt lat="45.979514548419566" lon="9.1154122133161"><ele>1242.0</ele><time>2026-03-24T17:11:30.999Z</time></trkpt><trkpt lat="45.97942840597664" lon="9.115415952376742"><ele>1242.0</ele><time>2026-03-24T17:11:31.999Z</time></trkpt><trkpt lat="45.97934563897403" lon="9.115437932707348"><ele>1242.0</ele><time>2026-03-24T17:11:32.999Z</time></trkpt><trkpt lat="45.97926224310379" lon="9.115525079854654"><ele>1242.0</ele><time>2026-03-24T17:11:33.999Z</time></trkpt><trkpt lat="45.979155048998365" lon="9.115565155167356"><ele>1242.0</ele><time>2026-03-24T17:11:34.999Z</time></trkpt><trkpt lat="45.9790560876222" lon="9.115598561098375"><ele>1242.0</ele><time>2026-03-24T17:11:35.999Z</time></trkpt><trkpt lat="45.97897115149848" lon="9.115616299627044"><ele>1243.8571428571427</ele><time>2026-03-24T17:11:36.999Z</time></trkpt><trkpt lat="45.97889322279749" lon="9.115656946188578"><ele>1245.7142857142858</ele><time>2026-03-24T17:11:37.999Z</time></trkpt><trkpt lat="45.97881984765019" lon="9.11566506839532"><ele>1247.5714285714284</ele><time>2026-03-24T17:11:39.999Z</time></trkpt><trkpt lat="45.97875925710121" lon="9.115631118631246"><ele>1249.4285714285713</ele><time>2026-03-24T17:11:57.999Z</time></trkpt><trkpt lat="45.978697678444014" lon="9.115656868307608"><ele>1251.2857142857142</ele><time>2026-03-24T17:12:06.999Z</time></trkpt><trkpt lat="45.97864527420857" lon="9.11573405364455"><ele>1253.142857142857</ele><time>2026-03-24T17:12:07.999Z</time></trkpt><trkpt lat="45.978580367678795" lon="9.115797958650237"><ele>1255.0</ele><time>2026-03-24T17:12:08.999Z</time></trkpt><trkpt lat="45.97852204277376" lon="9.115854075719152"><ele>1255.0</ele><time>2026-03-24T17:12:09.999Z</time></trkpt><trkpt lat="45.97845122641828" lon="9.115910022395022"><ele>1255.0</ele><time>2026-03-24T17:12:10.999Z</time></trkpt><trkpt lat="45.97837762437712" lon="9.115959477359704"><ele>1255.0</ele><time>2026-03-24T17:12:11.999Z</time></trkpt><trkpt lat="45.978254159500075" lon="9.116001239282838"><ele>1255.0</ele><time>2026-03-24T17:12:13.999Z</time></trkpt><trkpt lat="45.97821122312854" lon="9.116090859702544"><ele>1255.0</ele><time>2026-03-24T17:12:15.999Z</time></trkpt><trkpt lat="45.97815005107354" lon="9.11611734200019"><ele>1255.0</ele><time>2026-03-24T17:12:33Z</time></trkpt><trkpt lat="45.97811899220425" lon="9.116265488407857"><ele>1256.6</ele><time>2026-03-24T17:12:44Z</time></trkpt><trkpt lat="45.978065371473214" lon="9.116325578165197"><ele>1258.2</ele><time>2026-03-24T17:12:45Z</time></trkpt><trkpt lat="45.978011707110404" lon="9.116394739991664"><ele>1259.8</ele><time>2026-03-24T17:12:48Z</time></trkpt><trkpt lat="45.97789919851315" lon="9.116442893520563"><ele>1261.4</ele><time>2026-03-24T17:12:50Z</time></trkpt><trkpt lat="45.97779911155127" lon="9.116497734478626"><ele>1263.0</ele><time>2026-03-24T17:12:52Z</time></trkpt><trkpt lat="45.97771955244737" lon="9.116572960636484"><ele>1263.0</ele><time>2026-03-24T17:12:54Z</time></trkpt><trkpt lat="45.977647564573886" lon="9.116612612598612"><ele>1263.0</ele><time>2026-03-24T17:12:55Z</time></trkpt><trkpt lat="45.977562738009134" lon="9.116648055557699"><ele>1263.0</ele><time>2026-03-24T17:12:57Z</time></trkpt><trkpt lat="45.97753749349937" lon="9.116517696706557"><ele>1263.0</ele><time>2026-03-24T17:13:00Z</time></trkpt><trkpt lat="45.977512596914565" lon="9.116406306625079"><ele>1263.0</ele><time>2026-03-24T17:13:01Z</time></trkpt><trkpt lat="45.97749051537894" lon="9.116318833501175"><ele>1263.0</ele><time>2026-03-24T17:13:02Z</time></trkpt><trkpt lat="45.97743604950097" lon="9.116176096850046"><ele>1257.0</ele><time>2026-03-24T17:13:04Z</time></trkpt><trkpt lat="45.977379380687054" lon="9.11610059207546"><ele>1251.0</ele><time>2026-03-24T17:13:06Z</time></trkpt><trkpt lat="45.977299387522116" lon="9.116047349532577"><ele>1245.0</ele><time>2026-03-24T17:13:08Z</time></trkpt><trkpt lat="45.97724571971172" lon="9.115994818418029"><ele>1239.0</ele><time>2026-03-24T17:13:12Z</time></trkpt><trkpt lat="45.977148546116574" lon="9.115908873856041"><ele>1233.0</ele><time>2026-03-24T17:13:13.999Z</time></trkpt><trkpt lat="45.97705771448097" lon="9.11583755369571"><ele>1227.0</ele><time>2026-03-24T17:13:15.999Z</time></trkpt><trkpt lat="45.97697185485806" lon="9.115773629263638"><ele>1223.5</ele><time>2026-03-24T17:13:17.999Z</time></trkpt><trkpt lat="45.97695772756458" lon="9.115672304522127"><ele>1220.0</ele><time>2026-03-24T17:13:29.999Z</time></trkpt><trkpt lat="45.97698230818297" lon="9.115585995811731"><ele>1216.5</ele><time>2026-03-24T17:13:44.999Z</time></trkpt><trkpt lat="45.97703323255383" lon="9.115479694206323"><ele>1213.0</ele><time>2026-03-24T17:15:04Z</time></trkpt><trkpt lat="45.97694698225758" lon="9.115485620085062"><ele>1209.5</ele><time>2026-03-24T17:15:13Z</time></trkpt><trkpt lat="45.977061662184425" lon="9.115555471878258"><ele>1206.0</ele><time>2026-03-24T17:15:42.999Z</time></trkpt><trkpt lat="45.97700088461225" lon="9.115502062662845"><ele>1206.0</ele><time>2026-03-24T17:15:49.999Z</time></trkpt><trkpt lat="45.976962231868306" lon="9.115430368054277"><ele>1206.0</ele><time>2026-03-24T17:15:54.999Z</time></trkpt><trkpt lat="45.97691711291464" lon="9.11560286906435"><ele>1206.0</ele><time>2026-03-24T17:16:41Z</time></trkpt><trkpt lat="45.976931610332564" lon="9.115701389470704"><ele>1206.0</ele><time>2026-03-24T17:16:46Z</time></trkpt><trkpt lat="45.97699849902765" lon="9.11560461869962"><ele>1206.0</ele><time>2026-03-24T17:16:57Z</time></trkpt><trkpt lat="45.97699539699897" lon="9.115497076190104"><ele>1206.0</ele><time>2026-03-24T17:17:12Z</time></trkpt><trkpt lat="45.97703012963802" lon="9.115587484956622"><ele>1206.0</ele><time>2026-03-24T17:17:27.999Z</time></trkpt><trkpt lat="45.976979604720476" lon="9.11547027268475"><ele>1206.0</ele><time>2026-03-24T17:17:34.999Z</time></trkpt><trkpt lat="45.97701022821869" lon="9.115364986531057"><ele>1206.0</ele><time>2026-03-24T17:17:39.999Z</time></trkpt><trkpt lat="45.977033124232285" lon="9.115233638845252"><ele>1206.0</ele><time>2026-03-24T17:17:42.999Z</time></trkpt><trkpt lat="45.97701167218011" lon="9.115112200621539"><ele>1206.0</ele><time>2026-03-24T17:17:46.999Z</time></trkpt><trkpt lat="45.97697769637201" lon="9.115035556501198"><ele>1206.0</ele><time>2026-03-24T17:17:47.999Z</time></trkpt><trkpt lat="45.97696548393427" lon="9.114898382944325"><ele>1208.6666666666667</ele><time>2026-03-24T17:17:49.999Z</time></trkpt><trkpt lat="45.976920020036104" lon="9.11476120012276"><ele>1211.3333333333333</ele><time>2026-03-24T17:17:51.999Z</time></trkpt><trkpt lat="45.97685091332686" lon="9.114661450328509"><ele>1214.0</ele><time>2026-03-24T17:17:53.999Z</time></trkpt><trkpt lat="45.976804974637375" lon="9.114578865629953"><ele>1216.6666666666665</ele><time>2026-03-24T17:17:55.999Z</time></trkpt><trkpt lat="45.97678618569573" lon="9.114488912706268"><ele>1219.3333333333333</ele><time>2026-03-24T17:17:57.999Z</time></trkpt><trkpt lat="45.97675673355567" lon="9.114356319219889"><ele>1222.0</ele><time>2026-03-24T17:18:00.999Z</time></trkpt><trkpt lat="45.976676135129765" lon="9.114262054639282"><ele>1222.0</ele><time>2026-03-24T17:18:02.999Z</time></trkpt><trkpt lat="45.976628178222626" lon="9.114167280200297"><ele>1222.0</ele><time>2026-03-24T17:18:04.999Z</time></trkpt><trkpt lat="45.97656407015087" lon="9.114020012229682"><ele>1222.0</ele><time>2026-03-24T17:18:06.999Z</time></trkpt><trkpt lat="45.97650114970354" lon="9.1138823180659"><ele>1222.0</ele><time>2026-03-24T17:18:08.999Z</time></trkpt><trkpt lat="45.976420336065004" lon="9.113692341503455"><ele>1218.0</ele><time>2026-03-24T17:18:10.999Z</time></trkpt><trkpt lat="45.97637286444166" lon="9.113594684021708"><ele>1214.0</ele><time>2026-03-24T17:18:11.999Z</time></trkpt><trkpt lat="45.97633042262346" lon="9.113485189480707"><ele>1210.0</ele><time>2026-03-24T17:18:12.999Z</time></trkpt><trkpt lat="45.97622770887997" lon="9.113419643630364"><ele>1206.0</ele><time>2026-03-24T17:18:14.999Z</time></trkpt><trkpt lat="45.9761618423784" lon="9.11331980041791"><ele>1202.0</ele><time>2026-03-24T17:18:16.999Z</time></trkpt><trkpt lat="45.976057528914296" lon="9.113316961802239"><ele>1202.0</ele><time>2026-03-24T17:18:19.999Z</time></trkpt><trkpt lat="45.97598595930059" lon="9.113381215484837"><ele>1202.0</ele><time>2026-03-24T17:18:21.999Z</time></trkpt><trkpt lat="45.97592023300388" lon="9.113382038354406"><ele>1202.0</ele><time>2026-03-24T17:18:22.999Z</time></trkpt><trkpt lat="45.97590115345644" lon="9.11347900332227"><ele>1202.0</ele><time>2026-03-24T17:18:23.999Z</time></trkpt><trkpt lat="45.97583385027909" lon="9.113430803697737"><ele>1202.0</ele><time>2026-03-24T17:18:25.999Z</time></trkpt><trkpt lat="45.97573839012811" lon="9.113352961250929"><ele>1202.0</ele><time>2026-03-24T17:18:27.999Z</time></trkpt><trkpt lat="45.97566833890426" lon="9.11324563334915"><ele>1198.6666666666667</ele><time>2026-03-24T17:18:29.999Z</time></trkpt><trkpt lat="45.975644440965766" lon="9.113145802766654"><ele>1195.3333333333335</ele><time>2026-03-24T17:18:31.998Z</time></trkpt><trkpt lat="45.97559263460806" lon="9.113034172805738"><ele>1192.0</ele><time>2026-03-24T17:18:32.998Z</time></trkpt><trkpt lat="45.97556413964695" lon="9.112947815241572"><ele>1188.6666666666667</ele><time>2026-03-24T17:18:33.998Z</time></trkpt><trkpt lat="45.975508460589424" lon="9.112895265089245"><ele>1185.3333333333333</ele><time>2026-03-24T17:18:35.998Z</time></trkpt><trkpt lat="45.97543059228466" lon="9.112830604848012"><ele>1182.0</ele><time>2026-03-24T17:18:37.998Z</time></trkpt><trkpt lat="45.97534406213168" lon="9.11281197792652"><ele>1182.0</ele><time>2026-03-24T17:18:38.998Z</time></trkpt><trkpt lat="45.97527436218658" lon="9.112769189666073"><ele>1182.0</ele><time>2026-03-24T17:18:40.998Z</time></trkpt><trkpt lat="45.9751764705066" lon="9.112715137097783"><ele>1182.0</ele><time>2026-03-24T17:18:43Z</time></trkpt><trkpt lat="45.97506785309413" lon="9.1127078954789"><ele>1182.0</ele><time>2026-03-24T17:18:45Z</time></trkpt><trkpt lat="45.97498213100568" lon="9.11269412301977"><ele>1182.0</ele><time>2026-03-24T17:18:47Z</time></trkpt><trkpt lat="45.974859507468786" lon="9.1126209473481"><ele>1185.3333333333333</ele><time>2026-03-24T17:18:49Z</time></trkpt><trkpt lat="45.974924508905495" lon="9.112664690555624"><ele>1188.6666666666667</ele><time>2026-03-24T17:18:50Z</time></trkpt><trkpt lat="45.97493912804848" lon="9.112520891075546"><ele>1192.0</ele><time>2026-03-24T17:18:54Z</time></trkpt><trkpt lat="45.97496462970664" lon="9.11241630424278"><ele>1195.3333333333335</ele><time>2026-03-24T17:18:56Z</time></trkpt><trkpt lat="45.974966456958114" lon="9.112300873428705"><ele>1198.6666666666667</ele><time>2026-03-24T17:18:58Z</time></trkpt><trkpt lat="45.97496509781139" lon="9.11220568081085"><ele>1202.0</ele><time>2026-03-24T17:18:59Z</time></trkpt><trkpt lat="45.97500348815708" lon="9.112080681810184"><ele>1198.0</ele><time>2026-03-24T17:19:01Z</time></trkpt><trkpt lat="45.975025903940924" lon="9.111926678958252"><ele>1194.0</ele><time>2026-03-24T17:19:03Z</time></trkpt><trkpt lat="45.97505306340791" lon="9.111808669099089"><ele>1190.0</ele><time>2026-03-24T17:19:04Z</time></trkpt><trkpt lat="45.97508831106847" lon="9.111691354176566"><ele>1186.0</ele><time>2026-03-24T17:19:06Z</time></trkpt><trkpt lat="45.975070117961764" lon="9.11158840012605"><ele>1182.0</ele><time>2026-03-24T17:19:08Z</time></trkpt><trkpt lat="45.97509603205229" lon="9.111445259180972"><ele>1182.0</ele><time>2026-03-24T17:19:10Z</time></trkpt><trkpt lat="45.97505582972747" lon="9.111358785855815"><ele>1182.0</ele><time>2026-03-24T17:19:12Z</time></trkpt><trkpt lat="45.97513273185362" lon="9.111384261268082"><ele>1182.0</ele><time>2026-03-24T17:19:17Z</time></trkpt><trkpt lat="45.97520892990682" lon="9.111343221293795"><ele>1182.0</ele><time>2026-03-24T17:19:21Z</time></trkpt><trkpt lat="45.97529197637762" lon="9.111292644892442"><ele>1182.0</ele><time>2026-03-24T17:19:23Z</time></trkpt><trkpt lat="45.975351090413454" lon="9.111230862542275"><ele>1182.0</ele><time>2026-03-24T17:19:24Z</time></trkpt><trkpt lat="45.97540877676497" lon="9.111193824945746"><ele>1182.0</ele><time>2026-03-24T17:19:25Z</time></trkpt><trkpt lat="45.97546247008988" lon="9.111145673957266"><ele>1182.0</ele><time>2026-03-24T17:19:26Z</time></trkpt><trkpt lat="45.97551618180793" lon="9.111073226235865"><ele>1182.0</ele><time>2026-03-24T17:19:27Z</time></trkpt><trkpt lat="45.97551421524363" lon="9.11097454831197"><ele>1182.0</ele><time>2026-03-24T17:19:30.999Z</time></trkpt><trkpt lat="45.975527854575745" lon="9.110826907959728"><ele>1182.0</ele><time>2026-03-24T17:19:34.999Z</time></trkpt><trkpt lat="45.97558987449034" lon="9.110742487770395"><ele>1182.0</ele><time>2026-03-24T17:19:36.999Z</time></trkpt><trkpt lat="45.97557845630438" lon="9.110629968194981"><ele>1186.4</ele><time>2026-03-24T17:19:38.999Z</time></trkpt><trkpt lat="45.97559779236898" lon="9.110541347946345"><ele>1190.8000000000002</ele><time>2026-03-24T17:19:41.999Z</time></trkpt><trkpt lat="45.97565553739185" lon="9.110435644120809"><ele>1195.2</ele><time>2026-03-24T17:19:43.999Z</time></trkpt><trkpt lat="45.97575311060596" lon="9.110381202135097"><ele>1199.6000000000001</ele><time>2026-03-24T17:19:45.999Z</time></trkpt><trkpt lat="45.975834081796506" lon="9.110333781173725"><ele>1204.0</ele><time>2026-03-24T17:19:47.999Z</time></trkpt><trkpt lat="45.9759209360897" lon="9.110170358994408"><ele>1197.6000000000001</ele><time>2026-03-24T17:19:49.999Z</time></trkpt><trkpt lat="45.97599076998239" lon="9.110060549166027"><ele>1191.2</ele><time>2026-03-24T17:19:50.999Z</time></trkpt><trkpt lat="45.97608157271211" lon="9.10997346672575"><ele>1184.8000000000002</ele><time>2026-03-24T17:19:51.999Z</time></trkpt><trkpt lat="45.9761743197624" lon="9.109896316543624"><ele>1178.4</ele><time>2026-03-24T17:19:52.999Z</time></trkpt><trkpt lat="45.976261225264395" lon="9.109843757005155"><ele>1172.0</ele><time>2026-03-24T17:19:53.999Z</time></trkpt><trkpt lat="45.976335860218235" lon="9.109784655879515"><ele>1172.0</ele><time>2026-03-24T17:19:54.999Z</time></trkpt><trkpt lat="45.97643373947076" lon="9.109735218093478"><ele>1172.0</ele><time>2026-03-24T17:19:55.999Z</time></trkpt><trkpt lat="45.97647850699542" lon="9.109654685552853"><ele>1172.0</ele><time>2026-03-24T17:19:56.999Z</time></trkpt><trkpt lat="45.97651778452529" lon="9.109547628557957"><ele>1172.0</ele><time>2026-03-24T17:19:57.999Z</time></trkpt><trkpt lat="45.97656944809171" lon="9.109415048984314"><ele>1172.0</ele><time>2026-03-24T17:19:58.999Z</time></trkpt><trkpt lat="45.97660254194169" lon="9.10930259669392"><ele>1172.0</ele><time>2026-03-24T17:19:59.999Z</time></trkpt><trkpt lat="45.9766726323767" lon="9.109160852560551"><ele>1172.0</ele><time>2026-03-24T17:20:00.999Z</time></trkpt><trkpt lat="45.976720863321454" lon="9.109035996258584"><ele>1172.0</ele><time>2026-03-24T17:20:01.999Z</time></trkpt><trkpt lat="45.97679619953912" lon="9.108920228905962"><ele>1172.0</ele><time>2026-03-24T17:20:02.999Z</time></trkpt><trkpt lat="45.97683589276324" lon="9.108768886963137"><ele>1172.0</ele><time>2026-03-24T17:20:03.999Z</time></trkpt><trkpt lat="45.97686896320549" lon="9.108649543805836"><ele>1167.0</ele><time>2026-03-24T17:20:04.999Z</time></trkpt><trkpt lat="45.97690321486982" lon="9.10856841677723"><ele>1162.0</ele><time>2026-03-24T17:20:05.999Z</time></trkpt><trkpt lat="45.97694124215258" lon="9.108472700081867"><ele>1157.0</ele><time>2026-03-24T17:20:07.999Z</time></trkpt><trkpt lat="45.97700798555993" lon="9.108378184597576"><ele>1152.0</ele><time>2026-03-24T17:20:09.999Z</time></trkpt><trkpt lat="45.97705302024371" lon="9.108229806301738"><ele>1147.0</ele><time>2026-03-24T17:20:11.999Z</time></trkpt><trkpt lat="45.97713733006888" lon="9.108117747015484"><ele>1147.0</ele><time>2026-03-24T17:20:13.999Z</time></trkpt><trkpt lat="45.97708422482932" lon="9.108181714509385"><ele>1147.0</ele><time>2026-03-24T17:20:14.999Z</time></trkpt><trkpt lat="45.97714543935615" lon="9.108216922444496"><ele>1147.0</ele><time>2026-03-24T17:20:15.999Z</time></trkpt><trkpt lat="45.97724244302707" lon="9.108213038672618"><ele>1147.0</ele><time>2026-03-24T17:20:17.999Z</time></trkpt><trkpt lat="45.97730363449292" lon="9.10819170889212"><ele>1147.0</ele><time>2026-03-24T17:20:20.999Z</time></trkpt><trkpt lat="45.97740015206171" lon="9.108138892580875"><ele>1147.0</ele><time>2026-03-24T17:20:21.999Z</time></trkpt><trkpt lat="45.97742120749686" lon="9.108047123900715"><ele>1147.0</ele><time>2026-03-24T17:20:23.999Z</time></trkpt><trkpt lat="45.977402554843366" lon="9.107917673499836"><ele>1147.0</ele><time>2026-03-24T17:20:25.999Z</time></trkpt><trkpt lat="45.977442276049175" lon="9.107831482996081"><ele>1147.0</ele><time>2026-03-24T17:20:27.999Z</time></trkpt><trkpt lat="45.97746849432902" lon="9.107717873998597"><ele>1147.0</ele><time>2026-03-24T17:20:29.999Z</time></trkpt><trkpt lat="45.977492442570174" lon="9.107593973801233"><ele>1147.0</ele><time>2026-03-24T17:20:30.999Z</time></trkpt><trkpt lat="45.977558893000385" lon="9.107442581517626"><ele>1139.5</ele><time>2026-03-24T17:20:31.999Z</time></trkpt><trkpt lat="45.977578810659516" lon="9.107296835212596"><ele>1132.0</ele><time>2026-03-24T17:20:32.999Z</time></trkpt><trkpt lat="45.977619561374496" lon="9.107190569443517"><ele>1124.5</ele><time>2026-03-24T17:20:33.999Z</time></trkpt><trkpt lat="45.97763905572822" lon="9.107056545545355"><ele>1117.0</ele><time>2026-03-24T17:20:34.999Z</time></trkpt><trkpt lat="45.97777219710437" lon="9.106879283893877"><ele>1117.0</ele><time>2026-03-24T17:20:35.998Z</time></trkpt><trkpt lat="45.97786246034897" lon="9.106701678829573"><ele>1117.0</ele><time>2026-03-24T17:20:36.998Z</time></trkpt><trkpt lat="45.9779217441558" lon="9.106582237438287"><ele>1117.0</ele><time>2026-03-24T17:20:37.998Z</time></trkpt><trkpt lat="45.97810429296931" lon="9.106435076586994"><ele>1115.3333333333333</ele><time>2026-03-24T17:20:39.998Z</time></trkpt><trkpt lat="45.97819435818986" lon="9.106396795592005"><ele>1113.6666666666665</ele><time>2026-03-24T17:20:40.998Z</time></trkpt><trkpt lat="45.97824888730229" lon="9.10634143800436"><ele>1112.0</ele><time>2026-03-24T17:20:41.998Z</time></trkpt><trkpt lat="45.97833385199501" lon="9.106270414411808"><ele>1110.3333333333333</ele><time>2026-03-24T17:20:43.998Z</time></trkpt><trkpt lat="45.978380251638114" lon="9.106205541139518"><ele>1108.6666666666667</ele><time>2026-03-24T17:20:44.998Z</time></trkpt><trkpt lat="45.97846658964232" lon="9.106191339157023"><ele>1107.0</ele><time>2026-03-24T17:20:46.998Z</time></trkpt><trkpt lat="45.978495780584986" lon="9.106331635315431"><ele>1104.0</ele><time>2026-03-24T17:20:49Z</time></trkpt><trkpt lat="45.97852995270998" lon="9.106491476466648"><ele>1101.0</ele><time>2026-03-24T17:20:51Z</time></trkpt><trkpt lat="45.978581070444264" lon="9.106557922649198"><ele>1098.0</ele><time>2026-03-24T17:20:52Z</time></trkpt><trkpt lat="45.97864049552289" lon="9.10661889578684"><ele>1095.0</ele><time>2026-03-24T17:20:53Z</time></trkpt><trkpt lat="45.97869354206461" lon="9.106668354799563"><ele>1092.0</ele><time>2026-03-24T17:20:54Z</time></trkpt><trkpt lat="45.97870612597557" lon="9.106783129217337"><ele>1089.0</ele><time>2026-03-24T17:20:55Z</time></trkpt><trkpt lat="45.97874519590421" lon="9.10688043049617"><ele>1089.0</ele><time>2026-03-24T17:20:56Z</time></trkpt><trkpt lat="45.97877095686012" lon="9.10696309314686"><ele>1089.0</ele><time>2026-03-24T17:20:57Z</time></trkpt><trkpt lat="45.978805452499856" lon="9.107041946618196"><ele>1089.0</ele><time>2026-03-24T17:20:58Z</time></trkpt><trkpt lat="45.97879661005047" lon="9.107244643556198"><ele>1089.0</ele><time>2026-03-24T17:21:00Z</time></trkpt><trkpt lat="45.97881032958192" lon="9.107344294145575"><ele>1089.0</ele><time>2026-03-24T17:21:01Z</time></trkpt><trkpt lat="45.97884280110945" lon="9.107518684033984"><ele>1088.75</ele><time>2026-03-24T17:21:03Z</time></trkpt><trkpt lat="45.978830155844136" lon="9.107659033481276"><ele>1088.5</ele><time>2026-03-24T17:21:04Z</time></trkpt><trkpt lat="45.9787914925134" lon="9.10791950791917"><ele>1088.25</ele><time>2026-03-24T17:21:06Z</time></trkpt><trkpt lat="45.978755916368655" lon="9.108013281910358"><ele>1088.0</ele><time>2026-03-24T17:21:07Z</time></trkpt><trkpt lat="45.97870672158374" lon="9.10812498328643"><ele>1088.0</ele><time>2026-03-24T17:21:08Z</time></trkpt><trkpt lat="45.97865371255148" lon="9.10829571030051"><ele>1088.0</ele><time>2026-03-24T17:21:10Z</time></trkpt><trkpt lat="45.9786594317696" lon="9.108399736248373"><ele>1088.0</ele><time>2026-03-24T17:21:12Z</time></trkpt><trkpt lat="45.97877865970997" lon="9.10825103908483"><ele>1088.0</ele><time>2026-03-24T17:21:14Z</time></trkpt><trkpt lat="45.9788756670839" lon="9.10814038579444"><ele>1088.0</ele><time>2026-03-24T17:21:15Z</time></trkpt><trkpt lat="45.97899292805784" lon="9.108045802285892"><ele>1088.0</ele><time>2026-03-24T17:21:16Z</time></trkpt><trkpt lat="45.97902841961922" lon="9.107951572371068"><ele>1088.0</ele><time>2026-03-24T17:21:17Z</time></trkpt><trkpt lat="45.979050815000434" lon="9.107864975614731"><ele>1088.0</ele><time>2026-03-24T17:21:18Z</time></trkpt><trkpt lat="45.9791489448706" lon="9.107734055710052"><ele>1088.0</ele><time>2026-03-24T17:21:20Z</time></trkpt><trkpt lat="45.979221381055865" lon="9.107746836894728"><ele>1082.142857142857</ele><time>2026-03-24T17:21:22Z</time></trkpt><trkpt lat="45.979197001518244" lon="9.107867798177267"><ele>1076.2857142857142</ele><time>2026-03-24T17:21:25Z</time></trkpt><trkpt lat="45.97921288620679" lon="9.107956411113173"><ele>1070.4285714285716</ele><time>2026-03-24T17:21:26Z</time></trkpt><trkpt lat="45.97920128688219" lon="9.108052815476237"><ele>1064.5714285714284</ele><time>2026-03-24T17:21:27Z</time></trkpt><trkpt lat="45.97919496791964" lon="9.108156517041678"><ele>1058.7142857142858</ele><time>2026-03-24T17:21:28Z</time></trkpt><trkpt lat="45.979224265946" lon="9.108247388019045"><ele>1052.857142857143</ele><time>2026-03-24T17:21:29Z</time></trkpt><trkpt lat="45.979262972716974" lon="9.108346630929253"><ele>1047.0</ele><time>2026-03-24T17:21:30Z</time></trkpt><trkpt lat="45.97920839847011" lon="9.108656239296922"><ele>1047.8</ele><time>2026-03-24T17:21:32Z</time></trkpt><trkpt lat="45.9791934741811" lon="9.108824793096145"><ele>1048.6</ele><time>2026-03-24T17:21:33Z</time></trkpt><trkpt lat="45.97918122882494" lon="9.108952950565818"><ele>1049.3999999999999</ele><time>2026-03-24T17:21:33.999Z</time></trkpt><trkpt lat="45.979131716597905" lon="9.10907006479906"><ele>1050.2</ele><time>2026-03-24T17:21:34.999Z</time></trkpt><trkpt lat="45.97911344982519" lon="9.109160985479885"><ele>1051.0</ele><time>2026-03-24T17:21:35.999Z</time></trkpt><trkpt lat="45.97907150285058" lon="9.10927366456661"><ele>1051.0</ele><time>2026-03-24T17:21:36.999Z</time></trkpt><trkpt lat="45.97898632707652" lon="9.109474301761578"><ele>1051.0</ele><time>2026-03-24T17:21:38.999Z</time></trkpt><trkpt lat="45.97893250293616" lon="9.109561399294272"><ele>1051.0</ele><time>2026-03-24T17:21:39.999Z</time></trkpt><trkpt lat="45.9788644649562" lon="9.109626566052203"><ele>1051.0</ele><time>2026-03-24T17:21:41.999Z</time></trkpt><trkpt lat="45.97884100564843" lon="9.109758228227632"><ele>1051.0</ele><time>2026-03-24T17:21:42.999Z</time></trkpt><trkpt lat="45.97890631372065" lon="9.10984594097122"><ele>1051.0</ele><time>2026-03-24T17:21:44.999Z</time></trkpt><trkpt lat="45.97897660918833" lon="9.109705917951029"><ele>1051.0</ele><time>2026-03-24T17:21:46.999Z</time></trkpt><trkpt lat="45.979046133266" lon="9.109647222723272"><ele>1051.0</ele><time>2026-03-24T17:21:47.999Z</time></trkpt><trkpt lat="45.97916218696518" lon="9.109604470244586"><ele>1051.0</ele><time>2026-03-24T17:21:49.999Z</time></trkpt><trkpt lat="45.979264561781534" lon="9.109583861163758"><ele>1051.0</ele><time>2026-03-24T17:21:50.999Z</time></trkpt><trkpt lat="45.97938814257643" lon="9.109528867890193"><ele>1046.25</ele><time>2026-03-24T17:21:52.999Z</time></trkpt><trkpt lat="45.97945803407474" lon="9.109409710457065"><ele>1041.5</ele><time>2026-03-24T17:21:53.999Z</time></trkpt><trkpt lat="45.97950420738028" lon="9.109226203864303"><ele>1036.75</ele><time>2026-03-24T17:21:54.999Z</time></trkpt><trkpt lat="45.979592492520204" lon="9.109070281088922"><ele>1032.0</ele><time>2026-03-24T17:21:55.999Z</time></trkpt><trkpt lat="45.97967818140357" lon="9.108944928383133"><ele>1032.0</ele><time>2026-03-24T17:21:56.999Z</time></trkpt><trkpt lat="45.9797716766434" lon="9.10884656904159"><ele>1032.0</ele><time>2026-03-24T17:21:57.999Z</time></trkpt><trkpt lat="45.97984630635006" lon="9.108729235498965"><ele>1032.0</ele><time>2026-03-24T17:21:58.999Z</time></trkpt><trkpt lat="45.97992361913217" lon="9.108598910733095"><ele>1032.0</ele><time>2026-03-24T17:21:59.999Z</time></trkpt><trkpt lat="45.97999867751784" lon="9.108458527604315"><ele>1028.8</ele><time>2026-03-24T17:22:00.999Z</time></trkpt><trkpt lat="45.98006353997166" lon="9.108324579316754"><ele>1025.6</ele><time>2026-03-24T17:22:01.999Z</time></trkpt><trkpt lat="45.980124527779765" lon="9.108180058771326"><ele>1022.3999999999999</ele><time>2026-03-24T17:22:02.999Z</time></trkpt><trkpt lat="45.980198372356426" lon="9.108081039774182"><ele>1019.1999999999999</ele><time>2026-03-24T17:22:03.999Z</time></trkpt><trkpt lat="45.98027553085643" lon="9.1079894323304"><ele>1016.0</ele><time>2026-03-24T17:22:04.999Z</time></trkpt><trkpt lat="45.980328640039275" lon="9.10793747353501"><ele>1014.3333333333334</ele><time>2026-03-24T17:22:05.999Z</time></trkpt><trkpt lat="45.98035121105875" lon="9.107828235445053"><ele>1012.6666666666667</ele><time>2026-03-24T17:22:06.999Z</time></trkpt><trkpt lat="45.980397370197075" lon="9.107701613122115"><ele>1011.0</ele><time>2026-03-24T17:22:07.999Z</time></trkpt><trkpt lat="45.980462212627536" lon="9.107560330846637"><ele>1009.3333333333333</ele><time>2026-03-24T17:22:08.999Z</time></trkpt><trkpt lat="45.98049499046267" lon="9.107468996823776"><ele>1007.6666666666666</ele><time>2026-03-24T17:22:09.999Z</time></trkpt><trkpt lat="45.980532043918814" lon="9.107370373756218"><ele>1006.0</ele><time>2026-03-24T17:22:10.999Z</time></trkpt><trkpt lat="45.98052788611461" lon="9.107279569513832"><ele>1006.0</ele><time>2026-03-24T17:22:11.999Z</time></trkpt><trkpt lat="45.98047291813317" lon="9.107134410183598"><ele>1005.9999999999999</ele><time>2026-03-24T17:22:13.999Z</time></trkpt><trkpt lat="45.9803799670575" lon="9.107033695539597"><ele>1005.9999999999999</ele><time>2026-03-24T17:22:15.999Z</time></trkpt><trkpt lat="45.98036602524681" lon="9.106940075909403"><ele>1006.0</ele><time>2026-03-24T17:22:17.999Z</time></trkpt><trkpt lat="45.98043531290301" lon="9.106890530239536"><ele>1006.0</ele><time>2026-03-24T17:22:18.999Z</time></trkpt><trkpt lat="45.98056365149227" lon="9.106820102885726"><ele>1006.0</ele><time>2026-03-24T17:22:19.999Z</time></trkpt><trkpt lat="45.98064482641896" lon="9.106749676059733"><ele>1005.9999999999999</ele><time>2026-03-24T17:22:21.999Z</time></trkpt><trkpt lat="45.98068605197709" lon="9.10665022210997"><ele>1005.9999999999999</ele><time>2026-03-24T17:22:22.999Z</time></trkpt><trkpt lat="45.98072411057761" lon="9.106530277096093"><ele>1006.0</ele><time>2026-03-24T17:22:23.999Z</time></trkpt><trkpt lat="45.98074996579786" lon="9.106386128062374"><ele>1006.0</ele><time>2026-03-24T17:22:24.999Z</time></trkpt><trkpt lat="45.98074238638996" lon="9.106228933010083"><ele>1006.3333333333333</ele><time>2026-03-24T17:22:25.999Z</time></trkpt><trkpt lat="45.980755565171016" lon="9.106109156747376"><ele>1006.6666666666666</ele><time>2026-03-24T17:22:26.999Z</time></trkpt><trkpt lat="45.98077692310146" lon="9.106003930457348"><ele>1007.0</ele><time>2026-03-24T17:22:27.999Z</time></trkpt><trkpt lat="45.980797447863495" lon="9.105875058962988"><ele>1007.3333333333333</ele><time>2026-03-24T17:22:28.999Z</time></trkpt><trkpt lat="45.98082912826691" lon="9.10575825262084"><ele>1007.6666666666666</ele><time>2026-03-24T17:22:29.999Z</time></trkpt><trkpt lat="45.980870447740784" lon="9.105654891808724"><ele>1008.0</ele><time>2026-03-24T17:22:30.999Z</time></trkpt><trkpt lat="45.98092857788194" lon="9.105482556187068"><ele>1000.2</ele><time>2026-03-24T17:22:32.999Z</time></trkpt><trkpt lat="45.98100504271815" lon="9.10540384409353"><ele>992.4</ele><time>2026-03-24T17:22:34.999Z</time></trkpt><trkpt lat="45.98108047741796" lon="9.105305623945199"><ele>984.6000000000001</ele><time>2026-03-24T17:22:36.999Z</time></trkpt><trkpt lat="45.9811446415018" lon="9.105195462414416"><ele>976.8000000000001</ele><time>2026-03-24T17:22:37.999Z</time></trkpt><trkpt lat="45.98121351630579" lon="9.105112699686389"><ele>969.0</ele><time>2026-03-24T17:22:38.999Z</time></trkpt><trkpt lat="45.98127023776866" lon="9.105015481886232"><ele>969.0</ele><time>2026-03-24T17:22:39.999Z</time></trkpt><trkpt lat="45.9813119850575" lon="9.104938172976377"><ele>969.0</ele><time>2026-03-24T17:22:40.998Z</time></trkpt><trkpt lat="45.98131046884457" lon="9.104802137801876"><ele>969.0</ele><time>2026-03-24T17:22:41.998Z</time></trkpt><trkpt lat="45.98130486997823" lon="9.104662221251115"><ele>969.0</ele><time>2026-03-24T17:22:42.998Z</time></trkpt><trkpt lat="45.98132357493019" lon="9.104552699081351"><ele>969.0</ele><time>2026-03-24T17:22:43.998Z</time></trkpt><trkpt lat="45.981319647370796" lon="9.104416752525628"><ele>969.0</ele><time>2026-03-24T17:22:44.998Z</time></trkpt><trkpt lat="45.981269180192236" lon="9.104262194069186"><ele>968.5</ele><time>2026-03-24T17:22:45.998Z</time></trkpt><trkpt lat="45.981287577249745" lon="9.104123258696053"><ele>968.0</ele><time>2026-03-24T17:22:46.998Z</time></trkpt><trkpt lat="45.9812695076124" lon="9.104010404790378"><ele>967.5</ele><time>2026-03-24T17:22:47.998Z</time></trkpt><trkpt lat="45.98126571241971" lon="9.103886602825156"><ele>967.0</ele><time>2026-03-24T17:22:49.998Z</time></trkpt><trkpt lat="45.981264492324144" lon="9.103769692607779"><ele>966.5</ele><time>2026-03-24T17:22:50.998Z</time></trkpt><trkpt lat="45.98124239584744" lon="9.10367744085623"><ele>966.0</ele><time>2026-03-24T17:22:51.998Z</time></trkpt><trkpt lat="45.98124736223609" lon="9.103551173190294"><ele>964.0</ele><time>2026-03-24T17:22:52.998Z</time></trkpt><trkpt lat="45.98120335936153" lon="9.10343742875724"><ele>961.9999999999999</ele><time>2026-03-24T17:22:54Z</time></trkpt><trkpt lat="45.98115917808826" lon="9.103285409318728"><ele>959.9999999999999</ele><time>2026-03-24T17:22:56Z</time></trkpt><trkpt lat="45.98109503383918" lon="9.103186398831324"><ele>958.0</ele><time>2026-03-24T17:22:57Z</time></trkpt><trkpt lat="45.980996266820135" lon="9.103095057446378"><ele>956.0</ele><time>2026-03-24T17:22:58Z</time></trkpt><trkpt lat="45.98090676232157" lon="9.102984501715587"><ele>954.8</ele><time>2026-03-24T17:22:59Z</time></trkpt><trkpt lat="45.98082118040333" lon="9.102913084757299"><ele>953.5999999999999</ele><time>2026-03-24T17:23:00Z</time></trkpt><trkpt lat="45.98073437812553" lon="9.102851040107636"><ele>952.4</ele><time>2026-03-24T17:23:01Z</time></trkpt><trkpt lat="45.980638233234366" lon="9.102792346495406"><ele>951.2</ele><time>2026-03-24T17:23:02Z</time></trkpt><trkpt lat="45.98057694315729" lon="9.10271579681461"><ele>950.0</ele><time>2026-03-24T17:23:03Z</time></trkpt><trkpt lat="45.980506357237054" lon="9.102643100799188"><ele>950.0</ele><time>2026-03-24T17:23:04Z</time></trkpt><trkpt lat="45.98043673485968" lon="9.102599893681717"><ele>950.0</ele><time>2026-03-24T17:23:05Z</time></trkpt><trkpt lat="45.980355384372636" lon="9.102490212539216"><ele>950.0</ele><time>2026-03-24T17:23:06Z</time></trkpt><trkpt lat="45.98027255726938" lon="9.102445848019537"><ele>950.0</ele><time>2026-03-24T17:23:07Z</time></trkpt><trkpt lat="45.980183593787686" lon="9.102385295146114"><ele>950.0</ele><time>2026-03-24T17:23:08Z</time></trkpt><trkpt lat="45.980112247960555" lon="9.102328234348766"><ele>942.6</ele><time>2026-03-24T17:23:09Z</time></trkpt><trkpt lat="45.97997820338489" lon="9.102237256431316"><ele>935.2</ele><time>2026-03-24T17:23:11Z</time></trkpt><trkpt lat="45.97990973446935" lon="9.102235261348955"><ele>927.8</ele><time>2026-03-24T17:23:13Z</time></trkpt><trkpt lat="45.97980743386281" lon="9.10223153237475"><ele>920.4</ele><time>2026-03-24T17:23:14Z</time></trkpt><trkpt lat="45.97969165269418" lon="9.10221002881981"><ele>913.0</ele><time>2026-03-24T17:23:15Z</time></trkpt><trkpt lat="45.97959031155584" lon="9.102238847684282"><ele>913.0</ele><time>2026-03-24T17:23:16Z</time></trkpt><trkpt lat="45.97950025048489" lon="9.102281018518815"><ele>913.0</ele><time>2026-03-24T17:23:17Z</time></trkpt><trkpt lat="45.979347087093544" lon="9.102314962560989"><ele>913.0</ele><time>2026-03-24T17:23:18Z</time></trkpt><trkpt lat="45.979227697822395" lon="9.102319191549219"><ele>913.0</ele><time>2026-03-24T17:23:19Z</time></trkpt><trkpt lat="45.97909539093702" lon="9.102287442845684"><ele>911.5</ele><time>2026-03-24T17:23:20Z</time></trkpt><trkpt lat="45.97898487039042" lon="9.102270974298976"><ele>910.0</ele><time>2026-03-24T17:23:21Z</time></trkpt><trkpt lat="45.97888546599846" lon="9.102241664364945"><ele>908.5</ele><time>2026-03-24T17:23:22Z</time></trkpt><trkpt lat="45.978776889076194" lon="9.10220222602078"><ele>907.0</ele><time>2026-03-24T17:23:23Z</time></trkpt><trkpt lat="45.9786502408998" lon="9.10216392693072"><ele>907.0</ele><time>2026-03-24T17:23:24Z</time></trkpt><trkpt lat="45.978519895198886" lon="9.102090129752751"><ele>907.0</ele><time>2026-03-24T17:23:25Z</time></trkpt><trkpt lat="45.978412681098995" lon="9.102068017197764"><ele>907.0</ele><time>2026-03-24T17:23:26Z</time></trkpt><trkpt lat="45.97829017009068" lon="9.10201590483035"><ele>907.0</ele><time>2026-03-24T17:23:27Z</time></trkpt><trkpt lat="45.9781863302414" lon="9.101964150031403"><ele>909.3333333333333</ele><time>2026-03-24T17:23:28Z</time></trkpt><trkpt lat="45.97811435905592" lon="9.101917086415588"><ele>911.6666666666666</ele><time>2026-03-24T17:23:29Z</time></trkpt><trkpt lat="45.978027163657664" lon="9.10187133350175"><ele>914.0</ele><time>2026-03-24T17:23:30Z</time></trkpt><trkpt lat="45.97793740730115" lon="9.101837560856923"><ele>916.3333333333333</ele><time>2026-03-24T17:23:31Z</time></trkpt><trkpt lat="45.977859117726794" lon="9.101814818553853"><ele>918.6666666666666</ele><time>2026-03-24T17:23:32Z</time></trkpt><trkpt lat="45.97779311452652" lon="9.101815656376525"><ele>921.0</ele><time>2026-03-24T17:23:33Z</time></trkpt><trkpt lat="45.97773120835115" lon="9.10177215233608"><ele>921.0</ele><time>2026-03-24T17:23:35Z</time></trkpt><trkpt lat="45.97773538924859" lon="9.101609963199556"><ele>920.9999999999999</ele><time>2026-03-24T17:23:37Z</time></trkpt><trkpt lat="45.97777359357487" lon="9.101512445136981"><ele>920.9999999999999</ele><time>2026-03-24T17:23:38Z</time></trkpt><trkpt lat="45.97781027725972" lon="9.101400446213002"><ele>921.0</ele><time>2026-03-24T17:23:39Z</time></trkpt><trkpt lat="45.97780413282896" lon="9.101273664460292"><ele>921.0</ele><time>2026-03-24T17:23:40Z</time></trkpt><trkpt lat="45.97783413431128" lon="9.101105511873543"><ele>920.4</ele><time>2026-03-24T17:23:41.999Z</time></trkpt><trkpt lat="45.97788260049412" lon="9.101024540669908"><ele>919.8</ele><time>2026-03-24T17:23:42.999Z</time></trkpt><trkpt lat="45.9779762974433" lon="9.100952547381299"><ele>919.1999999999999</ele><time>2026-03-24T17:23:43.999Z</time></trkpt><trkpt lat="45.97800359695363" lon="9.100808834794424"><ele>918.5999999999999</ele><time>2026-03-24T17:23:45.999Z</time></trkpt><trkpt lat="45.9780124818994" lon="9.100685130133416"><ele>918.0</ele><time>2026-03-24T17:23:46.999Z</time></trkpt><trkpt lat="45.978028993988296" lon="9.100565543331825"><ele>914.0</ele><time>2026-03-24T17:23:47.999Z</time></trkpt><trkpt lat="45.97807850510652" lon="9.10049913544747"><ele>910.0</ele><time>2026-03-24T17:23:48.999Z</time></trkpt><trkpt lat="45.97815442835749" lon="9.100414249425274"><ele>906.0</ele><time>2026-03-24T17:23:49.999Z</time></trkpt><trkpt lat="45.978242547973146" lon="9.100351767990393"><ele>902.0</ele><time>2026-03-24T17:23:50.999Z</time></trkpt><trkpt lat="45.97837663671902" lon="9.100282988115119"><ele>898.0</ele><time>2026-03-24T17:23:51.999Z</time></trkpt><trkpt lat="45.97844751124939" lon="9.100209070329685"><ele>898.0</ele><time>2026-03-24T17:23:52.999Z</time></trkpt><trkpt lat="45.97852318214227" lon="9.100135647248871"><ele>898.0</ele><time>2026-03-24T17:23:53.999Z</time></trkpt><trkpt lat="45.97859719823693" lon="9.100059852685895"><ele>898.0</ele><time>2026-03-24T17:23:54.999Z</time></trkpt><trkpt lat="45.97870780819364" lon="9.09996526733739"><ele>898.0</ele><time>2026-03-24T17:23:56.999Z</time></trkpt><trkpt lat="45.97874404982273" lon="9.09985888828526"><ele>898.0</ele><time>2026-03-24T17:23:57.999Z</time></trkpt><trkpt lat="45.97879395116701" lon="9.099758700202726"><ele>894.2</ele><time>2026-03-24T17:23:58.999Z</time></trkpt><trkpt lat="45.978842326121026" lon="9.099662161554573"><ele>890.4</ele><time>2026-03-24T17:23:59.999Z</time></trkpt><trkpt lat="45.97893465379389" lon="9.099567378227453"><ele>886.6000000000001</ele><time>2026-03-24T17:24:01.999Z</time></trkpt><trkpt lat="45.97904348251707" lon="9.099513540483299"><ele>882.8000000000001</ele><time>2026-03-24T17:24:02.999Z</time></trkpt><trkpt lat="45.97911513693112" lon="9.09949487334674"><ele>879.0</ele><time>2026-03-24T17:24:03.999Z</time></trkpt><trkpt lat="45.97919073340232" lon="9.099415358547622"><ele>879.0</ele><time>2026-03-24T17:24:04.999Z</time></trkpt><trkpt lat="45.97928276066194" lon="9.099301596502324"><ele>879.0000000000001</ele><time>2026-03-24T17:24:05.999Z</time></trkpt><trkpt lat="45.97934972758118" lon="9.099186078402392"><ele>879.0000000000001</ele><time>2026-03-24T17:24:06.999Z</time></trkpt><trkpt lat="45.979421891986426" lon="9.09908079544412"><ele>879.0</ele><time>2026-03-24T17:24:07.999Z</time></trkpt><trkpt lat="45.979499008453644" lon="9.098972807863877"><ele>879.0</ele><time>2026-03-24T17:24:08.999Z</time></trkpt><trkpt lat="45.97960317653168" lon="9.098858793453312"><ele>884.2</ele><time>2026-03-24T17:24:09.999Z</time></trkpt><trkpt lat="45.979660217929286" lon="9.098734359043629"><ele>889.4000000000001</ele><time>2026-03-24T17:24:10.999Z</time></trkpt><trkpt lat="45.97973152130667" lon="9.09858320970531"><ele>894.6</ele><time>2026-03-24T17:24:11.999Z</time></trkpt><trkpt lat="45.9797926207413" lon="9.098495062782627"><ele>899.8</ele><time>2026-03-24T17:24:12.999Z</time></trkpt><trkpt lat="45.97981759132137" lon="9.098365738952333"><ele>905.0</ele><time>2026-03-24T17:24:13.999Z</time></trkpt><trkpt lat="45.97988685607607" lon="9.098197267600568"><ele>908.25</ele><time>2026-03-24T17:24:14.999Z</time></trkpt><trkpt lat="45.979963471086194" lon="9.098063684400461"><ele>911.5</ele><time>2026-03-24T17:24:15.999Z</time></trkpt><trkpt lat="45.98003268281204" lon="9.097922877050953"><ele>914.75</ele><time>2026-03-24T17:24:16.999Z</time></trkpt><trkpt lat="45.980131062199845" lon="9.097767786123498"><ele>918.0</ele><time>2026-03-24T17:24:17.999Z</time></trkpt><trkpt lat="45.98025149362307" lon="9.097627956873511"><ele>913.0</ele><time>2026-03-24T17:24:18.999Z</time></trkpt><trkpt lat="45.98031788608683" lon="9.09749064285612"><ele>908.0</ele><time>2026-03-24T17:24:19.999Z</time></trkpt><trkpt lat="45.980387716355374" lon="9.097398667184734"><ele>903.0</ele><time>2026-03-24T17:24:20.999Z</time></trkpt><trkpt lat="45.980441329825204" lon="9.09731471012435"><ele>898.0</ele><time>2026-03-24T17:24:21.999Z</time></trkpt><trkpt lat="45.98046658101354" lon="9.097209743350446"><ele>893.0</ele><time>2026-03-24T17:24:22.999Z</time></trkpt><trkpt lat="45.98049034666932" lon="9.097112164560341"><ele>888.0</ele><time>2026-03-24T17:24:23.999Z</time></trkpt><trkpt lat="45.980535414396876" lon="9.096976000775594"><ele>888.0</ele><time>2026-03-24T17:24:24.999Z</time></trkpt><trkpt lat="45.98054444578947" lon="9.096833278509644"><ele>888.0</ele><time>2026-03-24T17:24:25.999Z</time></trkpt><trkpt lat="45.980546714932544" lon="9.096653309229513"><ele>888.0</ele><time>2026-03-24T17:24:26.999Z</time></trkpt><trkpt lat="45.980555488072625" lon="9.096493094542563"><ele>888.0</ele><time>2026-03-24T17:24:27.999Z</time></trkpt><trkpt lat="45.98056806359778" lon="9.096315142186997"><ele>886.8333333333334</ele><time>2026-03-24T17:24:28.999Z</time></trkpt><trkpt lat="45.98054307863937" lon="9.096154935727245"><ele>885.6666666666667</ele><time>2026-03-24T17:24:29.999Z</time></trkpt><trkpt lat="45.98057047251776" lon="9.096000350604047"><ele>884.5</ele><time>2026-03-24T17:24:30.999Z</time></trkpt><trkpt lat="45.980570862532566" lon="9.09590722107191"><ele>883.3333333333334</ele><time>2026-03-24T17:24:31.999Z</time></trkpt><trkpt lat="45.9805804982101" lon="9.095810141507693"><ele>882.1666666666667</ele><time>2026-03-24T17:24:32.999Z</time></trkpt><trkpt lat="45.98053892000263" lon="9.095706108097055"><ele>881.0</ele><time>2026-03-24T17:24:33.999Z</time></trkpt><trkpt lat="45.980517485340776" lon="9.095541463855835"><ele>875.25</ele><time>2026-03-24T17:24:34.999Z</time></trkpt><trkpt lat="45.98039389134015" lon="9.095424192354232"><ele>869.5</ele><time>2026-03-24T17:24:35.999Z</time></trkpt><trkpt lat="45.98031074521231" lon="9.095270440632866"><ele>863.75</ele><time>2026-03-24T17:24:36.999Z</time></trkpt><trkpt lat="45.980271559921526" lon="9.0951259264609"><ele>858.0</ele><time>2026-03-24T17:24:37.999Z</time></trkpt><trkpt lat="45.98022860708049" lon="9.094983541171837"><ele>852.0</ele><time>2026-03-24T17:24:38.999Z</time></trkpt><trkpt lat="45.980190313060625" lon="9.094822204138621"><ele>846.0</ele><time>2026-03-24T17:24:39.999Z</time></trkpt><trkpt lat="45.98014931774739" lon="9.094700747757182"><ele>840.0</ele><time>2026-03-24T17:24:40.999Z</time></trkpt><trkpt lat="45.98013639072214" lon="9.094587551844047"><ele>834.0</ele><time>2026-03-24T17:24:41.999Z</time></trkpt><trkpt lat="45.98012019968943" lon="9.094452958432306"><ele>828.0</ele><time>2026-03-24T17:24:42.999Z</time></trkpt><trkpt lat="45.98005211074057" lon="9.094329088185605"><ele>835.75</ele><time>2026-03-24T17:24:43.999Z</time></trkpt><trkpt lat="45.97999479446582" lon="9.094176923249615"><ele>843.5</ele><time>2026-03-24T17:24:44.999Z</time></trkpt><trkpt lat="45.97993961803253" lon="9.094039839488756"><ele>851.25</ele><time>2026-03-24T17:24:45.999Z</time></trkpt><trkpt lat="45.979871434232734" lon="9.093925381022798"><ele>859.0</ele><time>2026-03-24T17:24:46.999Z</time></trkpt><trkpt lat="45.97982047550295" lon="9.093761648130855"><ele>859.0</ele><time>2026-03-24T17:24:47.999Z</time></trkpt><trkpt lat="45.979796168276046" lon="9.093623496184808"><ele>859.0000000000001</ele><time>2026-03-24T17:24:48.999Z</time></trkpt><trkpt lat="45.97978881218865" lon="9.093439688594708"><ele>859.0000000000001</ele><time>2026-03-24T17:24:49.998Z</time></trkpt><trkpt lat="45.979784900855485" lon="9.093245658992657"><ele>859.0</ele><time>2026-03-24T17:24:50.998Z</time></trkpt><trkpt lat="45.97977153352811" lon="9.093127375105345"><ele>859.0</ele><time>2026-03-24T17:24:51.998Z</time></trkpt><trkpt lat="45.97972464467993" lon="9.092965173019438"><ele>857.8000000000001</ele><time>2026-03-24T17:24:53.998Z</time></trkpt><trkpt lat="45.97963892035428" lon="9.092836997890455"><ele>856.6000000000001</ele><time>2026-03-24T17:24:54.998Z</time></trkpt><trkpt lat="45.97954296479809" lon="9.092716783010417"><ele>855.4</ele><time>2026-03-24T17:24:55.998Z</time></trkpt><trkpt lat="45.97952228464972" lon="9.092581315017037"><ele>854.2</ele><time>2026-03-24T17:24:56.998Z</time></trkpt><trkpt lat="45.97950337821845" lon="9.092467875222653"><ele>853.0</ele><time>2026-03-24T17:24:57.998Z</time></trkpt><trkpt lat="45.97948507696572" lon="9.092327123007239"><ele>855.9999999999999</ele><time>2026-03-24T17:24:58.998Z</time></trkpt><trkpt lat="45.97945564478028" lon="9.09223430347773"><ele>859.0</ele><time>2026-03-24T17:25:00Z</time></trkpt><trkpt lat="45.97941427798344" lon="9.092152496604148"><ele>862.0</ele><time>2026-03-24T17:25:01Z</time></trkpt><trkpt lat="45.97935803930156" lon="9.092061805376188"><ele>865.0</ele><time>2026-03-24T17:25:02Z</time></trkpt><trkpt lat="45.97929976972215" lon="9.09196656739971"><ele>867.9999999999999</ele><time>2026-03-24T17:25:03Z</time></trkpt><trkpt lat="45.97924553139894" lon="9.091892251879955"><ele>871.0</ele><time>2026-03-24T17:25:04Z</time></trkpt><trkpt lat="45.97921360862712" lon="9.091810520930126"><ele>870.9999999999999</ele><time>2026-03-24T17:25:05Z</time></trkpt><trkpt lat="45.97919895523039" lon="9.091687277486967"><ele>871.0</ele><time>2026-03-24T17:25:07Z</time></trkpt><trkpt lat="45.979266651118046" lon="9.09165460173116"><ele>871.0</ele><time>2026-03-24T17:25:09Z</time></trkpt><trkpt lat="45.979341006531556" lon="9.091654962535083"><ele>871.0</ele><time>2026-03-24T17:25:10Z</time></trkpt><trkpt lat="45.979440835175275" lon="9.091713346436315"><ele>870.9999999999999</ele><time>2026-03-24T17:25:11Z</time></trkpt><trkpt lat="45.97952182616929" lon="9.091735144825254"><ele>871.0</ele><time>2026-03-24T17:25:12Z</time></trkpt><trkpt lat="45.979597893174024" lon="9.091727586422765"><ele>871.0</ele><time>2026-03-24T17:25:13Z</time></trkpt><trkpt lat="45.97970053760757" lon="9.09164118761018"><ele>871.0</ele><time>2026-03-24T17:25:15Z</time></trkpt><trkpt lat="45.97979295307955" lon="9.091536067793927"><ele>871.0</ele><time>2026-03-24T17:25:17Z</time></trkpt><trkpt lat="45.979889174072966" lon="9.091551099876186"><ele>871.0</ele><time>2026-03-24T17:25:18Z</time></trkpt><trkpt lat="45.980059296384034" lon="9.09157190802524"><ele>866.0</ele><time>2026-03-24T17:25:19Z</time></trkpt><trkpt lat="45.98020863608659" lon="9.09159709871916"><ele>861.0</ele><time>2026-03-24T17:25:20Z</time></trkpt><trkpt lat="45.980339093850425" lon="9.0916426640512"><ele>856.0</ele><time>2026-03-24T17:25:21Z</time></trkpt><trkpt lat="45.98045852094448" lon="9.09165468883546"><ele>851.0</ele><time>2026-03-24T17:25:22Z</time></trkpt><trkpt lat="45.98058457083638" lon="9.09168408847494"><ele>851.0</ele><time>2026-03-24T17:25:23Z</time></trkpt><trkpt lat="45.98070980125921" lon="9.091763387364766"><ele>851.0</ele><time>2026-03-24T17:25:25Z</time></trkpt><trkpt lat="45.98078098329823" lon="9.091794397408519"><ele>851.0</ele><time>2026-03-24T17:25:26Z</time></trkpt><trkpt lat="45.98085160775653" lon="9.091779065058937"><ele>851.0</ele><time>2026-03-24T17:25:27Z</time></trkpt><trkpt lat="45.98094694606522" lon="9.09171449719362"><ele>851.0</ele><time>2026-03-24T17:25:28Z</time></trkpt><trkpt lat="45.98100996443199" lon="9.091632751793432"><ele>845.5999999999999</ele><time>2026-03-24T17:25:29Z</time></trkpt><trkpt lat="45.98105214078212" lon="9.091489157836941"><ele>840.2</ele><time>2026-03-24T17:25:30Z</time></trkpt><trkpt lat="45.98106963460673" lon="9.091334264077686"><ele>834.8</ele><time>2026-03-24T17:25:31Z</time></trkpt><trkpt lat="45.981133150845466" lon="9.091223647885531"><ele>829.4000000000001</ele><time>2026-03-24T17:25:32Z</time></trkpt><trkpt lat="45.981206256762945" lon="9.09110647498942"><ele>824.0</ele><time>2026-03-24T17:25:33Z</time></trkpt><trkpt lat="45.98125925821403" lon="9.090996812634781"><ele>824.0</ele><time>2026-03-24T17:25:34Z</time></trkpt><trkpt lat="45.981289984409266" lon="9.090909093563935"><ele>824.0</ele><time>2026-03-24T17:25:35Z</time></trkpt><trkpt lat="45.98130637283833" lon="9.090736215786526"><ele>824.0</ele><time>2026-03-24T17:25:37Z</time></trkpt><trkpt lat="45.98131484842525" lon="9.090581831395996"><ele>824.0</ele><time>2026-03-24T17:25:38Z</time></trkpt><trkpt lat="45.98131252507467" lon="9.090392863553372"><ele>824.0</ele><time>2026-03-24T17:25:39Z</time></trkpt><trkpt lat="45.98129293624825" lon="9.090169265699648"><ele>826.6666666666667</ele><time>2026-03-24T17:25:40Z</time></trkpt><trkpt lat="45.981252311462384" lon="9.089875937424264"><ele>829.3333333333333</ele><time>2026-03-24T17:25:41Z</time></trkpt><trkpt lat="45.98120691011757" lon="9.089578700235982"><ele>832.0</ele><time>2026-03-24T17:25:42Z</time></trkpt><trkpt lat="45.98117376502293" lon="9.089338475715817"><ele>832.0</ele><time>2026-03-24T17:25:43Z</time></trkpt><trkpt lat="45.98114604993254" lon="9.089158567486885"><ele>832.0</ele><time>2026-03-24T17:25:44Z</time></trkpt><trkpt lat="45.98112705021446" lon="9.089036973839692"><ele>832.0</ele><time>2026-03-24T17:25:45Z</time></trkpt><trkpt lat="45.981080178468055" lon="9.08889633993918"><ele>832.0</ele><time>2026-03-24T17:25:46Z</time></trkpt><trkpt lat="45.981040343246434" lon="9.088688573350066"><ele>831.2</ele><time>2026-03-24T17:25:46.999Z</time></trkpt><trkpt lat="45.980959389029536" lon="9.088538370595181"><ele>830.4000000000001</ele><time>2026-03-24T17:25:47.999Z</time></trkpt><trkpt lat="45.980906798626606" lon="9.088421683264682"><ele>829.5999999999999</ele><time>2026-03-24T17:25:48.999Z</time></trkpt><trkpt lat="45.980858045145176" lon="9.088284490269487"><ele>828.8</ele><time>2026-03-24T17:25:50.999Z</time></trkpt><trkpt lat="45.980850448834765" lon="9.088129469744247"><ele>828.0</ele><time>2026-03-24T17:25:51.999Z</time></trkpt><trkpt lat="45.98085491797111" lon="9.088005476218115"><ele>828.0</ele><time>2026-03-24T17:25:52.999Z</time></trkpt><trkpt lat="45.980850832649345" lon="9.087885366120041"><ele>828.0</ele><time>2026-03-24T17:25:53.999Z</time></trkpt><trkpt lat="45.98086157388773" lon="9.08774594890495"><ele>828.0</ele><time>2026-03-24T17:25:54.999Z</time></trkpt><trkpt lat="45.98083913092331" lon="9.087593087697092"><ele>828.0</ele><time>2026-03-24T17:25:55.999Z</time></trkpt><trkpt lat="45.98088182603826" lon="9.087427419711917"><ele>828.0</ele><time>2026-03-24T17:25:56.999Z</time></trkpt><trkpt lat="45.98087738464406" lon="9.087296077520667"><ele>828.75</ele><time>2026-03-24T17:25:57.999Z</time></trkpt><trkpt lat="45.980877127088235" lon="9.08712001513088"><ele>829.5</ele><time>2026-03-24T17:25:58.999Z</time></trkpt><trkpt lat="45.9808996302913" lon="9.086896719247052"><ele>830.25</ele><time>2026-03-24T17:25:59.999Z</time></trkpt><trkpt lat="45.980902268603366" lon="9.086743634079589"><ele>831.0</ele><time>2026-03-24T17:26:00.999Z</time></trkpt><trkpt lat="45.980930882565865" lon="9.086584097438589"><ele>831.0</ele><time>2026-03-24T17:26:01.999Z</time></trkpt><trkpt lat="45.98094548138436" lon="9.086426194202685"><ele>831.0</ele><time>2026-03-24T17:26:02.999Z</time></trkpt><trkpt lat="45.980976219133126" lon="9.086200903807189"><ele>831.0</ele><time>2026-03-24T17:26:03.999Z</time></trkpt><trkpt lat="45.98103444700055" lon="9.085991124872576"><ele>831.0</ele><time>2026-03-24T17:26:04.999Z</time></trkpt><trkpt lat="45.98107651363769" lon="9.085797513614907"><ele>831.5999999999999</ele><time>2026-03-24T17:26:05.999Z</time></trkpt><trkpt lat="45.981150326354545" lon="9.085645592297512"><ele>832.2</ele><time>2026-03-24T17:26:06.999Z</time></trkpt><trkpt lat="45.9811825262007" lon="9.085512519839904"><ele>832.8</ele><time>2026-03-24T17:26:07.999Z</time></trkpt><trkpt lat="45.981200240368636" lon="9.085374485373487"><ele>833.4000000000001</ele><time>2026-03-24T17:26:08.999Z</time></trkpt><trkpt lat="45.9811626780836" lon="9.085225247026115"><ele>834.0</ele><time>2026-03-24T17:26:09.999Z</time></trkpt><trkpt lat="45.981157697038554" lon="9.085041772459038"><ele>833.75</ele><time>2026-03-24T17:26:10.999Z</time></trkpt><trkpt lat="45.98114678814647" lon="9.084849823999416"><ele>833.5</ele><time>2026-03-24T17:26:11.999Z</time></trkpt><trkpt lat="45.98115085964234" lon="9.084630547017163"><ele>833.25</ele><time>2026-03-24T17:26:12.999Z</time></trkpt><trkpt lat="45.98112693904474" lon="9.084441699142353"><ele>833.0</ele><time>2026-03-24T17:26:13.999Z</time></trkpt><trkpt lat="45.98109496083913" lon="9.08429904129858"><ele>833.0</ele><time>2026-03-24T17:26:14.999Z</time></trkpt><trkpt lat="45.98109951548512" lon="9.084178875437969"><ele>833.0</ele><time>2026-03-24T17:26:15.999Z</time></trkpt><trkpt lat="45.98104896665498" lon="9.08406549215158"><ele>833.0</ele><time>2026-03-24T17:26:17.999Z</time></trkpt><trkpt lat="45.980930318424825" lon="9.084095344241053"><ele>833.0</ele><time>2026-03-24T17:26:20.999Z</time></trkpt><trkpt lat="45.98086159467569" lon="9.08412047677109"><ele>833.0</ele><time>2026-03-24T17:26:21.999Z</time></trkpt><trkpt lat="45.98074666345076" lon="9.084151358679547"><ele>840.0</ele><time>2026-03-24T17:26:23.999Z</time></trkpt><trkpt lat="45.98065087392836" lon="9.084129100603196"><ele>847.0</ele><time>2026-03-24T17:26:26.999Z</time></trkpt><trkpt lat="45.98057546913087" lon="9.084001169373277"><ele>854.0</ele><time>2026-03-24T17:26:28.999Z</time></trkpt><trkpt lat="45.98052739234352" lon="9.083863347372777"><ele>861.0</ele><time>2026-03-24T17:26:30.999Z</time></trkpt><trkpt lat="45.98045940339979" lon="9.083825050183314"><ele>868.0</ele><time>2026-03-24T17:26:33.999Z</time></trkpt><trkpt lat="45.98034178206723" lon="9.083836826711195"><ele>868.0</ele><time>2026-03-24T17:26:37.999Z</time></trkpt><trkpt lat="45.980245584216746" lon="9.083848173802336"><ele>868.0</ele><time>2026-03-24T17:26:38.999Z</time></trkpt><trkpt lat="45.98014990954029" lon="9.08382997564552"><ele>868.0</ele><time>2026-03-24T17:26:39.999Z</time></trkpt><trkpt lat="45.98006167965565" lon="9.083824118429142"><ele>868.0</ele><time>2026-03-24T17:26:40.999Z</time></trkpt><trkpt lat="45.97996580177005" lon="9.08381150252205"><ele>868.0</ele><time>2026-03-24T17:26:42.999Z</time></trkpt><trkpt lat="45.97987006520005" lon="9.083814247785474"><ele>873.2</ele><time>2026-03-24T17:26:44.999Z</time></trkpt><trkpt lat="45.97974767149708" lon="9.083780960746815"><ele>878.4</ele><time>2026-03-24T17:26:46.999Z</time></trkpt><trkpt lat="45.979677767877874" lon="9.083774234686608"><ele>883.6000000000001</ele><time>2026-03-24T17:26:47.999Z</time></trkpt><trkpt lat="45.97958411302552" lon="9.083763539184671"><ele>888.8000000000001</ele><time>2026-03-24T17:26:49.999Z</time></trkpt><trkpt lat="45.97956781990427" lon="9.08363293929754"><ele>894.0</ele><time>2026-03-24T17:26:54.998Z</time></trkpt><trkpt lat="45.97952247070003" lon="9.083449408471811"><ele>894.0</ele><time>2026-03-24T17:26:56.998Z</time></trkpt><trkpt lat="45.979504517433305" lon="9.083353223145307"><ele>894.0</ele><time>2026-03-24T17:26:57.998Z</time></trkpt><trkpt lat="45.97943950435008" lon="9.08335027652954"><ele>894.0</ele><time>2026-03-24T17:27:02.998Z</time></trkpt><trkpt lat="45.97937133153639" lon="9.08338154291794"><ele>894.0</ele><time>2026-03-24T17:27:04.998Z</time></trkpt><trkpt lat="45.97931327065328" lon="9.083337276090383"><ele>894.0</ele><time>2026-03-24T17:27:06Z</time></trkpt><trkpt lat="45.97924483973215" lon="9.083260438949102"><ele>894.0</ele><time>2026-03-24T17:27:07Z</time></trkpt><trkpt lat="45.9791998718458" lon="9.083138430326715"><ele>897.5</ele><time>2026-03-24T17:27:09Z</time></trkpt><trkpt lat="45.97913288906168" lon="9.083093934715704"><ele>901.0</ele><time>2026-03-24T17:27:12Z</time></trkpt><trkpt lat="45.97905009882715" lon="9.083113804567905"><ele>904.5</ele><time>2026-03-24T17:27:14Z</time></trkpt><trkpt lat="45.978949036557815" lon="9.083153875967039"><ele>908.0</ele><time>2026-03-24T17:27:16Z</time></trkpt><trkpt lat="45.97887395683498" lon="9.083143719734412"><ele>911.5</ele><time>2026-03-24T17:27:18Z</time></trkpt><trkpt lat="45.9787730220782" lon="9.083110289916961"><ele>915.0</ele><time>2026-03-24T17:27:20Z</time></trkpt><trkpt lat="45.97864428291241" lon="9.083046678171625"><ele>915.0</ele><time>2026-03-24T17:27:22Z</time></trkpt><trkpt lat="45.97859725244466" lon="9.082981718614889"><ele>915.0</ele><time>2026-03-24T17:27:23Z</time></trkpt><trkpt lat="45.97852293640936" lon="9.082904630985782"><ele>915.0</ele><time>2026-03-24T17:27:25Z</time></trkpt><trkpt lat="45.9784989225037" lon="9.082818776974305"><ele>915.0</ele><time>2026-03-24T17:27:28Z</time></trkpt><trkpt lat="45.97844066716781" lon="9.082719380756044"><ele>915.0</ele><time>2026-03-24T17:27:30Z</time></trkpt><trkpt lat="45.978368419239565" lon="9.08266917283951"><ele>915.0</ele><time>2026-03-24T17:27:33Z</time></trkpt><trkpt lat="45.97826720170749" lon="9.08272857422559"><ele>922.5</ele><time>2026-03-24T17:27:36Z</time></trkpt><trkpt lat="45.97816831068073" lon="9.08278777571083"><ele>930.0</ele><time>2026-03-24T17:27:39Z</time></trkpt><trkpt lat="45.978033173007354" lon="9.082783540177939"><ele>937.5</ele><time>2026-03-24T17:27:41Z</time></trkpt><trkpt lat="45.97795531557733" lon="9.08269038107266"><ele>945.0</ele><time>2026-03-24T17:27:42Z</time></trkpt><trkpt lat="45.97785118381011" lon="9.082571089501378"><ele>945.0</ele><time>2026-03-24T17:27:43Z</time></trkpt><trkpt lat="45.977766317789666" lon="9.082513068004946"><ele>945.0</ele><time>2026-03-24T17:27:44Z</time></trkpt><trkpt lat="45.97766864199673" lon="9.082455575246074"><ele>945.0</ele><time>2026-03-24T17:27:45Z</time></trkpt><trkpt lat="45.9775816529367" lon="9.082372895754158"><ele>945.0</ele><time>2026-03-24T17:27:46Z</time></trkpt><trkpt lat="45.97750260285373" lon="9.082299354014927"><ele>945.0</ele><time>2026-03-24T17:27:47Z</time></trkpt><trkpt lat="45.97743292075382" lon="9.08225976280212"><ele>945.25</ele><time>2026-03-24T17:27:48Z</time></trkpt><trkpt lat="45.97732797830544" lon="9.082208367454903"><ele>945.5</ele><time>2026-03-24T17:27:50Z</time></trkpt><trkpt lat="45.97727460721242" lon="9.082076707744761"><ele>945.75</ele><time>2026-03-24T17:27:52Z</time></trkpt><trkpt lat="45.977276321485846" lon="9.081864341808842"><ele>946.0</ele><time>2026-03-24T17:27:54Z</time></trkpt><trkpt lat="45.97725431368803" lon="9.081676286285933"><ele>942.8333333333333</ele><time>2026-03-24T17:27:54.999Z</time></trkpt><trkpt lat="45.97725195520346" lon="9.08147499288924"><ele>939.6666666666666</ele><time>2026-03-24T17:27:55.999Z</time></trkpt><trkpt lat="45.97722308350585" lon="9.081349695175554"><ele>936.5</ele><time>2026-03-24T17:27:56.999Z</time></trkpt><trkpt lat="45.9772042098119" lon="9.081247938511346"><ele>933.3333333333333</ele><time>2026-03-24T17:27:57.999Z</time></trkpt><trkpt lat="45.97718424998723" lon="9.081149032306739"><ele>930.1666666666666</ele><time>2026-03-24T17:27:58.999Z</time></trkpt><trkpt lat="45.97714613012455" lon="9.08107642378714"><ele>927.0</ele><time>2026-03-24T17:27:59.999Z</time></trkpt><trkpt lat="45.97704605875014" lon="9.08094812753752"><ele>927.0</ele><time>2026-03-24T17:28:01.999Z</time></trkpt><trkpt lat="45.97697481332526" lon="9.080894792505067"><ele>927.0</ele><time>2026-03-24T17:28:02.999Z</time></trkpt><trkpt lat="45.97692875967194" lon="9.080800803698457"><ele>927.0</ele><time>2026-03-24T17:28:03.999Z</time></trkpt><trkpt lat="45.97688305653615" lon="9.080687962829398"><ele>927.0</ele><time>2026-03-24T17:28:04.999Z</time></trkpt><trkpt lat="45.97681322005894" lon="9.080565110699647"><ele>927.0</ele><time>2026-03-24T17:28:05.999Z</time></trkpt><trkpt lat="45.976783615837434" lon="9.080414464767903"><ele>927.3333333333334</ele><time>2026-03-24T17:28:06.999Z</time></trkpt><trkpt lat="45.97671512232512" lon="9.080280484646677"><ele>927.6666666666667</ele><time>2026-03-24T17:28:07.999Z</time></trkpt><trkpt lat="45.97665117536858" lon="9.080209168896475"><ele>928.0</ele><time>2026-03-24T17:28:08.999Z</time></trkpt><trkpt lat="45.976594281776514" lon="9.080130865179852"><ele>928.3333333333334</ele><time>2026-03-24T17:28:09.999Z</time></trkpt><trkpt lat="45.97652581824766" lon="9.0800760863265"><ele>928.6666666666667</ele><time>2026-03-24T17:28:10.999Z</time></trkpt><trkpt lat="45.976456300031764" lon="9.080045594378973"><ele>929.0</ele><time>2026-03-24T17:28:11.999Z</time></trkpt><trkpt lat="45.97637593360966" lon="9.080008319193798"><ele>929.0</ele><time>2026-03-24T17:28:12.999Z</time></trkpt><trkpt lat="45.976270290582384" lon="9.07998761790957"><ele>929.0000000000001</ele><time>2026-03-24T17:28:13.999Z</time></trkpt><trkpt lat="45.97615894854794" lon="9.07999259819567"><ele>929.0000000000001</ele><time>2026-03-24T17:28:14.999Z</time></trkpt><trkpt lat="45.97605337349783" lon="9.079992246596346"><ele>929.0</ele><time>2026-03-24T17:28:15.999Z</time></trkpt><trkpt lat="45.97593225320243" lon="9.079983235259316"><ele>929.0</ele><time>2026-03-24T17:28:16.999Z</time></trkpt><trkpt lat="45.975839247964664" lon="9.079967516933793"><ele>930.2</ele><time>2026-03-24T17:28:17.999Z</time></trkpt><trkpt lat="45.97572138585624" lon="9.079995212192701"><ele>931.4000000000001</ele><time>2026-03-24T17:28:19.999Z</time></trkpt><trkpt lat="45.97564728407876" lon="9.080001478505078"><ele>932.6</ele><time>2026-03-24T17:28:20.999Z</time></trkpt><trkpt lat="45.97553289050224" lon="9.080012431477448"><ele>933.8</ele><time>2026-03-24T17:28:21.999Z</time></trkpt><trkpt lat="45.9754255003827" lon="9.079999805194968"><ele>935.0</ele><time>2026-03-24T17:28:22.999Z</time></trkpt><trkpt lat="45.97530693353011" lon="9.080012290963499"><ele>935.0</ele><time>2026-03-24T17:28:23.999Z</time></trkpt><trkpt lat="45.97519780416147" lon="9.08005027494378"><ele>935.0</ele><time>2026-03-24T17:28:24.999Z</time></trkpt><trkpt lat="45.97510560724145" lon="9.080095468715518"><ele>935.0</ele><time>2026-03-24T17:28:25.999Z</time></trkpt><trkpt lat="45.97501153521614" lon="9.080107255139378"><ele>935.0</ele><time>2026-03-24T17:28:26.999Z</time></trkpt><trkpt lat="45.97493008675254" lon="9.080161304023513"><ele>935.0</ele><time>2026-03-24T17:28:27.999Z</time></trkpt><trkpt lat="45.97482765956352" lon="9.080240956740965"><ele>930.6</ele><time>2026-03-24T17:28:28.999Z</time></trkpt><trkpt lat="45.9747290390231" lon="9.080297591895892"><ele>926.2</ele><time>2026-03-24T17:28:29.999Z</time></trkpt><trkpt lat="45.97462440434515" lon="9.080323541049781"><ele>921.8</ele><time>2026-03-24T17:28:30.999Z</time></trkpt><trkpt lat="45.974523124993596" lon="9.080365891860529"><ele>917.4</ele><time>2026-03-24T17:28:31.999Z</time></trkpt><trkpt lat="45.97441805004065" lon="9.080425451264004"><ele>913.0</ele><time>2026-03-24T17:28:32.999Z</time></trkpt><trkpt lat="45.974306656205975" lon="9.080431889246666"><ele>913.0</ele><time>2026-03-24T17:28:33.999Z</time></trkpt><trkpt lat="45.97420826906741" lon="9.080453113733444"><ele>913.0</ele><time>2026-03-24T17:28:34.999Z</time></trkpt><trkpt lat="45.974104298101736" lon="9.080464319555675"><ele>913.0</ele><time>2026-03-24T17:28:35.999Z</time></trkpt><trkpt lat="45.973998751559655" lon="9.080446397268886"><ele>913.0</ele><time>2026-03-24T17:28:36.999Z</time></trkpt><trkpt lat="45.97390762027021" lon="9.08043212147109"><ele>913.0</ele><time>2026-03-24T17:28:37.999Z</time></trkpt><trkpt lat="45.973816292160755" lon="9.080417268700083"><ele>909.0</ele><time>2026-03-24T17:28:38.999Z</time></trkpt><trkpt lat="45.9737295408751" lon="9.080400005434852"><ele>905.0</ele><time>2026-03-24T17:28:39.999Z</time></trkpt><trkpt lat="45.97363587400293" lon="9.080417077904233"><ele>901.0</ele><time>2026-03-24T17:28:40.999Z</time></trkpt><trkpt lat="45.9735497913046" lon="9.080405901747492"><ele>897.0</ele><time>2026-03-24T17:28:41.999Z</time></trkpt><trkpt lat="45.97346061664714" lon="9.080382043812675"><ele>893.0</ele><time>2026-03-24T17:28:42.999Z</time></trkpt><trkpt lat="45.97335256119844" lon="9.080390198088995"><ele>888.2</ele><time>2026-03-24T17:28:43.999Z</time></trkpt><trkpt lat="45.97324916240732" lon="9.080389261645706"><ele>883.4</ele><time>2026-03-24T17:28:44.999Z</time></trkpt><trkpt lat="45.97315500543007" lon="9.080405555493629"><ele>878.6000000000001</ele><time>2026-03-24T17:28:45.999Z</time></trkpt><trkpt lat="45.97306316251768" lon="9.080413416295599"><ele>873.8000000000001</ele><time>2026-03-24T17:28:46.999Z</time></trkpt><trkpt lat="45.97297334896494" lon="9.080387779752218"><ele>869.0</ele><time>2026-03-24T17:28:47.999Z</time></trkpt><trkpt lat="45.97287940545603" lon="9.08040158165514"><ele>869.0</ele><time>2026-03-24T17:28:48.999Z</time></trkpt><trkpt lat="45.97278076699102" lon="9.08039046939791"><ele>869.0000000000001</ele><time>2026-03-24T17:28:49.999Z</time></trkpt><trkpt lat="45.972673864846556" lon="9.080374070546045"><ele>869.0000000000001</ele><time>2026-03-24T17:28:50.999Z</time></trkpt><trkpt lat="45.972581148223156" lon="9.080348061205942"><ele>869.0</ele><time>2026-03-24T17:28:51.999Z</time></trkpt><trkpt lat="45.97247255071277" lon="9.080336461233912"><ele>869.0</ele><time>2026-03-24T17:28:52.999Z</time></trkpt><trkpt lat="45.972346706532235" lon="9.080338564592017"><ele>865.6</ele><time>2026-03-24T17:28:53.999Z</time></trkpt><trkpt lat="45.97225580926563" lon="9.080337806286293"><ele>862.2</ele><time>2026-03-24T17:28:54.999Z</time></trkpt><trkpt lat="45.97217189857644" lon="9.080373007333934"><ele>858.8000000000001</ele><time>2026-03-24T17:28:55.999Z</time></trkpt><trkpt lat="45.97207996183935" lon="9.080419618994686"><ele>855.4000000000001</ele><time>2026-03-24T17:28:56.999Z</time></trkpt><trkpt lat="45.97199630008963" lon="9.080447470159234"><ele>852.0</ele><time>2026-03-24T17:28:57.999Z</time></trkpt><trkpt lat="45.97190762961471" lon="9.080449897716814"><ele>852.0</ele><time>2026-03-24T17:28:58.999Z</time></trkpt><trkpt lat="45.971809279625624" lon="9.080449231490949"><ele>852.0</ele><time>2026-03-24T17:29:00.999Z</time></trkpt><trkpt lat="45.971770417226466" lon="9.08036629459314"><ele>852.0</ele><time>2026-03-24T17:29:02.999Z</time></trkpt><trkpt lat="45.97176162879076" lon="9.080214806493116"><ele>852.0</ele><time>2026-03-24T17:29:04.998Z</time></trkpt><trkpt lat="45.97174920481744" lon="9.080108285952747"><ele>852.0</ele><time>2026-03-24T17:29:05.998Z</time></trkpt><trkpt lat="45.971721813409744" lon="9.080016639854163"><ele>852.0</ele><time>2026-03-24T17:29:06.998Z</time></trkpt><trkpt lat="45.97172195390471" lon="9.079912677179179"><ele>848.8</ele><time>2026-03-24T17:29:07.998Z</time></trkpt><trkpt lat="45.97170883538101" lon="9.079805671886827"><ele>845.6</ele><time>2026-03-24T17:29:08.998Z</time></trkpt><trkpt lat="45.97174086092721" lon="9.079653571393482"><ele>842.4</ele><time>2026-03-24T17:29:10.998Z</time></trkpt><trkpt lat="45.971817703007645" lon="9.079497897394008"><ele>839.1999999999999</ele><time>2026-03-24T17:29:13Z</time></trkpt><trkpt lat="45.97181496821749" lon="9.07937168529557"><ele>836.0</ele><time>2026-03-24T17:29:14Z</time></trkpt><trkpt lat="45.971818817521005" lon="9.07927387196032"><ele>836.0000000000001</ele><time>2026-03-24T17:29:15Z</time></trkpt><trkpt lat="45.97183504922174" lon="9.079170243088505"><ele>836.0</ele><time>2026-03-24T17:29:16Z</time></trkpt><trkpt lat="45.97182555839493" lon="9.079051780809166"><ele>836.0</ele><time>2026-03-24T17:29:17Z</time></trkpt><trkpt lat="45.971837251210566" lon="9.07892973882889"><ele>836.0</ele><time>2026-03-24T17:29:18Z</time></trkpt><trkpt lat="45.971834102022314" lon="9.078782917771267"><ele>836.0000000000001</ele><time>2026-03-24T17:29:20Z</time></trkpt><trkpt lat="45.971781888757306" lon="9.078695060308718"><ele>836.0</ele><time>2026-03-24T17:29:23Z</time></trkpt><trkpt lat="45.97173035938145" lon="9.07856285611095"><ele>834.1666666666667</ele><time>2026-03-24T17:29:25Z</time></trkpt><trkpt lat="45.971694981571744" lon="9.078462504925172"><ele>832.3333333333334</ele><time>2026-03-24T17:29:26Z</time></trkpt><trkpt lat="45.971659608060854" lon="9.078336351507021"><ele>830.5</ele><time>2026-03-24T17:29:27Z</time></trkpt><trkpt lat="45.97166972317025" lon="9.078199964418168"><ele>828.6666666666667</ele><time>2026-03-24T17:29:28Z</time></trkpt><trkpt lat="45.971700739276045" lon="9.078075974132137"><ele>826.8333333333334</ele><time>2026-03-24T17:29:29Z</time></trkpt><trkpt lat="45.971734514727615" lon="9.07796900546884"><ele>825.0</ele><time>2026-03-24T17:29:30Z</time></trkpt><trkpt lat="45.97175248410753" lon="9.077861495355695"><ele>823.6666666666666</ele><time>2026-03-24T17:29:31Z</time></trkpt><trkpt lat="45.97173724171641" lon="9.077703316749476"><ele>822.3333333333333</ele><time>2026-03-24T17:29:33Z</time></trkpt><trkpt lat="45.971675197387725" lon="9.077635197135121"><ele>821.0</ele><time>2026-03-24T17:29:34Z</time></trkpt><trkpt lat="45.9716226861995" lon="9.077547225851148"><ele>819.6666666666666</ele><time>2026-03-24T17:29:35Z</time></trkpt><trkpt lat="45.971566316068646" lon="9.077475941585734"><ele>818.3333333333333</ele><time>2026-03-24T17:29:36Z</time></trkpt><trkpt lat="45.97149496268402" lon="9.077393728770907"><ele>817.0</ele><time>2026-03-24T17:29:38Z</time></trkpt><trkpt lat="45.9714612491063" lon="9.077305545324247"><ele>812.0</ele><time>2026-03-24T17:29:41Z</time></trkpt><trkpt lat="45.97154272954231" lon="9.077227951425451"><ele>807.0</ele><time>2026-03-24T17:29:42Z</time></trkpt><trkpt lat="45.97140922877396" lon="9.077175673769673"><ele>802.0</ele><time>2026-03-24T17:29:44Z</time></trkpt><trkpt lat="45.9713231705095" lon="9.077172420002581"><ele>797.0</ele><time>2026-03-24T17:29:46Z</time></trkpt><trkpt lat="45.971234882094826" lon="9.077181742462068"><ele>792.0</ele><time>2026-03-24T17:29:48Z</time></trkpt><trkpt lat="45.97117680700511" lon="9.077093155572696"><ele>792.0</ele><time>2026-03-24T17:29:50Z</time></trkpt><trkpt lat="45.971137099917925" lon="9.076978734402998"><ele>792.0</ele><time>2026-03-24T17:29:52Z</time></trkpt><trkpt lat="45.971092848491736" lon="9.076854336950118"><ele>792.0</ele><time>2026-03-24T17:29:54Z</time></trkpt><trkpt lat="45.97104233112863" lon="9.076720953000153"><ele>792.0</ele><time>2026-03-24T17:29:56Z</time></trkpt></trkseg></trk></gpx>